Darstellungsparameter: Aktuell verwendete Einstellungen:
Skalierung der Graphiken ... ?
xyx+y,   Skalierungsfaktor:      Skalierung: Modus: x, Faktor: 1
Darstellungszeitraum ... ?
Vom - - bis: - -   Zeitraum: 02.04.2004 - 22.04.2004
Min/Max/Avg-Anzeige ... ?
Zeige MMA aktuell
Zeige MMA Monat
Zeige MMA alles
Zeige --A aktuell
Zeige --A Monat
Zeige --A alles
Keine MMA-Anzeige
MMA:
Average (ber die Originaldaten)
MMA-Basis: 02.04.2004 - 22.04.2004
Quicknavigation für Darstellung... ?
Tage:      1T, 2T, 3T, 5T -1T -2T -3T -5T +1T +2T +3T +5T
Wochen: 1W, 2W, 3W -1W -2W -3W +1W +2W +3W
Monate: 1M, 3M, 6M -1M -3M -6M +1M +3M +6M
Jahre:    1J, 3J, 5J, 10J -1J -3J -5J -10J +1J +3J +5J +10J
Nutze für die Darstellung ... ?
Originaldaten oder Mittelwerte auf ...
Stundenbasis Tagesbasis Wochenbasis
Monatsbasis Jahresbasis      Datenbasis: Original-Daten
Darstellen als:
Statistik (Auto) Statistik J:M      Darstellung:
Zur Graphik,    zurück zur Übersicht aller Sensoren.
 
Tabellarische Datenbersicht: ?
 
Sensor: Nr:Datum:Temp:Abs-Feuchte:Windchill:Wind:
Aussen-T/F 1 02-04-2004 00:08:59 13 C 5.44 g/m*3 13 C 0 km/h
2 02-04-2004 00:20:59 12.9 C 5.52 g/m*3 12.9 C 0 km/h
3 02-04-2004 00:32:57 12.8 C 5.49 g/m*3 12.8 C 0 km/h
4 02-04-2004 00:44:01 12.6 C 5.42 g/m*3 12.6 C 0 km/h
5 02-04-2004 00:56:01 12.5 C 5.39 g/m*3 12.5 C 0 km/h
6 02-04-2004 01:08:01 12.3 C 5.32 g/m*3 12.3 C 0 km/h
7 02-04-2004 01:20:01 12.1 C 5.36 g/m*3 12.1 C 0 km/h
8 02-04-2004 01:32:01 11.8 C 5.47 g/m*3 11.8 C 0 km/h
9 02-04-2004 01:44:01 11.3 C 5.51 g/m*3 11.3 C 0 km/h
10 02-04-2004 01:56:01 11.1 C 5.44 g/m*3 11.1 C 0 km/h
11 02-04-2004 02:08:01 11 C 5.51 g/m*3 11 C 0 km/h
12 02-04-2004 02:20:01 10.5 C 5.53 g/m*3 10.5 C 0 km/h
13 02-04-2004 02:32:01 10.4 C 5.69 g/m*3 10.4 C 0 km/h
14 02-04-2004 02:44:01 9.9 C 5.6 g/m*3 9.9 C 0 km/h
15 02-04-2004 02:57:01 9.7 C 5.62 g/m*3 9.7 C 0 km/h
16 02-04-2004 03:09:01 9.6 C 5.59 g/m*3 9.6 C 0 km/h
17 02-04-2004 03:21:00 9.5 C 5.64 g/m*3 9.5 C 0 km/h
18 02-04-2004 03:33:01 9.2 C 5.45 g/m*3 9.2 C 0 km/h
19 02-04-2004 03:45:01 9 C 5.47 g/m*3 9 C 0 km/h
20 02-04-2004 03:57:01 8.9 C 5.61 g/m*3 8.9 C 0 km/h
21 02-04-2004 04:09:01 8.8 C 5.66 g/m*3 8.8 C 0 km/h
22 02-04-2004 04:21:00 8.8 C 5.66 g/m*3 8.8 C 0 km/h
23 02-04-2004 04:33:00 8.6 C 5.59 g/m*3 8.6 C 0 km/h
24 02-04-2004 04:45:01 8.6 C 5.59 g/m*3 8.6 C 0 km/h
25 02-04-2004 04:57:01 8.5 C 5.64 g/m*3 8.5 C 0 km/h
Sensor: Nr:Datum:Temp:Abs-Feuchte:Windchill:Wind:
Aussen-T/F 26 02-04-2004 05:09:01 8.4 C 5.6 g/m*3 8.4 C 0 km/h
27 02-04-2004 05:21:01 8.2 C 5.53 g/m*3 8.2 C 0 km/h
28 02-04-2004 05:33:01 8 C 5.54 g/m*3 8 C 0 km/h
29 02-04-2004 05:45:01 7.7 C 5.59 g/m*3 7.7 C 0 km/h
30 02-04-2004 05:57:01 7.5 C 5.6 g/m*3 7.5 C 0 km/h
31 02-04-2004 06:09:01 7.1 C 5.46 g/m*3 7.1 C 0 km/h
32 02-04-2004 06:21:01 7 C 5.5 g/m*3 7 C 0 km/h
33 02-04-2004 06:33:01 6.9 C 5.62 g/m*3 6.9 C 0 km/h
34 02-04-2004 06:45:00 6.9 C 5.54 g/m*3 6.9 C 0 km/h
35 02-04-2004 06:57:00 6.8 C 5.58 g/m*3 6.8 C 0 km/h
36 02-04-2004 07:09:00 6.5 C 5.55 g/m*3 6.5 C 0 km/h
37 02-04-2004 07:21:59 6.3 C 5.48 g/m*3 6.3 C 0 km/h
38 02-04-2004 07:33:57 6.3 C 5.55 g/m*3 6.3 C 0 km/h
39 02-04-2004 07:45:01 6.2 C 5.59 g/m*3 6.2 C 0 km/h
40 02-04-2004 07:57:01 6.2 C 5.59 g/m*3 6.2 C 0 km/h
41 02-04-2004 08:09:01 6.3 C 5.63 g/m*3 6.3 C 0 km/h
42 02-04-2004 08:21:01 6.4 C 5.66 g/m*3 6.4 C 0 km/h
43 02-04-2004 08:33:01 6.6 C 5.74 g/m*3 6.6 C 0 km/h
44 02-04-2004 08:45:00 7.2 C 5.81 g/m*3 7.2 C 0 km/h
45 02-04-2004 08:57:00 8.2 C 6.03 g/m*3 8.2 C 0 km/h
46 02-04-2004 09:09:59 8.9 C 5.87 g/m*3 8.9 C 0 km/h
47 02-04-2004 09:21:58 9.2 C 5.71 g/m*3 9.2 C 0 km/h
48 02-04-2004 09:33:57 9.6 C 5.95 g/m*3 9.6 C 0 km/h
49 02-04-2004 09:45:01 10.1 C 5.86 g/m*3 10.1 C 0 km/h
50 02-04-2004 09:57:01 10.5 C 6.11 g/m*3 10.5 C 0 km/h
Sensor: Nr:Datum:Temp:Abs-Feuchte:Windchill:Wind:
Aussen-T/F 51 02-04-2004 10:09:01 11 C 6.11 g/m*3 11 C 0 km/h
52 02-04-2004 10:21:01 11.6 C 6.13 g/m*3 11.6 C 0 km/h
53 02-04-2004 10:33:00 12.2 C 6.26 g/m*3 12.2 C 0 km/h
54 02-04-2004 10:45:01 12.8 C 6.27 g/m*3 12.8 C 0 km/h
55 02-04-2004 10:57:01 13.2 C 6.09 g/m*3 13.2 C 0 km/h
56 02-04-2004 11:09:01 13.9 C 6.11 g/m*3 13.9 C 0 km/h
57 02-04-2004 11:21:01 14.3 C 6.14 g/m*3 14.3 C 0 km/h
58 02-04-2004 11:33:01 15.2 C 6.1 g/m*3 15.2 C 0 km/h
59 02-04-2004 11:45:00 15.8 C 6.19 g/m*3 15.8 C 0 km/h
60 02-04-2004 11:57:00 16.4 C 6.14 g/m*3 16.4 C 0 km/h
61 02-04-2004 12:09:00 16.9 C 6.62 g/m*3 16.9 C 0 km/h
62 02-04-2004 12:21:58 17.2 C 6.74 g/m*3 17.2 C 0 km/h
63 02-04-2004 12:33:57 17.4 C 6.08 g/m*3 17.4 C 0 km/h
64 02-04-2004 12:45:01 17.7 C 6.49 g/m*3 17.7 C 0 km/h
65 02-04-2004 12:57:01 18.2 C 6.68 g/m*3 18.2 C 0 km/h
66 02-04-2004 13:09:01 18.6 C 6.84 g/m*3 18.6 C 0 km/h
67 02-04-2004 13:21:01 19.3 C 6.8 g/m*3 19.3 C 0 km/h
68 02-04-2004 13:33:01 19.9 C 6.87 g/m*3 19.9 C 0 km/h
69 02-04-2004 13:45:00 20.2 C 6.29 g/m*3 20.2 C 0 km/h
70 02-04-2004 13:57:00 21.1 C 5.9 g/m*3 21.1 C 0 km/h
71 02-04-2004 14:09:00 20.3 C 5.63 g/m*3 20.3 C 0 km/h
72 02-04-2004 14:21:58 20.1 C 5.21 g/m*3 20.1 C 0 km/h
73 02-04-2004 14:33:57 20.9 C 5.46 g/m*3 20.9 C 0 km/h
74 02-04-2004 14:45:01 21.5 C 5.09 g/m*3 21.5 C 0 km/h
75 02-04-2004 14:57:01 21.2 C 5.37 g/m*3 21.2 C 0 km/h
Sensor: Nr:Datum:Temp:Abs-Feuchte:Windchill:Wind:
Aussen-T/F 76 02-04-2004 15:09:01 21.4 C 5.25 g/m*3 21.4 C 0 km/h
77 02-04-2004 15:21:01 22.4 C 5.16 g/m*3 22.4 C 0 km/h
78 02-04-2004 15:33:01 22.8 C 5.28 g/m*3 22.8 C 0 km/h
79 02-04-2004 15:45:00 21.3 C 5.03 g/m*3 21.3 C 0 km/h
80 02-04-2004 15:57:00 21.7 C 5.15 g/m*3 21.7 C 0 km/h
81 02-04-2004 16:09:59 22.1 C 5.08 g/m*3 22.1 C 0 km/h
82 02-04-2004 16:21:58 22.2 C 4.91 g/m*3 22.2 C 0 km/h
83 02-04-2004 16:33:57 21.7 C 4.96 g/m*3 21.7 C 0 km/h
84 02-04-2004 16:45:01 20.8 C 4.89 g/m*3 20.8 C 0 km/h
85 02-04-2004 16:57:01 20.8 C 5.25 g/m*3 20.8 C 0 km/h
86 02-04-2004 17:09:01 20.5 C 4.98 g/m*3 20.5 C 0 km/h
87 02-04-2004 17:21:01 20.7 C 5.22 g/m*3 20.7 C 0 km/h
88 02-04-2004 17:33:01 20.2 C 5.25 g/m*3 20.2 C 0 km/h
89 02-04-2004 17:45:01 19.7 C 5.43 g/m*3 19.7 C 0 km/h
90 02-04-2004 17:57:01 19.6 C 5.4 g/m*3 19.6 C 0 km/h
91 02-04-2004 18:09:01 19.1 C 5.08 g/m*3 19.1 C 0 km/h
92 02-04-2004 18:21:01 19 C 5.38 g/m*3 19 C 0 km/h
93 02-04-2004 18:33:01 18.4 C 5.35 g/m*3 18.4 C 0 km/h
94 02-04-2004 18:45:00 18.1 C 5.41 g/m*3 18.1 C 0 km/h
95 02-04-2004 18:57:00 17.9 C 5.5 g/m*3 17.9 C 0 km/h
96 02-04-2004 19:09:00 17.9 C 5.65 g/m*3 17.9 C 0 km/h
97 02-04-2004 19:21:00 17.5 C 5.81 g/m*3 17.5 C 0 km/h
98 02-04-2004 19:33:58 17.2 C 5.86 g/m*3 17.2 C 0 km/h
99 02-04-2004 19:45:02 16.8 C 5.86 g/m*3 16.8 C 0 km/h
100 02-04-2004 19:57:02 16.3 C 5.69 g/m*3 16.3 C 0 km/h
Sensor: Nr:Datum:Temp:Abs-Feuchte:Windchill:Wind:
Aussen-T/F 101 02-04-2004 20:09:03 15.8 C 5.65 g/m*3 15.8 C 0 km/h
102 02-04-2004 20:21:02 15.4 C 5.52 g/m*3 15.4 C 0 km/h
103 02-04-2004 20:33:01 14.9 C 5.74 g/m*3 14.9 C 0 km/h
104 02-04-2004 20:45:01 14.4 C 5.81 g/m*3 14.4 C 0 km/h
105 02-04-2004 20:57:01 14.3 C 5.77 g/m*3 14.3 C 0 km/h
106 02-04-2004 21:09:00 13.9 C 5.75 g/m*3 13.9 C 0 km/h
107 02-04-2004 21:21:59 13.8 C 5.72 g/m*3 13.8 C 0 km/h
108 02-04-2004 21:33:59 13.6 C 5.88 g/m*3 13.6 C 0 km/h
109 02-04-2004 21:45:01 13.7 C 5.68 g/m*3 13.7 C 0 km/h
110 02-04-2004 21:57:01 13.5 C 5.85 g/m*3 13.5 C 0 km/h
111 02-04-2004 22:09:01 13.1 C 5.93 g/m*3 13.1 C 0 km/h
112 02-04-2004 22:21:01 12.8 C 6.05 g/m*3 12.8 C 0 km/h
113 02-04-2004 22:33:01 12.4 C 6.01 g/m*3 12.4 C 0 km/h
114 02-04-2004 22:45:01 12.3 C 5.97 g/m*3 12.3 C 0 km/h
115 02-04-2004 22:57:01 12.4 C 6.12 g/m*3 12.4 C 0 km/h
116 02-04-2004 23:09:01 12.6 C 6.2 g/m*3 12.6 C 0 km/h
117 02-04-2004 23:21:01 12.6 C 6.2 g/m*3 12.6 C 0 km/h
118 02-04-2004 23:33:01 12.8 C 6.27 g/m*3 12.8 C 0 km/h
119 02-04-2004 23:45:00 12.7 C 6.23 g/m*3 12.7 C 0 km/h
120 02-04-2004 23:57:00 12.9 C 6.31 g/m*3 12.9 C 0 km/h
121 03-04-2004 00:09:00 12.7 C 6.23 g/m*3 12.7 C 0 km/h
122 03-04-2004 00:21:59 12.8 C 6.27 g/m*3 12.8 C 0 km/h
123 03-04-2004 00:33:57 12.9 C 6.42 g/m*3 12.9 C 0 km/h
124 03-04-2004 00:45:01 13 C 6.35 g/m*3 13 C 0 km/h
125 03-04-2004 00:57:01 13 C 6.58 g/m*3 13 C 0 km/h
Sensor: Nr:Datum:Temp:Abs-Feuchte:Windchill:Wind:
Aussen-T/F 126 03-04-2004 01:09:01 13 C 6.46 g/m*3 13 C 0 km/h
127 03-04-2004 01:21:01 13 C 6.69 g/m*3 13 C 0 km/h
128 03-04-2004 01:33:01 13.1 C 6.85 g/m*3 13.1 C 0 km/h
129 03-04-2004 01:45:01 13 C 6.92 g/m*3 13 C 0 km/h
130 03-04-2004 01:57:01 12.8 C 7.17 g/m*3 12.8 C 0 km/h
131 03-04-2004 02:09:59 12.7 C 7.24 g/m*3 12.7 C 0 km/h
132 03-04-2004 02:21:58 12.8 C 7.17 g/m*3 12.8 C 0 km/h
133 03-04-2004 02:33:57 12.8 C 7.17 g/m*3 12.8 C 0 km/h
134 03-04-2004 02:46:02 12.8 C 7.17 g/m*3 12.8 C 0 km/h
135 03-04-2004 02:58:02 11.9 C 7.63 g/m*3 11.9 C 0 km/h
136 03-04-2004 03:10:02 11.2 C 8.21 g/m*3 11.2 C 0 km/h
137 03-04-2004 03:22:02 10.8 C 8.4 g/m*3 10.8 C 0 km/h
138 03-04-2004 03:34:00 10.9 C 8.65 g/m*3 10.9 C 0 km/h
139 03-04-2004 03:46:00 10.9 C 8.85 g/m*3 10.9 C 0 km/h
140 03-04-2004 03:58:00 10.8 C 8.9 g/m*3 10.8 C 0 km/h
141 03-04-2004 04:10:00 10.8 C 8.9 g/m*3 10.8 C 0 km/h
142 03-04-2004 04:22:59 10.7 C 8.94 g/m*3 10.7 C 0 km/h
143 03-04-2004 04:34:58 10.7 C 8.94 g/m*3 10.7 C 0 km/h
144 03-04-2004 04:46:01 10.6 C 8.88 g/m*3 10.6 C 0 km/h
145 03-04-2004 04:58:01 10.5 C 8.83 g/m*3 10.5 C 0 km/h
146 03-04-2004 05:10:01 10.5 C 8.83 g/m*3 10.5 C 0 km/h
147 03-04-2004 05:22:00 10.5 C 8.83 g/m*3 10.5 C 0 km/h
148 03-04-2004 05:34:00 10.6 C 8.98 g/m*3 10.6 C 0 km/h
149 03-04-2004 05:46:01 10.5 C 8.83 g/m*3 10.5 C 0 km/h
150 03-04-2004 05:58:01 10.6 C 8.88 g/m*3 10.6 C 0 km/h
Sensor: Nr:Datum:Temp:Abs-Feuchte:Windchill:Wind:
Aussen-T/F 151 03-04-2004 06:10:01 10.6 C 8.88 g/m*3 10.6 C 0 km/h
152 03-04-2004 06:22:01 10.5 C 8.73 g/m*3 10.5 C 0 km/h
153 03-04-2004 06:34:01 10.6 C 8.78 g/m*3 10.6 C 0 km/h
154 03-04-2004 06:46:00 10.6 C 8.69 g/m*3 10.6 C 0 km/h
155 03-04-2004 06:58:00 10.6 C 8.59 g/m*3 10.6 C 0 km/h
156 03-04-2004 07:10:59 10.6 C 8.2 g/m*3 10.6 C 0 km/h
157 03-04-2004 07:22:58 10.6 C 8 g/m*3 10.6 C 0 km/h
158 03-04-2004 07:34:57 10.6 C 7.91 g/m*3 10.6 C 0 km/h
159 03-04-2004 07:46:01 10.6 C 7.91 g/m*3 10.6 C 0 km/h
160 03-04-2004 07:58:01 10.7 C 7.86 g/m*3 10.7 C 0 km/h
161 03-04-2004 08:10:01 10.9 C 7.66 g/m*3 10.9 C 0 km/h
162 03-04-2004 08:22:01 10.9 C 7.46 g/m*3 10.9 C 0 km/h
163 03-04-2004 08:34:01 11 C 7.31 g/m*3 11 C 0 km/h
164 03-04-2004 08:46:01 11.1 C 7.25 g/m*3 11.1 C 0 km/h
165 03-04-2004 08:58:01 11.3 C 7.14 g/m*3 11.3 C 0 km/h
166 03-04-2004 09:10:01 11.4 C 7.19 g/m*3 11.4 C 0 km/h
167 03-04-2004 09:22:01 11.5 C 7.13 g/m*3 11.5 C 0 km/h
168 03-04-2004 09:34:01 11.9 C 7.2 g/m*3 11.9 C 0 km/h
169 03-04-2004 09:46:00 12 C 7.03 g/m*3 12 C 0 km/h
170 03-04-2004 09:58:00 11.8 C 6.95 g/m*3 11.8 C 0 km/h
171 03-04-2004 10:10:00 12 C 6.82 g/m*3 12 C 0 km/h
172 03-04-2004 10:22:59 12 C 6.82 g/m*3 12 C 0 km/h
173 03-04-2004 10:34:57 12 C 6.71 g/m*3 12 C 0 km/h
174 03-04-2004 10:46:01 12.3 C 6.62 g/m*3 12.3 C 0 km/h
175 03-04-2004 10:58:01 12.3 C 6.62 g/m*3 12.3 C 0 km/h
Sensor: Nr:Datum:Temp:Abs-Feuchte:Windchill:Wind:
Aussen-T/F 176 03-04-2004 11:10:01 12.7 C 6.57 g/m*3 12.7 C 0 km/h
177 03-04-2004 11:22:01 13 C 6.12 g/m*3 13 C 0 km/h
178 03-04-2004 11:34:01 13.6 C 6.36 g/m*3 13.6 C 0 km/h
179 03-04-2004 11:46:01 13.5 C 6.32 g/m*3 13.5 C 0 km/h
180 03-04-2004 11:58:01 13.6 C 6 g/m*3 13.6 C 0 km/h
181 03-04-2004 12:10:00 13.9 C 5.75 g/m*3 13.9 C 0 km/h
182 03-04-2004 12:22:58 14 C 5.55 g/m*3 14 C 0 km/h
183 03-04-2004 12:34:57 14.5 C 5.6 g/m*3 14.5 C 0 km/h
184 03-04-2004 12:46:01 14.4 C 5.44 g/m*3 14.4 C 0 km/h
185 03-04-2004 12:58:01 14.8 C 5.7 g/m*3 14.8 C 0 km/h
186 03-04-2004 13:10:01 14.8 C 5.45 g/m*3 14.8 C 0 km/h
187 03-04-2004 13:22:01 15.6 C 5.32 g/m*3 15.6 C 0 km/h
188 03-04-2004 13:34:01 15.3 C 5.09 g/m*3 15.3 C 0 km/h
189 03-04-2004 13:46:00 15.4 C 5.12 g/m*3 15.4 C 0 km/h
190 03-04-2004 13:58:00 15.3 C 5.09 g/m*3 15.3 C 0 km/h
191 03-04-2004 14:10:00 15.2 C 5.19 g/m*3 15.2 C 0 km/h
192 03-04-2004 14:22:59 15.2 C 5.32 g/m*3 15.2 C 0 km/h
193 03-04-2004 14:34:58 15.1 C 5.42 g/m*3 15.1 C 0 km/h
194 03-04-2004 14:46:02 14.7 C 5.67 g/m*3 14.7 C 0 km/h
195 03-04-2004 14:58:02 15.6 C 5.85 g/m*3 15.6 C 0 km/h
196 03-04-2004 15:10:01 14.8 C 5.83 g/m*3 14.8 C 0 km/h
197 03-04-2004 15:22:01 14.8 C 5.95 g/m*3 14.8 C 0 km/h
198 03-04-2004 15:34:01 14.6 C 6.01 g/m*3 14.6 C 0 km/h
199 03-04-2004 15:46:00 14.2 C 5.98 g/m*3 14.2 C 0 km/h
200 03-04-2004 15:58:00 14.2 C 5.98 g/m*3 14.2 C 0 km/h
Sensor: Nr:Datum:Temp:Abs-Feuchte:Windchill:Wind:
Aussen-T/F 201 03-04-2004 16:10:00 14.4 C 6.06 g/m*3 14.4 C 0 km/h
202 03-04-2004 16:22:59 14.6 C 6.01 g/m*3 14.6 C 0 km/h
203 03-04-2004 16:34:58 14.5 C 6.09 g/m*3 14.5 C 0 km/h
204 03-04-2004 16:46:01 13.9 C 6.47 g/m*3 13.9 C 0 km/h
205 03-04-2004 16:58:01 14.8 C 6.59 g/m*3 14.8 C 0 km/h
206 03-04-2004 17:10:01 14.8 C 6.33 g/m*3 14.8 C 0 km/h
207 03-04-2004 17:22:01 14.5 C 6.22 g/m*3 14.5 C 0 km/h
208 03-04-2004 17:34:01 14.2 C 6.23 g/m*3 14.2 C 0 km/h
209 03-04-2004 17:46:01 14.2 C 6.23 g/m*3 14.2 C 0 km/h
210 03-04-2004 17:58:01 13.9 C 6.23 g/m*3 13.9 C 0 km/h
211 03-04-2004 18:10:01 13.7 C 6.39 g/m*3 13.7 C 0 km/h
212 03-04-2004 18:22:01 13.6 C 6.59 g/m*3 13.6 C 0 km/h
213 03-04-2004 18:34:01 13.8 C 6.55 g/m*3 13.8 C 0 km/h
214 03-04-2004 18:46:00 14 C 6.27 g/m*3 14 C 0 km/h
215 03-04-2004 18:58:00 13.8 C 6.43 g/m*3 13.8 C 0 km/h
216 03-04-2004 19:10:00 13.4 C 6.39 g/m*3 13.4 C 0 km/h
217 03-04-2004 19:22:59 13.4 C 6.51 g/m*3 13.4 C 0 km/h
218 03-04-2004 19:34:57 13.4 C 6.51 g/m*3 13.4 C 0 km/h
219 03-04-2004 19:46:02 13.3 C 6.59 g/m*3 13.3 C 0 km/h
220 03-04-2004 19:58:02 13.3 C 6.59 g/m*3 13.3 C 0 km/h
221 03-04-2004 20:10:01 12.8 C 6.72 g/m*3 12.8 C 0 km/h
222 03-04-2004 20:22:01 12.5 C 6.82 g/m*3 12.5 C 0 km/h
223 03-04-2004 20:34:01 12 C 6.82 g/m*3 12 C 0 km/h
224 03-04-2004 20:46:00 11.7 C 6.69 g/m*3 11.7 C 0 km/h
225 03-04-2004 20:58:00 11.7 C 6.59 g/m*3 11.7 C 0 km/h
Sensor: Nr:Datum:Temp:Abs-Feuchte:Windchill:Wind:
Aussen-T/F 226 03-04-2004 21:10:00 11.5 C 6.51 g/m*3 11.5 C 0 km/h
227 03-04-2004 21:22:59 11.2 C 6.69 g/m*3 11.2 C 0 km/h
228 03-04-2004 21:34:58 11 C 6.61 g/m*3 11 C 0 km/h
229 03-04-2004 21:46:01 11.1 C 6.75 g/m*3 11.1 C 0 km/h
230 03-04-2004 21:58:01 11.1 C 6.75 g/m*3 11.1 C 0 km/h
231 03-04-2004 22:10:01 11.2 C 6.69 g/m*3 11.2 C 0 km/h
232 03-04-2004 22:22:00 11 C 6.71 g/m*3 11 C 0 km/h
233 03-04-2004 22:34:00 10.7 C 6.68 g/m*3 10.7 C 0 km/h
234 03-04-2004 22:46:01 10.5 C 6.69 g/m*3 10.5 C 0 km/h
235 03-04-2004 22:58:01 10.8 C 6.72 g/m*3 10.8 C 0 km/h
236 03-04-2004 23:10:01 11.1 C 6.65 g/m*3 11.1 C 0 km/h
237 03-04-2004 23:22:01 11.2 C 6.59 g/m*3 11.2 C 0 km/h
238 03-04-2004 23:34:01 11.4 C 6.57 g/m*3 11.4 C 0 km/h
239 03-04-2004 23:46:00 11.5 C 6.51 g/m*3 11.5 C 0 km/h
240 03-04-2004 23:58:00 11.7 C 6.38 g/m*3 11.7 C 0 km/h
241 04-04-2004 00:10:59 11.9 C 6.35 g/m*3 11.9 C 0 km/h
242 04-04-2004 00:22:59 11.9 C 6.46 g/m*3 11.9 C 0 km/h
243 04-04-2004 00:34:57 11.6 C 6.34 g/m*3 11.6 C 0 km/h
244 04-04-2004 00:46:01 11.5 C 6.3 g/m*3 11.5 C 0 km/h
245 04-04-2004 00:58:01 11.2 C 6.28 g/m*3 11.2 C 0 km/h
246 04-04-2004 01:10:01 11 C 6.21 g/m*3 11 C 0 km/h
247 04-04-2004 01:22:01 11.1 C 6.14 g/m*3 11.1 C 0 km/h
248 04-04-2004 01:34:00 10.8 C 6.33 g/m*3 10.8 C 0 km/h
249 04-04-2004 01:46:01 10.7 C 6.29 g/m*3 10.7 C 0 km/h
250 04-04-2004 01:58:01 10.8 C 6.33 g/m*3 10.8 C 0 km/h
Sensor: Nr:Datum:Temp:Abs-Feuchte:Windchill:Wind:
Aussen-T/F 251 04-04-2004 02:10:01 10.4 C 6.26 g/m*3 10.4 C 0 km/h
252 04-04-2004 02:22:01 10.1 C 6.24 g/m*3 10.1 C 0 km/h
253 04-04-2004 02:34:01 10.5 C 6.3 g/m*3 10.5 C 0 km/h
254 04-04-2004 02:47:01 10.7 C 6.38 g/m*3 10.7 C 0 km/h
255 04-04-2004 02:59:01 10.5 C 6.4 g/m*3 10.5 C 0 km/h
256 04-04-2004 03:11:00 10.8 C 6.52 g/m*3 10.8 C 0 km/h
257 04-04-2004 03:23:00 10.9 C 6.47 g/m*3 10.9 C 0 km/h
258 04-04-2004 03:35:01 10.9 C 6.56 g/m*3 10.9 C 0 km/h
259 04-04-2004 03:47:01 10.9 C 6.47 g/m*3 10.9 C 0 km/h
260 04-04-2004 03:59:01 10.7 C 6.48 g/m*3 10.7 C 0 km/h
261 04-04-2004 04:11:00 10.7 C 6.48 g/m*3 10.7 C 0 km/h
262 04-04-2004 04:23:00 10.9 C 6.56 g/m*3 10.9 C 0 km/h
263 04-04-2004 04:35:00 11.2 C 6.59 g/m*3 11.2 C 0 km/h
264 04-04-2004 04:47:01 11.3 C 6.63 g/m*3 11.3 C 0 km/h
265 04-04-2004 04:59:01 11.4 C 6.67 g/m*3 11.4 C 0 km/h
266 04-04-2004 05:11:01 11.4 C 6.67 g/m*3 11.4 C 0 km/h
267 04-04-2004 05:23:01 11.3 C 6.63 g/m*3 11.3 C 0 km/h
268 04-04-2004 05:35:01 11.2 C 6.69 g/m*3 11.2 C 0 km/h
269 04-04-2004 05:47:01 11.1 C 6.55 g/m*3 11.1 C 0 km/h
270 04-04-2004 05:59:01 11 C 6.61 g/m*3 11 C 0 km/h
271 04-04-2004 06:11:01 10.9 C 6.66 g/m*3 10.9 C 0 km/h
272 04-04-2004 06:23:01 10.8 C 6.62 g/m*3 10.8 C 0 km/h
273 04-04-2004 06:35:01 10.7 C 6.58 g/m*3 10.7 C 0 km/h
274 04-04-2004 06:47:00 10.6 C 6.64 g/m*3 10.6 C 0 km/h
275 04-04-2004 06:59:00 10.5 C 6.6 g/m*3 10.5 C 0 km/h
Sensor: Nr:Datum:Temp:Abs-Feuchte:Windchill:Wind:
Aussen-T/F 276 04-04-2004 07:11:00 10.4 C 6.65 g/m*3 10.4 C 0 km/h
277 04-04-2004 07:23:58 10.4 C 6.65 g/m*3 10.4 C 0 km/h
278 04-04-2004 07:35:57 10.7 C 6.68 g/m*3 10.7 C 0 km/h
279 04-04-2004 07:47:01 10.8 C 6.72 g/m*3 10.8 C 0 km/h
280 04-04-2004 07:59:01 10.9 C 6.66 g/m*3 10.9 C 0 km/h
281 04-04-2004 08:11:01 11.2 C 6.59 g/m*3 11.2 C 0 km/h
282 04-04-2004 08:23:01 11.4 C 6.57 g/m*3 11.4 C 0 km/h
283 04-04-2004 08:35:01 11.5 C 6.51 g/m*3 11.5 C 0 km/h
284 04-04-2004 08:47:00 11.8 C 6.53 g/m*3 11.8 C 0 km/h
285 04-04-2004 08:59:00 11.9 C 6.46 g/m*3 11.9 C 0 km/h
286 04-04-2004 09:11:00 12.1 C 6.43 g/m*3 12.1 C 0 km/h
287 04-04-2004 09:23:59 12.2 C 6.47 g/m*3 12.2 C 0 km/h
288 04-04-2004 09:35:58 12.3 C 6.62 g/m*3 12.3 C 0 km/h
289 04-04-2004 09:47:01 12.4 C 6.56 g/m*3 12.4 C 0 km/h
290 04-04-2004 09:59:01 12.3 C 6.73 g/m*3 12.3 C 0 km/h
291 04-04-2004 10:11:01 11.8 C 7.05 g/m*3 11.8 C 0 km/h
292 04-04-2004 10:23:01 12 C 7.03 g/m*3 12 C 0 km/h
293 04-04-2004 10:35:01 12.2 C 6.91 g/m*3 12.2 C 0 km/h
294 04-04-2004 10:47:00 12.4 C 6.88 g/m*3 12.4 C 0 km/h
295 04-04-2004 10:59:00 12.5 C 6.93 g/m*3 12.5 C 0 km/h
296 04-04-2004 11:11:00 12.2 C 6.91 g/m*3 12.2 C 0 km/h
297 04-04-2004 11:23:58 12 C 7.03 g/m*3 12 C 0 km/h
298 04-04-2004 11:35:57 11 C 7.51 g/m*3 11 C 0 km/h
299 04-04-2004 11:47:01 10.7 C 8.05 g/m*3 10.7 C 0 km/h
300 04-04-2004 11:59:01 10.9 C 8.45 g/m*3 10.9 C 0 km/h
Sensor: Nr:Datum:Temp:Abs-Feuchte:Windchill:Wind:
Aussen-T/F 301 04-04-2004 12:11:01 11.2 C 8.21 g/m*3 11.2 C 0 km/h
302 04-04-2004 12:23:01 12.2 C 7.99 g/m*3 12.2 C 0 km/h
303 04-04-2004 12:35:01 12.7 C 8.01 g/m*3 12.7 C 0 km/h
304 04-04-2004 12:47:00 12.2 C 7.01 g/m*3 12.2 C 0 km/h
305 04-04-2004 12:59:00 12.1 C 6.11 g/m*3 12.1 C 0 km/h
306 04-04-2004 13:11:59 12.1 C 6.33 g/m*3 12.1 C 0 km/h
307 04-04-2004 13:23:58 13.2 C 6.2 g/m*3 13.2 C 0 km/h
308 04-04-2004 13:35:58 13.7 C 5.45 g/m*3 13.7 C 0 km/h
309 04-04-2004 13:47:01 14.2 C 5.49 g/m*3 14.2 C 0 km/h
310 04-04-2004 13:59:01 14.5 C 5.35 g/m*3 14.5 C 0 km/h
311 04-04-2004 14:11:01 14.3 C 5.28 g/m*3 14.3 C 0 km/h
312 04-04-2004 14:23:11 14.2 C 5.37 g/m*3 14.2 C 0 km/h
313 04-04-2004 14:35:02 14.4 C 5.32 g/m*3 14.4 C 0 km/h
314 04-04-2004 14:47:01 15.3 C 5.22 g/m*3 15.3 C 0 km/h
315 04-04-2004 14:59:01 15.8 C 5.12 g/m*3 15.8 C 0 km/h
316 04-04-2004 15:11:00 16.3 C 4.86 g/m*3 16.3 C 0 km/h
317 04-04-2004 15:23:59 16.4 C 4.89 g/m*3 16.4 C 0 km/h
318 04-04-2004 15:35:58 16.3 C 4.72 g/m*3 16.3 C 0 km/h
319 04-04-2004 15:47:01 15 C 5 g/m*3 15 C 0 km/h
320 04-04-2004 15:59:01 15.6 C 5.05 g/m*3 15.6 C 0 km/h
321 04-04-2004 16:11:01 16.1 C 4.93 g/m*3 16.1 C 0 km/h
322 04-04-2004 16:23:01 16 C 4.22 g/m*3 16 C 0 km/h
323 04-04-2004 16:35:01 15.9 C 4.06 g/m*3 15.9 C 0 km/h
324 04-04-2004 16:47:01 16 C 4.09 g/m*3 16 C 0 km/h
325 04-04-2004 16:59:01 15.6 C 4.12 g/m*3 15.6 C 0 km/h
Sensor: Nr:Datum:Temp:Abs-Feuchte:Windchill:Wind:
Aussen-T/F 326 04-04-2004 17:11:01 15.5 C 4.23 g/m*3 15.5 C 0 km/h
327 04-04-2004 17:23:01 15.4 C 4.07 g/m*3 15.4 C 0 km/h
328 04-04-2004 17:35:01 15.2 C 3.89 g/m*3 15.2 C 0 km/h
329 04-04-2004 17:47:00 15.1 C 4 g/m*3 15.1 C 0 km/h
330 04-04-2004 17:59:00 14.8 C 4.05 g/m*3 14.8 C 0 km/h
331 04-04-2004 18:11:00 14.7 C 4.03 g/m*3 14.7 C 0 km/h
332 04-04-2004 18:23:58 14.5 C 4.1 g/m*3 14.5 C 0 km/h
333 04-04-2004 18:35:57 14.2 C 4.03 g/m*3 14.2 C 0 km/h
334 04-04-2004 18:47:01 14 C 4.22 g/m*3 14 C 0 km/h
335 04-04-2004 18:59:01 14 C 4.34 g/m*3 14 C 0 km/h
336 04-04-2004 19:11:01 13.6 C 4.35 g/m*3 13.6 C 0 km/h
337 04-04-2004 19:23:01 13.4 C 4.42 g/m*3 13.4 C 0 km/h
338 04-04-2004 19:35:01 13.3 C 4.39 g/m*3 13.3 C 0 km/h
339 04-04-2004 19:47:00 13 C 4.42 g/m*3 13 C 0 km/h
340 04-04-2004 19:59:00 12.8 C 4.59 g/m*3 12.8 C 0 km/h
341 04-04-2004 20:11:00 12.4 C 4.81 g/m*3 12.4 C 0 km/h
342 04-04-2004 20:23:59 12.2 C 4.86 g/m*3 12.2 C 0 km/h
343 04-04-2004 20:35:58 12 C 4.8 g/m*3 12 C 0 km/h
344 04-04-2004 20:47:02 11.8 C 4.74 g/m*3 11.8 C 0 km/h
345 04-04-2004 20:59:02 11.5 C 4.96 g/m*3 11.5 C 0 km/h
346 04-04-2004 21:11:01 11.2 C 4.76 g/m*3 11.2 C 0 km/h
347 04-04-2004 21:23:02 11 C 5 g/m*3 11 C 0 km/h
348 04-04-2004 21:35:01 10.6 C 5.08 g/m*3 10.6 C 0 km/h
349 04-04-2004 21:47:00 10.4 C 5.11 g/m*3 10.4 C 0 km/h
350 04-04-2004 21:59:00 10.1 C 5.01 g/m*3 10.1 C 0 km/h
Sensor: Nr:Datum:Temp:Abs-Feuchte:Windchill:Wind:
Aussen-T/F 351 04-04-2004 22:11:00 10 C 5.07 g/m*3 10 C 0 km/h
352 04-04-2004 22:23:59 10 C 5.17 g/m*3 10 C 0 km/h
353 04-04-2004 22:35:58 9.8 C 5.01 g/m*3 9.8 C 0 km/h
354 04-04-2004 22:47:01 9.8 C 5.01 g/m*3 9.8 C 0 km/h
355 04-04-2004 22:59:01 9.6 C 5.13 g/m*3 9.6 C 0 km/h
356 04-04-2004 23:11:01 9.4 C 5.16 g/m*3 9.4 C 0 km/h
357 04-04-2004 23:23:01 9.3 C 5.03 g/m*3 9.3 C 0 km/h
358 04-04-2004 23:35:01 9.2 C 5.27 g/m*3 9.2 C 0 km/h
359 04-04-2004 23:47:00 9.1 C 5.15 g/m*3 9.1 C 0 km/h
360 04-04-2004 23:59:00 9.1 C 5.23 g/m*3 9.1 C 0 km/h
361 05-04-2004 00:11:00 9 C 5.2 g/m*3 9 C 0 km/h
362 05-04-2004 00:23:00 9 C 5.29 g/m*3 9 C 0 km/h
363 05-04-2004 00:35:57 8.9 C 5.26 g/m*3 8.9 C 0 km/h
364 05-04-2004 00:47:01 8.8 C 5.22 g/m*3 8.8 C 0 km/h
365 05-04-2004 00:59:01 8.6 C 5.33 g/m*3 8.6 C 0 km/h
366 05-04-2004 01:11:01 8.5 C 5.38 g/m*3 8.5 C 0 km/h
367 05-04-2004 01:23:01 8.3 C 5.31 g/m*3 8.3 C 0 km/h
368 05-04-2004 01:35:01 8.4 C 5.26 g/m*3 8.4 C 0 km/h
369 05-04-2004 01:47:00 8.5 C 5.21 g/m*3 8.5 C 0 km/h
370 05-04-2004 01:59:00 8.6 C 5.33 g/m*3 8.6 C 0 km/h
371 05-04-2004 02:11:00 8.4 C 5.26 g/m*3 8.4 C 0 km/h
372 05-04-2004 02:23:58 8.3 C 5.23 g/m*3 8.3 C 0 km/h
373 05-04-2004 02:35:57 8.3 C 5.31 g/m*3 8.3 C 0 km/h
374 05-04-2004 02:48:02 8.2 C 5.44 g/m*3 8.2 C 0 km/h
375 05-04-2004 03:00:02 8.2 C 5.44 g/m*3 8.2 C 0 km/h
Sensor: Nr:Datum:Temp:Abs-Feuchte:Windchill:Wind:
Aussen-T/F 376 05-04-2004 03:12:02 8.2 C 5.44 g/m*3 8.2 C 0 km/h
377 05-04-2004 03:24:02 8.1 C 5.33 g/m*3 8.1 C 0 km/h
378 05-04-2004 03:36:00 8.2 C 5.36 g/m*3 8.2 C 0 km/h
379 05-04-2004 03:48:00 8.2 C 5.36 g/m*3 8.2 C 0 km/h
380 05-04-2004 04:00:00 8.1 C 5.41 g/m*3 8.1 C 0 km/h
381 05-04-2004 04:12:00 8.1 C 5.41 g/m*3 8.1 C 0 km/h
382 05-04-2004 04:24:59 7.9 C 5.42 g/m*3 7.9 C 0 km/h
383 05-04-2004 04:36:57 7.8 C 5.47 g/m*3 7.8 C 0 km/h
384 05-04-2004 04:48:01 7.9 C 5.59 g/m*3 7.9 C 0 km/h
385 05-04-2004 05:00:01 7.1 C 6.01 g/m*3 7.1 C 0 km/h
386 05-04-2004 05:12:01 7 C 6.28 g/m*3 7 C 0 km/h
387 05-04-2004 05:24:01 6.9 C 6.39 g/m*3 6.9 C 0 km/h
388 05-04-2004 05:36:01 6.9 C 6.39 g/m*3 6.9 C 0 km/h
389 05-04-2004 05:48:00 6.9 C 6.39 g/m*3 6.9 C 0 km/h
390 05-04-2004 06:00:00 6.9 C 6.16 g/m*3 6.9 C 0 km/h
391 05-04-2004 06:12:00 6.9 C 5.93 g/m*3 6.9 C 0 km/h
392 05-04-2004 06:24:58 7 C 5.73 g/m*3 7 C 0 km/h
393 05-04-2004 06:36:57 6.6 C 5.74 g/m*3 6.6 C 0 km/h
394 05-04-2004 06:48:01 6.7 C 5.93 g/m*3 6.7 C 0 km/h
395 05-04-2004 07:00:01 6.8 C 5.97 g/m*3 6.8 C 0 km/h
396 05-04-2004 07:12:01 6.9 C 5.85 g/m*3 6.9 C 0 km/h
397 05-04-2004 07:24:01 7 C 5.66 g/m*3 7 C 0 km/h
398 05-04-2004 07:36:01 7 C 5.73 g/m*3 7 C 0 km/h
399 05-04-2004 07:59:59 7.3 C 5.93 g/m*3 7.3 C 0 km/h
400 05-04-2004 08:00:00 7.2 C 5.81 g/m*3 7.2 C 0 km/h
Sensor: Nr:Datum:Temp:Abs-Feuchte:Windchill:Wind:
Aussen-T/F 401 05-04-2004 08:11:59 7.1 C 6.16 g/m*3 7.1 C 0 km/h
402 05-04-2004 08:24:58 6.9 C 6.39 g/m*3 6.9 C 0 km/h
403 05-04-2004 08:36:57 6.8 C 6.35 g/m*3 6.8 C 0 km/h
404 05-04-2004 08:48:01 6.8 C 6.19 g/m*3 6.8 C 0 km/h
405 05-04-2004 09:00:01 7.3 C 5.93 g/m*3 7.3 C 0 km/h
406 05-04-2004 09:12:01 7.4 C 5.81 g/m*3 7.4 C 0 km/h
407 05-04-2004 09:24:01 7.3 C 5.85 g/m*3 7.3 C 0 km/h
408 05-04-2004 09:36:01 7.2 C 5.73 g/m*3 7.2 C 0 km/h
409 05-04-2004 09:48:01 7.2 C 5.73 g/m*3 7.2 C 0 km/h
410 05-04-2004 10:00:01 7.3 C 5.69 g/m*3 7.3 C 0 km/h
411 05-04-2004 10:12:01 7.9 C 5.67 g/m*3 7.9 C 0 km/h
412 05-04-2004 10:24:01 8.2 C 5.53 g/m*3 8.2 C 0 km/h
413 05-04-2004 10:36:01 8.5 C 5.64 g/m*3 8.5 C 0 km/h
414 05-04-2004 10:48:00 9 C 5.64 g/m*3 9 C 0 km/h
415 05-04-2004 11:00:00 9.2 C 5.63 g/m*3 9.2 C 0 km/h
416 05-04-2004 11:12:00 8.8 C 5.4 g/m*3 8.8 C 0 km/h
417 05-04-2004 11:24:58 9.7 C 5.62 g/m*3 9.7 C 0 km/h
418 05-04-2004 11:36:57 9.7 C 5.35 g/m*3 9.7 C 0 km/h
419 05-04-2004 11:48:01 9.7 C 5.16 g/m*3 9.7 C 0 km/h
420 05-04-2004 12:00:01 10 C 5.07 g/m*3 10 C 0 km/h
421 05-04-2004 12:12:01 10 C 4.79 g/m*3 10 C 0 km/h
422 05-04-2004 12:24:01 9.9 C 4.76 g/m*3 9.9 C 0 km/h
423 05-04-2004 12:36:01 10.9 C 4.67 g/m*3 10.9 C 0 km/h
424 05-04-2004 12:48:00 11.3 C 4.49 g/m*3 11.3 C 0 km/h
425 05-04-2004 13:00:00 10.5 C 4.36 g/m*3 10.5 C 0 km/h
Sensor: Nr:Datum:Temp:Abs-Feuchte:Windchill:Wind:
Aussen-T/F 426 05-04-2004 13:12:59 9.9 C 4.95 g/m*3 9.9 C 0 km/h
427 05-04-2004 13:24:58 9.3 C 5.48 g/m*3 9.3 C 0 km/h
428 05-04-2004 13:36:57 10.1 C 5.11 g/m*3 10.1 C 0 km/h
429 05-04-2004 13:48:01 10.7 C 5.11 g/m*3 10.7 C 0 km/h
430 05-04-2004 14:00:01 11.8 C 4.74 g/m*3 11.8 C 0 km/h
431 05-04-2004 14:12:01 12.3 C 4.99 g/m*3 12.3 C 0 km/h
432 05-04-2004 14:24:01 10.8 C 5.14 g/m*3 10.8 C 0 km/h
433 05-04-2004 14:36:00 8.6 C 6.62 g/m*3 8.6 C 0 km/h
434 05-04-2004 14:48:01 8.5 C 6.92 g/m*3 8.5 C 0 km/h
435 05-04-2004 15:00:01 8.5 C 7 g/m*3 8.5 C 0 km/h
436 05-04-2004 15:12:01 7.2 C 6.28 g/m*3 7.2 C 0 km/h
437 05-04-2004 15:24:01 8.4 C 6.45 g/m*3 8.4 C 0 km/h
438 05-04-2004 15:36:01 9.9 C 6.54 g/m*3 9.9 C 0 km/h
439 05-04-2004 15:48:00 10.3 C 6.13 g/m*3 10.3 C 0 km/h
440 05-04-2004 16:00:00 10.3 C 5.94 g/m*3 10.3 C 0 km/h
441 05-04-2004 16:12:00 10.3 C 5.75 g/m*3 10.3 C 0 km/h
442 05-04-2004 16:24:58 11.2 C 5.88 g/m*3 11.2 C 0 km/h
443 05-04-2004 16:36:57 10.6 C 5.37 g/m*3 10.6 C 0 km/h
444 05-04-2004 16:48:01 10.2 C 5.14 g/m*3 10.2 C 0 km/h
445 05-04-2004 17:00:01 8.1 C 5.91 g/m*3 8.1 C 0 km/h
446 05-04-2004 17:12:01 8.4 C 6.11 g/m*3 8.4 C 0 km/h
447 05-04-2004 17:24:01 9.3 C 6.38 g/m*3 9.3 C 0 km/h
448 05-04-2004 17:36:01 9.9 C 6.26 g/m*3 9.9 C 0 km/h
449 05-04-2004 17:48:01 9.8 C 6.03 g/m*3 9.8 C 0 km/h
450 05-04-2004 18:00:01 9.6 C 5.86 g/m*3 9.6 C 0 km/h
Sensor: Nr:Datum:Temp:Abs-Feuchte:Windchill:Wind:
Aussen-T/F 451 05-04-2004 18:12:01 8.1 C 5.74 g/m*3 8.1 C 0 km/h
452 05-04-2004 18:24:01 7.2 C 6.28 g/m*3 7.2 C 0 km/h
453 05-04-2004 18:36:01 7.2 C 6.44 g/m*3 7.2 C 0 km/h
454 05-04-2004 18:48:00 7.8 C 6.77 g/m*3 7.8 C 0 km/h
455 05-04-2004 19:00:00 8.1 C 6.57 g/m*3 8.1 C 0 km/h
456 05-04-2004 19:12:00 8.2 C 6.2 g/m*3 8.2 C 0 km/h
457 05-04-2004 19:24:59 8.3 C 6.15 g/m*3 8.3 C 0 km/h
458 05-04-2004 19:36:58 8.3 C 6.07 g/m*3 8.3 C 0 km/h
459 05-04-2004 19:48:01 8.2 C 6.03 g/m*3 8.2 C 0 km/h
460 05-04-2004 20:00:01 7.8 C 6.12 g/m*3 7.8 C 0 km/h
461 05-04-2004 20:12:01 7.4 C 6.2 g/m*3 7.4 C 0 km/h
462 05-04-2004 20:24:01 7.6 C 6.2 g/m*3 7.6 C 0 km/h
463 05-04-2004 20:36:01 7.6 C 6.12 g/m*3 7.6 C 0 km/h
464 05-04-2004 20:48:00 7.1 C 6.32 g/m*3 7.1 C 0 km/h
465 05-04-2004 21:00:00 6.9 C 6.54 g/m*3 6.9 C 0 km/h
466 05-04-2004 21:12:00 6.9 C 6.47 g/m*3 6.9 C 0 km/h
467 05-04-2004 21:24:59 7 C 6.43 g/m*3 7 C 0 km/h
468 05-04-2004 21:36:58 7.2 C 6.36 g/m*3 7.2 C 0 km/h
469 05-04-2004 21:48:01 7.3 C 6.24 g/m*3 7.3 C 0 km/h
470 05-04-2004 22:00:01 7.5 C 6.08 g/m*3 7.5 C 0 km/h
471 05-04-2004 22:12:00 7.5 C 6.08 g/m*3 7.5 C 0 km/h
472 05-04-2004 22:24:00 7.6 C 6.04 g/m*3 7.6 C 0 km/h
473 05-04-2004 22:36:00 7.5 C 6 g/m*3 7.5 C 0 km/h
474 05-04-2004 22:48:01 7.5 C 6 g/m*3 7.5 C 0 km/h
475 05-04-2004 23:00:01 7.5 C 5.92 g/m*3 7.5 C 0 km/h
Sensor: Nr:Datum:Temp:Abs-Feuchte:Windchill:Wind:
Aussen-T/F 476 05-04-2004 23:12:01 7.6 C 5.88 g/m*3 7.6 C 0 km/h
477 05-04-2004 23:24:01 7.6 C 5.88 g/m*3 7.6 C 0 km/h
478 05-04-2004 23:36:01 7.3 C 6 g/m*3 7.3 C 0 km/h
479 05-04-2004 23:48:02 7.1 C 6.16 g/m*3 7.1 C 0 km/h
480 06-04-2004 00:00:02 7 C 6.2 g/m*3 7 C 0 km/h
481 06-04-2004 00:12:01 7 C 6.28 g/m*3 7 C 0 km/h
482 06-04-2004 00:24:01 6.7 C 6.38 g/m*3 6.7 C 0 km/h
483 06-04-2004 00:36:02 6.8 C 6.42 g/m*3 6.8 C 0 km/h
484 06-04-2004 00:48:00 6.8 C 6.42 g/m*3 6.8 C 0 km/h
485 06-04-2004 01:00:00 7 C 6.35 g/m*3 7 C 0 km/h
486 06-04-2004 01:12:00 7 C 6.12 g/m*3 7 C 0 km/h
487 06-04-2004 01:24:59 7 C 6.04 g/m*3 7 C 0 km/h
488 06-04-2004 01:36:58 7 C 5.89 g/m*3 7 C 0 km/h
489 06-04-2004 01:48:01 7.1 C 5.93 g/m*3 7.1 C 0 km/h
490 06-04-2004 02:00:01 7.1 C 5.93 g/m*3 7.1 C 0 km/h
491 06-04-2004 02:12:01 7.1 C 5.93 g/m*3 7.1 C 0 km/h
492 06-04-2004 02:24:01 7 C 6.04 g/m*3 7 C 0 km/h
493 06-04-2004 02:36:00 7 C 6.12 g/m*3 7 C 0 km/h
494 06-04-2004 02:49:03 7 C 6.2 g/m*3 7 C 0 km/h
495 06-04-2004 03:01:03 6.9 C 6.39 g/m*3 6.9 C 0 km/h
496 06-04-2004 03:13:02 6.8 C 6.5 g/m*3 6.8 C 0 km/h
497 06-04-2004 03:25:02 5.1 C 5.61 g/m*3 5.1 C 0 km/h
498 06-04-2004 03:37:00 4.8 C 5.7 g/m*3 4.8 C 0 km/h
499 06-04-2004 03:49:00 5 C 5.71 g/m*3 5 C 0 km/h
500 06-04-2004 04:01:00 4.8 C 5.77 g/m*3 4.8 C 0 km/h
Sensor: Nr:Datum:Temp:Abs-Feuchte:Windchill:Wind:
Aussen-T/F 501 06-04-2004 04:13:00 4.7 C 5.8 g/m*3 4.7 C 0 km/h
502 06-04-2004 04:25:59 4.8 C 5.7 g/m*3 4.8 C 0 km/h
503 06-04-2004 04:37:58 4.4 C 5.68 g/m*3 4.4 C 0 km/h
504 06-04-2004 04:49:01 4.6 C 5.82 g/m*3 4.6 C 0 km/h
505 06-04-2004 05:01:00 4.9 C 5.74 g/m*3 4.9 C 0 km/h
506 06-04-2004 05:13:00 4.9 C 5.54 g/m*3 4.9 C 0 km/h
507 06-04-2004 05:25:00 4.9 C 5.47 g/m*3 4.9 C 0 km/h
508 06-04-2004 05:37:00 4.9 C 5.47 g/m*3 4.9 C 0 km/h
509 06-04-2004 05:49:01 4.8 C 5.43 g/m*3 4.8 C 0 km/h
510 06-04-2004 06:01:01 4.6 C 5.36 g/m*3 4.6 C 0 km/h
511 06-04-2004 06:13:01 4.5 C 5.39 g/m*3 4.5 C 0 km/h
512 06-04-2004 06:25:01 4.5 C 5.46 g/m*3 4.5 C 0 km/h
513 06-04-2004 06:37:00 4.6 C 5.43 g/m*3 4.6 C 0 km/h
514 06-04-2004 06:49:01 4.7 C 5.46 g/m*3 4.7 C 0 km/h
515 06-04-2004 07:01:01 4.7 C 5.4 g/m*3 4.7 C 0 km/h
516 06-04-2004 07:13:01 4.8 C 5.43 g/m*3 4.8 C 0 km/h
517 06-04-2004 07:25:01 4.9 C 5.4 g/m*3 4.9 C 0 km/h
518 06-04-2004 07:37:01 4.9 C 5.33 g/m*3 4.9 C 0 km/h
519 06-04-2004 07:49:00 4.6 C 5.49 g/m*3 4.6 C 0 km/h
520 06-04-2004 08:01:00 4.4 C 5.68 g/m*3 4.4 C 0 km/h
521 06-04-2004 08:13:00 4.3 C 5.64 g/m*3 4.3 C 0 km/h
522 06-04-2004 08:25:59 4.2 C 5.67 g/m*3 4.2 C 0 km/h
523 06-04-2004 08:37:57 4.1 C 5.63 g/m*3 4.1 C 0 km/h
524 06-04-2004 08:49:01 4.4 C 5.75 g/m*3 4.4 C 0 km/h
525 06-04-2004 09:01:01 4.7 C 5.86 g/m*3 4.7 C 0 km/h
Sensor: Nr:Datum:Temp:Abs-Feuchte:Windchill:Wind:
Aussen-T/F 526 06-04-2004 09:13:01 4.8 C 5.7 g/m*3 4.8 C 0 km/h
527 06-04-2004 09:25:01 4.6 C 5.43 g/m*3 4.6 C 0 km/h
528 06-04-2004 09:37:01 4.9 C 5.6 g/m*3 4.9 C 0 km/h
529 06-04-2004 09:49:00 5.9 C 5.77 g/m*3 5.9 C 0 km/h
530 06-04-2004 10:01:00 6 C 5.59 g/m*3 6 C 0 km/h
531 06-04-2004 10:13:00 6.5 C 5.4 g/m*3 6.5 C 0 km/h
532 06-04-2004 10:25:58 7.1 C 5.15 g/m*3 7.1 C 0 km/h
533 06-04-2004 10:37:57 7.4 C 4.61 g/m*3 7.4 C 0 km/h
534 06-04-2004 10:49:01 7 C 4.88 g/m*3 7 C 0 km/h
535 06-04-2004 11:01:01 6.7 C 5.01 g/m*3 6.7 C 0 km/h
536 06-04-2004 11:13:01 7.3 C 4.82 g/m*3 7.3 C 0 km/h
537 06-04-2004 11:25:01 7.5 C 4.48 g/m*3 7.5 C 0 km/h
538 06-04-2004 11:37:01 7.7 C 4.46 g/m*3 7.7 C 0 km/h
539 06-04-2004 11:49:01 8.6 C 4.47 g/m*3 8.6 C 0 km/h
540 06-04-2004 12:01:01 8.4 C 4.41 g/m*3 8.4 C 0 km/h
541 06-04-2004 12:13:01 8.6 C 4.38 g/m*3 8.6 C 0 km/h
542 06-04-2004 12:25:01 8.7 C 4.32 g/m*3 8.7 C 0 km/h
543 06-04-2004 12:37:01 8.9 C 4.56 g/m*3 8.9 C 0 km/h
544 06-04-2004 12:49:00 9 C 4.32 g/m*3 9 C 0 km/h
545 06-04-2004 13:01:00 8.9 C 4.29 g/m*3 8.9 C 0 km/h
546 06-04-2004 13:13:00 9.2 C 4.11 g/m*3 9.2 C 0 km/h
547 06-04-2004 13:25:59 9.6 C 4.21 g/m*3 9.6 C 0 km/h
548 06-04-2004 13:37:57 9.3 C 3.95 g/m*3 9.3 C 0 km/h
549 06-04-2004 13:49:01 9.3 C 4.13 g/m*3 9.3 C 0 km/h
550 06-04-2004 14:01:01 9.4 C 4.07 g/m*3 9.4 C 0 km/h
Sensor: Nr:Datum:Temp:Abs-Feuchte:Windchill:Wind:
Aussen-T/F 551 06-04-2004 14:13:01 9.6 C 4.21 g/m*3 9.6 C 0 km/h
552 06-04-2004 14:25:01 9.3 C 4.13 g/m*3 9.3 C 0 km/h
553 06-04-2004 14:37:01 8.7 C 4.24 g/m*3 8.7 C 0 km/h
554 06-04-2004 14:49:00 8 C 4.63 g/m*3 8 C 0 km/h
555 06-04-2004 15:00:59 7.1 C 5.23 g/m*3 7.1 C 0 km/h
556 06-04-2004 15:12:59 7.3 C 5.21 g/m*3 7.3 C 0 km/h
557 06-04-2004 15:25:58 7.8 C 5.63 g/m*3 7.8 C 0 km/h
558 06-04-2004 15:37:57 8.7 C 5.97 g/m*3 8.7 C 0 km/h
559 06-04-2004 15:49:01 8.6 C 5.41 g/m*3 8.6 C 0 km/h
560 06-04-2004 16:01:01 8.3 C 5.48 g/m*3 8.3 C 0 km/h
561 06-04-2004 16:13:01 7.8 C 5.39 g/m*3 7.8 C 0 km/h
562 06-04-2004 16:25:01 7.1 C 5.46 g/m*3 7.1 C 0 km/h
563 06-04-2004 16:37:01 6.4 C 5.44 g/m*3 6.4 C 0 km/h
564 06-04-2004 16:49:01 7.2 C 5.73 g/m*3 7.2 C 0 km/h
565 06-04-2004 17:01:01 8 C 5.62 g/m*3 8 C 0 km/h
566 06-04-2004 17:13:01 8 C 4.96 g/m*3 8 C 0 km/h
567 06-04-2004 17:25:01 7.8 C 5.14 g/m*3 7.8 C 0 km/h
568 06-04-2004 17:37:01 7.3 C 4.98 g/m*3 7.3 C 0 km/h
569 06-04-2004 17:49:00 5.5 C 4.92 g/m*3 5.5 C 0 km/h
570 06-04-2004 18:01:00 4.5 C 5.26 g/m*3 4.5 C 0 km/h
571 06-04-2004 18:13:00 5.3 C 5.82 g/m*3 5.3 C 0 km/h
572 06-04-2004 18:25:59 7.3 C 6.4 g/m*3 7.3 C 0 km/h
573 06-04-2004 18:37:58 9 C 6.35 g/m*3 9 C 0 km/h
574 06-04-2004 18:49:01 9.1 C 5.5 g/m*3 9.1 C 0 km/h
575 06-04-2004 19:01:01 8.5 C 5.72 g/m*3 8.5 C 0 km/h
Sensor: Nr:Datum:Temp:Abs-Feuchte:Windchill:Wind:
Aussen-T/F 576 06-04-2004 19:13:01 8.1 C 5.82 g/m*3 8.1 C 0 km/h
577 06-04-2004 19:25:01 7.7 C 6 g/m*3 7.7 C 0 km/h
578 06-04-2004 19:37:01 7.3 C 6.08 g/m*3 7.3 C 0 km/h
579 06-04-2004 19:49:00 6.9 C 6 g/m*3 6.9 C 0 km/h
580 06-04-2004 20:01:00 6.2 C 5.37 g/m*3 6.2 C 0 km/h
581 06-04-2004 20:13:00 5.3 C 5.34 g/m*3 5.3 C 0 km/h
582 06-04-2004 20:25:59 5.2 C 5.44 g/m*3 5.2 C 0 km/h
583 06-04-2004 20:37:58 5.1 C 5.68 g/m*3 5.1 C 0 km/h
584 06-04-2004 20:49:01 4.9 C 5.67 g/m*3 4.9 C 0 km/h
585 06-04-2004 21:01:00 4.9 C 5.67 g/m*3 4.9 C 0 km/h
586 06-04-2004 21:13:00 4.8 C 5.63 g/m*3 4.8 C 0 km/h
587 06-04-2004 21:25:00 4.7 C 5.6 g/m*3 4.7 C 0 km/h
588 06-04-2004 21:37:00 4.7 C 5.46 g/m*3 4.7 C 0 km/h
589 06-04-2004 21:49:01 4.7 C 5.4 g/m*3 4.7 C 0 km/h
590 06-04-2004 22:01:01 4.8 C 5.36 g/m*3 4.8 C 0 km/h
591 06-04-2004 22:13:01 4.6 C 5.49 g/m*3 4.6 C 0 km/h
592 06-04-2004 22:25:01 4.5 C 5.39 g/m*3 4.5 C 0 km/h
593 06-04-2004 22:37:01 4.5 C 5.32 g/m*3 4.5 C 0 km/h
594 06-04-2004 22:49:01 4.5 C 5.32 g/m*3 4.5 C 0 km/h
595 06-04-2004 23:01:01 4.3 C 5.19 g/m*3 4.3 C 0 km/h
596 06-04-2004 23:13:01 4 C 5.15 g/m*3 4 C 0 km/h
597 06-04-2004 23:25:01 3.8 C 5.21 g/m*3 3.8 C 0 km/h
598 06-04-2004 23:37:01 3.7 C 5.23 g/m*3 3.7 C 0 km/h
599 06-04-2004 23:49:00 3.5 C 5.16 g/m*3 3.5 C 0 km/h
600 07-04-2004 00:01:00 3.5 C 5.23 g/m*3 3.5 C 0 km/h
Sensor: Nr:Datum:Temp:Abs-Feuchte:Windchill:Wind:
Aussen-T/F 601 07-04-2004 00:13:00 3.3 C 5.22 g/m*3 3.3 C 0 km/h
602 07-04-2004 00:25:59 4 C 5.4 g/m*3 4 C 0 km/h
603 07-04-2004 00:37:57 4.2 C 5.35 g/m*3 4.2 C 0 km/h
604 07-04-2004 00:49:01 4.2 C 5.28 g/m*3 4.2 C 0 km/h
605 07-04-2004 01:01:01 4.3 C 5.32 g/m*3 4.3 C 0 km/h
606 07-04-2004 01:13:01 4 C 5.15 g/m*3 4 C 0 km/h
607 07-04-2004 01:25:01 3.8 C 5.21 g/m*3 3.8 C 0 km/h
608 07-04-2004 01:37:01 3.9 C 5.24 g/m*3 3.9 C 0 km/h
609 07-04-2004 01:49:00 4 C 5.28 g/m*3 4 C 0 km/h
610 07-04-2004 02:01:59 4.2 C 5.28 g/m*3 4.2 C 0 km/h
611 07-04-2004 02:12:59 4.2 C 5.28 g/m*3 4.2 C 0 km/h
612 07-04-2004 02:25:58 4.1 C 5.31 g/m*3 4.1 C 0 km/h
613 07-04-2004 02:37:57 4 C 5.28 g/m*3 4 C 0 km/h
614 07-04-2004 02:50:02 3.8 C 5.21 g/m*3 3.8 C 0 km/h
615 07-04-2004 03:02:02 4.1 C 5.25 g/m*3 4.1 C 0 km/h
616 07-04-2004 03:14:02 4.1 C 5.25 g/m*3 4.1 C 0 km/h
617 07-04-2004 03:26:02 4.1 C 5.25 g/m*3 4.1 C 0 km/h
618 07-04-2004 03:38:00 4 C 5.28 g/m*3 4 C 0 km/h
619 07-04-2004 03:50:00 3.7 C 5.23 g/m*3 3.7 C 0 km/h
620 07-04-2004 04:02:00 3.7 C 5.3 g/m*3 3.7 C 0 km/h
621 07-04-2004 04:14:00 3.8 C 5.33 g/m*3 3.8 C 0 km/h
622 07-04-2004 04:26:59 4 C 5.21 g/m*3 4 C 0 km/h
623 07-04-2004 04:38:57 3.9 C 5.24 g/m*3 3.9 C 0 km/h
624 07-04-2004 04:50:01 3.8 C 5.21 g/m*3 3.8 C 0 km/h
625 07-04-2004 05:02:01 3.7 C 5.17 g/m*3 3.7 C 0 km/h
Sensor: Nr:Datum:Temp:Abs-Feuchte:Windchill:Wind:
Aussen-T/F 626 07-04-2004 05:14:01 3.4 C 5.07 g/m*3 3.4 C 0 km/h
627 07-04-2004 05:26:01 3.5 C 5.16 g/m*3 3.5 C 0 km/h
628 07-04-2004 05:38:01 3.5 C 5.16 g/m*3 3.5 C 0 km/h
629 07-04-2004 05:50:00 3.5 C 5.16 g/m*3 3.5 C 0 km/h
630 07-04-2004 06:13:59 3.3 C 5.1 g/m*3 3.3 C 0 km/h
631 07-04-2004 06:14:58 3.2 C 5.06 g/m*3 3.2 C 0 km/h
632 07-04-2004 06:26:58 3.1 C 5.09 g/m*3 3.1 C 0 km/h
633 07-04-2004 06:38:57 3.5 C 5.16 g/m*3 3.5 C 0 km/h
634 07-04-2004 06:50:01 3.7 C 5.17 g/m*3 3.7 C 0 km/h
635 07-04-2004 07:02:01 4 C 5.09 g/m*3 4 C 0 km/h
636 07-04-2004 07:14:01 4.2 C 5.03 g/m*3 4.2 C 0 km/h
637 07-04-2004 07:26:01 4.3 C 4.99 g/m*3 4.3 C 0 km/h
638 07-04-2004 07:38:01 4.4 C 4.96 g/m*3 4.4 C 0 km/h
639 07-04-2004 07:50:00 4.4 C 4.96 g/m*3 4.4 C 0 km/h
640 07-04-2004 08:02:00 4.5 C 5 g/m*3 4.5 C 0 km/h
641 07-04-2004 08:14:00 4.6 C 5.03 g/m*3 4.6 C 0 km/h
642 07-04-2004 08:26:58 4.7 C 5.06 g/m*3 4.7 C 0 km/h
643 07-04-2004 08:38:57 4.7 C 5.2 g/m*3 4.7 C 0 km/h
644 07-04-2004 08:50:01 4.3 C 5.25 g/m*3 4.3 C 0 km/h
645 07-04-2004 09:02:01 4.5 C 5.32 g/m*3 4.5 C 0 km/h
646 07-04-2004 09:14:01 4.8 C 5.36 g/m*3 4.8 C 0 km/h
647 07-04-2004 09:26:01 5.1 C 5.2 g/m*3 5.1 C 0 km/h
648 07-04-2004 09:38:01 5.3 C 5.27 g/m*3 5.3 C 0 km/h
649 07-04-2004 09:50:01 5.3 C 5.2 g/m*3 5.3 C 0 km/h
650 07-04-2004 10:02:01 5.4 C 5.23 g/m*3 5.4 C 0 km/h
Sensor: Nr:Datum:Temp:Abs-Feuchte:Windchill:Wind:
Aussen-T/F 651 07-04-2004 10:14:01 5.7 C 5.27 g/m*3 5.7 C 0 km/h
652 07-04-2004 10:26:01 6.3 C 5.26 g/m*3 6.3 C 0 km/h
653 07-04-2004 10:38:01 6.9 C 5.23 g/m*3 6.9 C 0 km/h
654 07-04-2004 10:50:01 7.1 C 5.15 g/m*3 7.1 C 0 km/h
655 07-04-2004 11:02:00 7.6 C 4.99 g/m*3 7.6 C 0 km/h
656 07-04-2004 11:14:00 7.4 C 5.01 g/m*3 7.4 C 0 km/h
657 07-04-2004 11:26:59 6.7 C 5.32 g/m*3 6.7 C 0 km/h
658 07-04-2004 11:38:57 6.9 C 5.31 g/m*3 6.9 C 0 km/h
659 07-04-2004 11:50:01 7.1 C 5.15 g/m*3 7.1 C 0 km/h
660 07-04-2004 12:02:01 8.2 C 5.44 g/m*3 8.2 C 0 km/h
661 07-04-2004 12:14:01 8.3 C 5.31 g/m*3 8.3 C 0 km/h
662 07-04-2004 12:26:01 8.5 C 5.21 g/m*3 8.5 C 0 km/h
663 07-04-2004 12:38:01 8.2 C 4.94 g/m*3 8.2 C 0 km/h
664 07-04-2004 12:50:00 8.2 C 4.69 g/m*3 8.2 C 0 km/h
665 07-04-2004 13:02:00 8 C 4.55 g/m*3 8 C 0 km/h
666 07-04-2004 13:14:00 7.7 C 4.54 g/m*3 7.7 C 0 km/h
667 07-04-2004 13:26:59 7.6 C 4.59 g/m*3 7.6 C 0 km/h
668 07-04-2004 13:38:57 7.7 C 4.95 g/m*3 7.7 C 0 km/h
669 07-04-2004 13:50:01 6.7 C 5.17 g/m*3 6.7 C 0 km/h
670 07-04-2004 14:02:01 6.3 C 5.63 g/m*3 6.3 C 0 km/h
671 07-04-2004 14:14:01 6.8 C 5.81 g/m*3 6.8 C 0 km/h
672 07-04-2004 14:26:01 6.8 C 5.58 g/m*3 6.8 C 0 km/h
673 07-04-2004 14:38:01 5.9 C 5.7 g/m*3 5.9 C 0 km/h
674 07-04-2004 14:50:00 6.3 C 5.77 g/m*3 6.3 C 0 km/h
675 07-04-2004 15:14:00 6.3 C 5.85 g/m*3 6.3 C 0 km/h
Sensor: Nr:Datum:Temp:Abs-Feuchte:Windchill:Wind:
Aussen-T/F 676 07-04-2004 15:14:58 5.9 C 5.91 g/m*3 5.9 C 0 km/h
677 07-04-2004 15:26:58 6.8 C 6.35 g/m*3 6.8 C 0 km/h
678 07-04-2004 15:38:57 7 C 5.89 g/m*3 7 C 0 km/h
679 07-04-2004 15:50:01 6.9 C 6.08 g/m*3 6.9 C 0 km/h
680 07-04-2004 16:02:01 7 C 6.2 g/m*3 7 C 0 km/h
681 07-04-2004 16:14:01 7.1 C 6.16 g/m*3 7.1 C 0 km/h
682 07-04-2004 16:26:01 7 C 6.04 g/m*3 7 C 0 km/h
683 07-04-2004 16:38:01 7.5 C 6.16 g/m*3 7.5 C 0 km/h
684 07-04-2004 16:50:01 8.3 C 5.82 g/m*3 8.3 C 0 km/h
685 07-04-2004 17:02:01 8.5 C 5.46 g/m*3 8.5 C 0 km/h
686 07-04-2004 17:14:01 8 C 5.37 g/m*3 8 C 0 km/h
687 07-04-2004 17:26:02 6.9 C 5.7 g/m*3 6.9 C 0 km/h
688 07-04-2004 17:38:01 7.2 C 5.57 g/m*3 7.2 C 0 km/h
689 07-04-2004 17:50:00 8 C 5.54 g/m*3 8 C 0 km/h
690 07-04-2004 18:02:00 7.9 C 5.5 g/m*3 7.9 C 0 km/h
691 07-04-2004 18:14:00 7.3 C 5.45 g/m*3 7.3 C 0 km/h
692 07-04-2004 18:26:59 6 C 5.59 g/m*3 6 C 0 km/h
693 07-04-2004 18:38:58 5.5 C 5.76 g/m*3 5.5 C 0 km/h
694 07-04-2004 18:50:01 5.3 C 5.75 g/m*3 5.3 C 0 km/h
695 07-04-2004 19:02:01 5.3 C 5.68 g/m*3 5.3 C 0 km/h
696 07-04-2004 19:14:01 5.1 C 5.54 g/m*3 5.1 C 0 km/h
697 07-04-2004 19:26:01 5.3 C 5.68 g/m*3 5.3 C 0 km/h
698 07-04-2004 19:38:01 5.3 C 5.61 g/m*3 5.3 C 0 km/h
699 07-04-2004 19:50:00 5.1 C 5.54 g/m*3 5.1 C 0 km/h
700 07-04-2004 20:02:00 4.9 C 5.6 g/m*3 4.9 C 0 km/h
Sensor: Nr:Datum:Temp:Abs-Feuchte:Windchill:Wind:
Aussen-T/F 701 07-04-2004 20:14:00 4.9 C 5.6 g/m*3 4.9 C 0 km/h
702 07-04-2004 20:26:59 5 C 5.57 g/m*3 5 C 0 km/h
703 07-04-2004 20:38:57 5 C 5.5 g/m*3 5 C 0 km/h
704 07-04-2004 20:50:01 4.7 C 5.46 g/m*3 4.7 C 0 km/h
705 07-04-2004 21:02:01 4.7 C 5.4 g/m*3 4.7 C 0 km/h
706 07-04-2004 21:14:01 4.4 C 5.42 g/m*3 4.4 C 0 km/h
707 07-04-2004 21:26:01 4.3 C 5.38 g/m*3 4.3 C 0 km/h
708 07-04-2004 21:38:01 4.1 C 5.38 g/m*3 4.1 C 0 km/h
709 07-04-2004 21:50:00 4.2 C 5.48 g/m*3 4.2 C 0 km/h
710 07-04-2004 22:02:00 4.5 C 5.52 g/m*3 4.5 C 0 km/h
711 07-04-2004 22:14:00 4.6 C 5.49 g/m*3 4.6 C 0 km/h
712 07-04-2004 22:26:59 4.7 C 5.46 g/m*3 4.7 C 0 km/h
713 07-04-2004 22:38:57 4.6 C 5.43 g/m*3 4.6 C 0 km/h
714 07-04-2004 22:50:01 4.7 C 5.46 g/m*3 4.7 C 0 km/h
715 07-04-2004 23:02:01 4.7 C 5.4 g/m*3 4.7 C 0 km/h
716 07-04-2004 23:14:01 4.8 C 5.43 g/m*3 4.8 C 0 km/h
717 07-04-2004 23:26:01 4.8 C 5.36 g/m*3 4.8 C 0 km/h
718 07-04-2004 23:38:01 4.7 C 5.33 g/m*3 4.7 C 0 km/h
719 07-04-2004 23:50:00 4.8 C 5.36 g/m*3 4.8 C 0 km/h
720 08-04-2004 00:14:00 4.8 C 5.43 g/m*3 4.8 C 0 km/h
721 08-04-2004 00:14:59 4.8 C 5.36 g/m*3 4.8 C 0 km/h
722 08-04-2004 00:26:59 4.8 C 5.3 g/m*3 4.8 C 0 km/h
723 08-04-2004 00:38:57 4.9 C 5.33 g/m*3 4.9 C 0 km/h
724 08-04-2004 00:50:01 4.8 C 5.3 g/m*3 4.8 C 0 km/h
725 08-04-2004 01:02:01 4.8 C 5.3 g/m*3 4.8 C 0 km/h
Sensor: Nr:Datum:Temp:Abs-Feuchte:Windchill:Wind:
Aussen-T/F 726 08-04-2004 01:14:01 4.8 C 5.3 g/m*3 4.8 C 0 km/h
727 08-04-2004 01:26:01 4.8 C 5.23 g/m*3 4.8 C 0 km/h
728 08-04-2004 01:38:01 4.7 C 5.26 g/m*3 4.7 C 0 km/h
729 08-04-2004 01:50:01 4.8 C 5.36 g/m*3 4.8 C 0 km/h
730 08-04-2004 02:02:01 4.8 C 5.36 g/m*3 4.8 C 0 km/h
731 08-04-2004 02:14:01 4.8 C 5.36 g/m*3 4.8 C 0 km/h
732 08-04-2004 02:26:01 4.8 C 5.3 g/m*3 4.8 C 0 km/h
733 08-04-2004 02:38:01 4.9 C 5.33 g/m*3 4.9 C 0 km/h
734 08-04-2004 02:51:01 4.8 C 5.3 g/m*3 4.8 C 0 km/h
735 08-04-2004 03:03:01 4.8 C 5.36 g/m*3 4.8 C 0 km/h
736 08-04-2004 03:15:00 4.7 C 5.33 g/m*3 4.7 C 0 km/h
737 08-04-2004 03:27:00 4.7 C 5.4 g/m*3 4.7 C 0 km/h
738 08-04-2004 03:39:01 4.5 C 5.39 g/m*3 4.5 C 0 km/h
739 08-04-2004 03:51:01 4.3 C 5.45 g/m*3 4.3 C 0 km/h
740 08-04-2004 04:03:01 4.3 C 5.51 g/m*3 4.3 C 0 km/h
741 08-04-2004 04:15:01 4.3 C 5.45 g/m*3 4.3 C 0 km/h
742 08-04-2004 04:27:01 4.4 C 5.48 g/m*3 4.4 C 0 km/h
743 08-04-2004 04:39:01 4.4 C 5.42 g/m*3 4.4 C 0 km/h
744 08-04-2004 04:51:00 4.3 C 5.38 g/m*3 4.3 C 0 km/h
745 08-04-2004 05:02:59 4.3 C 5.51 g/m*3 4.3 C 0 km/h
746 08-04-2004 05:15:58 4.3 C 5.51 g/m*3 4.3 C 0 km/h
747 08-04-2004 05:27:58 4.2 C 5.54 g/m*3 4.2 C 0 km/h
748 08-04-2004 05:39:57 4.4 C 5.48 g/m*3 4.4 C 0 km/h
749 08-04-2004 05:51:01 4.4 C 5.55 g/m*3 4.4 C 0 km/h
750 08-04-2004 06:03:01 4.4 C 5.48 g/m*3 4.4 C 0 km/h
Sensor: Nr:Datum:Temp:Abs-Feuchte:Windchill:Wind:
Aussen-T/F 751 08-04-2004 06:15:01 4.4 C 5.42 g/m*3 4.4 C 0 km/h
752 08-04-2004 06:27:01 4.5 C 5.39 g/m*3 4.5 C 0 km/h
753 08-04-2004 06:39:01 4.4 C 5.42 g/m*3 4.4 C 0 km/h
754 08-04-2004 06:51:01 4.3 C 5.38 g/m*3 4.3 C 0 km/h
755 08-04-2004 07:03:01 4.3 C 5.32 g/m*3 4.3 C 0 km/h
756 08-04-2004 07:15:01 4.3 C 5.32 g/m*3 4.3 C 0 km/h
757 08-04-2004 07:27:01 4.3 C 5.32 g/m*3 4.3 C 0 km/h
758 08-04-2004 07:39:01 4.4 C 5.29 g/m*3 4.4 C 0 km/h
759 08-04-2004 07:51:00 4.6 C 5.36 g/m*3 4.6 C 0 km/h
760 08-04-2004 08:03:00 4.7 C 5.26 g/m*3 4.7 C 0 km/h
761 08-04-2004 08:15:59 4.7 C 5.26 g/m*3 4.7 C 0 km/h
762 08-04-2004 08:27:59 4.9 C 5.27 g/m*3 4.9 C 0 km/h
763 08-04-2004 08:39:57 5 C 5.3 g/m*3 5 C 0 km/h
764 08-04-2004 08:51:01 5.2 C 5.16 g/m*3 5.2 C 0 km/h
765 08-04-2004 09:03:01 5.4 C 5.23 g/m*3 5.4 C 0 km/h
766 08-04-2004 09:15:01 5.4 C 5.16 g/m*3 5.4 C 0 km/h
767 08-04-2004 09:27:01 5.5 C 5.13 g/m*3 5.5 C 0 km/h
768 08-04-2004 09:39:01 5.7 C 5.19 g/m*3 5.7 C 0 km/h
769 08-04-2004 09:51:00 6.2 C 5.22 g/m*3 6.2 C 0 km/h
770 08-04-2004 10:03:59 6.4 C 4.99 g/m*3 6.4 C 0 km/h
771 08-04-2004 10:15:58 7 C 5.11 g/m*3 7 C 0 km/h
772 08-04-2004 10:27:58 6.7 C 4.94 g/m*3 6.7 C 0 km/h
773 08-04-2004 10:39:57 6.6 C 4.91 g/m*3 6.6 C 0 km/h
774 08-04-2004 10:51:01 7 C 4.8 g/m*3 7 C 0 km/h
775 08-04-2004 11:03:01 6.8 C 5.05 g/m*3 6.8 C 0 km/h
Sensor: Nr:Datum:Temp:Abs-Feuchte:Windchill:Wind:
Aussen-T/F 776 08-04-2004 11:15:01 6.3 C 5.18 g/m*3 6.3 C 0 km/h
777 08-04-2004 11:27:01 5.9 C 5.48 g/m*3 5.9 C 0 km/h
778 08-04-2004 11:39:01 6 C 5.3 g/m*3 6 C 0 km/h
779 08-04-2004 11:51:01 7 C 5.27 g/m*3 7 C 0 km/h
780 08-04-2004 12:03:01 7.9 C 5.01 g/m*3 7.9 C 0 km/h
781 08-04-2004 12:15:01 8 C 4.8 g/m*3 8 C 0 km/h
782 08-04-2004 12:27:01 8.5 C 4.78 g/m*3 8.5 C 0 km/h
783 08-04-2004 12:39:01 8.5 C 4.7 g/m*3 8.5 C 0 km/h
784 08-04-2004 12:51:00 8.2 C 4.69 g/m*3 8.2 C 0 km/h
785 08-04-2004 13:03:00 7.5 C 4.88 g/m*3 7.5 C 0 km/h
786 08-04-2004 13:15:58 7.4 C 4.85 g/m*3 7.4 C 0 km/h
787 08-04-2004 13:27:58 8.9 C 5.26 g/m*3 8.9 C 0 km/h
788 08-04-2004 13:39:57 9.4 C 4.79 g/m*3 9.4 C 0 km/h
789 08-04-2004 13:51:01 8.5 C 4.87 g/m*3 8.5 C 0 km/h
790 08-04-2004 14:03:01 8.9 C 4.82 g/m*3 8.9 C 0 km/h
791 08-04-2004 14:15:01 10.5 C 4.66 g/m*3 10.5 C 0 km/h
792 08-04-2004 14:27:01 10.5 C 4.66 g/m*3 10.5 C 0 km/h
793 08-04-2004 14:39:01 11.1 C 4.83 g/m*3 11.1 C 0 km/h
794 08-04-2004 14:51:00 9.6 C 5.13 g/m*3 9.6 C 0 km/h
795 08-04-2004 15:03:59 9.6 C 5.4 g/m*3 9.6 C 0 km/h
796 08-04-2004 15:15:58 10 C 5.26 g/m*3 10 C 0 km/h
797 08-04-2004 15:27:58 11.3 C 5.41 g/m*3 11.3 C 0 km/h
798 08-04-2004 15:39:57 11.5 C 5.27 g/m*3 11.5 C 0 km/h
799 08-04-2004 15:51:01 11 C 5.1 g/m*3 11 C 0 km/h
800 08-04-2004 16:03:01 10.6 C 5.56 g/m*3 10.6 C 0 km/h
Sensor: Nr:Datum:Temp:Abs-Feuchte:Windchill:Wind:
Aussen-T/F 801 08-04-2004 16:15:01 10.5 C 5.53 g/m*3 10.5 C 0 km/h
802 08-04-2004 16:27:01 12 C 4.9 g/m*3 12 C 0 km/h
803 08-04-2004 16:39:00 10.5 C 5.14 g/m*3 10.5 C 0 km/h
804 08-04-2004 16:51:01 9.4 C 5.7 g/m*3 9.4 C 0 km/h
805 08-04-2004 17:03:01 9.1 C 5.94 g/m*3 9.1 C 0 km/h
806 08-04-2004 17:15:06 9.3 C 6.11 g/m*3 9.3 C 0 km/h
807 08-04-2004 17:27:28 10 C 5.17 g/m*3 10 C 0 km/h
808 08-04-2004 17:39:00 8.7 C 5.1 g/m*3 8.7 C 0 km/h
809 08-04-2004 17:51:00 8.1 C 5.24 g/m*3 8.1 C 0 km/h
810 08-04-2004 18:03:00 6.9 C 5.85 g/m*3 6.9 C 0 km/h
811 08-04-2004 18:15:59 6.7 C 6.15 g/m*3 6.7 C 0 km/h
812 08-04-2004 18:27:59 6.8 C 6.19 g/m*3 6.8 C 0 km/h
813 08-04-2004 18:39:58 7.5 C 6.4 g/m*3 7.5 C 0 km/h
814 08-04-2004 18:51:02 9 C 6.52 g/m*3 9 C 0 km/h
815 08-04-2004 19:03:01 9 C 5.99 g/m*3 9 C 0 km/h
816 08-04-2004 19:15:01 8.7 C 6.05 g/m*3 8.7 C 0 km/h
817 08-04-2004 19:27:01 9 C 5.91 g/m*3 9 C 0 km/h
818 08-04-2004 19:39:01 8.6 C 5.76 g/m*3 8.6 C 0 km/h
819 08-04-2004 19:51:00 7.7 C 5.51 g/m*3 7.7 C 0 km/h
820 08-04-2004 20:03:00 7.4 C 5.73 g/m*3 7.4 C 0 km/h
821 08-04-2004 20:15:58 7.1 C 5.62 g/m*3 7.1 C 0 km/h
822 08-04-2004 20:27:58 6.6 C 5.59 g/m*3 6.6 C 0 km/h
823 08-04-2004 20:39:58 6.1 C 5.55 g/m*3 6.1 C 0 km/h
824 08-04-2004 20:51:01 5.9 C 5.62 g/m*3 5.9 C 0 km/h
825 08-04-2004 21:03:01 6 C 5.59 g/m*3 6 C 0 km/h
Sensor: Nr:Datum:Temp:Abs-Feuchte:Windchill:Wind:
Aussen-T/F 826 08-04-2004 21:15:01 5.9 C 5.62 g/m*3 5.9 C 0 km/h
827 08-04-2004 21:27:01 6.1 C 5.63 g/m*3 6.1 C 0 km/h
828 08-04-2004 21:39:01 6.1 C 5.63 g/m*3 6.1 C 0 km/h
829 08-04-2004 21:51:00 6 C 5.59 g/m*3 6 C 0 km/h
830 08-04-2004 22:03:00 5.9 C 5.7 g/m*3 5.9 C 0 km/h
831 08-04-2004 22:15:59 5.8 C 5.8 g/m*3 5.8 C 0 km/h
832 08-04-2004 22:27:59 5.9 C 5.84 g/m*3 5.9 C 0 km/h
833 08-04-2004 22:39:58 6 C 5.66 g/m*3 6 C 0 km/h
834 08-04-2004 22:51:01 5.9 C 5.62 g/m*3 5.9 C 0 km/h
835 08-04-2004 23:03:01 6 C 5.66 g/m*3 6 C 0 km/h
836 08-04-2004 23:15:01 6 C 5.59 g/m*3 6 C 0 km/h
837 08-04-2004 23:27:01 5.8 C 5.44 g/m*3 5.8 C 0 km/h
838 08-04-2004 23:39:01 5.8 C 5.52 g/m*3 5.8 C 0 km/h
839 08-04-2004 23:51:00 5.9 C 5.48 g/m*3 5.9 C 0 km/h
840 09-04-2004 00:03:00 5.8 C 5.44 g/m*3 5.8 C 0 km/h
841 09-04-2004 00:15:59 5.7 C 5.41 g/m*3 5.7 C 0 km/h
842 09-04-2004 00:27:59 5.6 C 5.37 g/m*3 5.6 C 0 km/h
843 09-04-2004 00:39:57 5.1 C 5.27 g/m*3 5.1 C 0 km/h
844 09-04-2004 00:51:01 4.9 C 5.4 g/m*3 4.9 C 0 km/h
845 09-04-2004 01:03:01 4.8 C 5.43 g/m*3 4.8 C 0 km/h
846 09-04-2004 01:15:01 5.1 C 5.47 g/m*3 5.1 C 0 km/h
847 09-04-2004 01:27:01 5.2 C 5.51 g/m*3 5.2 C 0 km/h
848 09-04-2004 01:39:01 5.4 C 5.58 g/m*3 5.4 C 0 km/h
849 09-04-2004 01:51:00 5.5 C 5.62 g/m*3 5.5 C 0 km/h
850 09-04-2004 02:03:00 5.5 C 5.62 g/m*3 5.5 C 0 km/h
Sensor: Nr:Datum:Temp:Abs-Feuchte:Windchill:Wind:
Aussen-T/F 851 09-04-2004 02:15:58 5.5 C 5.62 g/m*3 5.5 C 0 km/h
852 09-04-2004 02:27:58 5.3 C 5.54 g/m*3 5.3 C 0 km/h
853 09-04-2004 02:39:57 5.3 C 5.61 g/m*3 5.3 C 0 km/h
854 09-04-2004 02:52:02 5.3 C 5.54 g/m*3 5.3 C 0 km/h
855 09-04-2004 03:04:02 5.3 C 5.54 g/m*3 5.3 C 0 km/h
856 09-04-2004 03:16:02 5.2 C 5.51 g/m*3 5.2 C 0 km/h
857 09-04-2004 03:28:02 5.2 C 5.51 g/m*3 5.2 C 0 km/h
858 09-04-2004 03:40:00 5.2 C 5.51 g/m*3 5.2 C 0 km/h
859 09-04-2004 03:52:00 5 C 5.5 g/m*3 5 C 0 km/h
860 09-04-2004 04:04:00 4.9 C 5.54 g/m*3 4.9 C 0 km/h
861 09-04-2004 04:16:59 5 C 5.5 g/m*3 5 C 0 km/h
862 09-04-2004 04:28:59 4.9 C 5.54 g/m*3 4.9 C 0 km/h
863 09-04-2004 04:40:57 4.8 C 5.43 g/m*3 4.8 C 0 km/h
864 09-04-2004 04:52:01 4.8 C 5.5 g/m*3 4.8 C 0 km/h
865 09-04-2004 05:04:01 4.8 C 5.5 g/m*3 4.8 C 0 km/h
866 09-04-2004 05:16:01 4.7 C 5.46 g/m*3 4.7 C 0 km/h
867 09-04-2004 05:28:01 4.7 C 5.46 g/m*3 4.7 C 0 km/h
868 09-04-2004 05:40:01 4.7 C 5.53 g/m*3 4.7 C 0 km/h
869 09-04-2004 05:52:00 4.7 C 5.53 g/m*3 4.7 C 0 km/h
870 09-04-2004 06:04:00 4.6 C 5.49 g/m*3 4.6 C 0 km/h
871 09-04-2004 06:16:58 4.6 C 5.49 g/m*3 4.6 C 0 km/h
872 09-04-2004 06:28:58 4.5 C 5.46 g/m*3 4.5 C 0 km/h
873 09-04-2004 06:40:57 4.5 C 5.46 g/m*3 4.5 C 0 km/h
874 09-04-2004 06:52:01 4.5 C 5.46 g/m*3 4.5 C 0 km/h
875 09-04-2004 07:04:01 4.5 C 5.46 g/m*3 4.5 C 0 km/h
Sensor: Nr:Datum:Temp:Abs-Feuchte:Windchill:Wind:
Aussen-T/F 876 09-04-2004 07:16:01 4.5 C 5.46 g/m*3 4.5 C 0 km/h
877 09-04-2004 07:28:01 4.5 C 5.39 g/m*3 4.5 C 0 km/h
878 09-04-2004 07:40:01 4.7 C 5.46 g/m*3 4.7 C 0 km/h
879 09-04-2004 07:52:02 4.8 C 5.43 g/m*3 4.8 C 0 km/h
880 09-04-2004 08:04:01 5 C 5.37 g/m*3 5 C 0 km/h
881 09-04-2004 08:16:01 5.1 C 5.34 g/m*3 5.1 C 0 km/h
882 09-04-2004 08:28:01 5.3 C 5.34 g/m*3 5.3 C 0 km/h
883 09-04-2004 08:40:01 4.9 C 5.2 g/m*3 4.9 C 0 km/h
884 09-04-2004 08:52:00 4.8 C 5.3 g/m*3 4.8 C 0 km/h
885 09-04-2004 09:04:00 4.7 C 5.33 g/m*3 4.7 C 0 km/h
886 09-04-2004 09:16:59 5 C 5.3 g/m*3 5 C 0 km/h
887 09-04-2004 09:28:59 5.9 C 5.55 g/m*3 5.9 C 0 km/h
888 09-04-2004 09:40:57 6.4 C 5.51 g/m*3 6.4 C 0 km/h
889 09-04-2004 09:52:01 6.5 C 5.4 g/m*3 6.5 C 0 km/h
890 09-04-2004 10:04:02 6.4 C 5.29 g/m*3 6.4 C 0 km/h
891 09-04-2004 10:16:02 6.7 C 5.39 g/m*3 6.7 C 0 km/h
892 09-04-2004 10:28:02 7.1 C 5.3 g/m*3 7.1 C 0 km/h
893 09-04-2004 10:40:01 7 C 5.19 g/m*3 7 C 0 km/h
894 09-04-2004 10:52:01 6.8 C 5.2 g/m*3 6.8 C 0 km/h
895 09-04-2004 11:04:00 6.5 C 5.17 g/m*3 6.5 C 0 km/h
896 09-04-2004 11:16:59 6.7 C 5.24 g/m*3 6.7 C 0 km/h
897 09-04-2004 11:28:59 7 C 5.11 g/m*3 7 C 0 km/h
898 09-04-2004 11:40:58 7.6 C 5.24 g/m*3 7.6 C 0 km/h
899 09-04-2004 11:52:02 8.9 C 5.26 g/m*3 8.9 C 0 km/h
900 09-04-2004 12:04:01 9.6 C 4.95 g/m*3 9.6 C 0 km/h
Sensor: Nr:Datum:Temp:Abs-Feuchte:Windchill:Wind:
Aussen-T/F 901 09-04-2004 12:16:01 9.5 C 5.01 g/m*3 9.5 C 0 km/h
902 09-04-2004 12:28:01 9 C 4.85 g/m*3 9 C 0 km/h
903 09-04-2004 12:40:01 8.3 C 4.8 g/m*3 8.3 C 0 km/h
904 09-04-2004 12:52:00 8.2 C 4.77 g/m*3 8.2 C 0 km/h
905 09-04-2004 13:04:00 7.9 C 4.68 g/m*3 7.9 C 0 km/h
906 09-04-2004 13:16:59 7.7 C 4.62 g/m*3 7.7 C 0 km/h
907 09-04-2004 13:28:59 8.4 C 4.67 g/m*3 8.4 C 0 km/h
908 09-04-2004 13:40:58 8.6 C 4.47 g/m*3 8.6 C 0 km/h
909 09-04-2004 13:52:01 8.6 C 4.55 g/m*3 8.6 C 0 km/h
910 09-04-2004 14:04:01 9.3 C 4.67 g/m*3 9.3 C 0 km/h
911 09-04-2004 14:16:01 10.7 C 4.81 g/m*3 10.7 C 0 km/h
912 09-04-2004 14:28:01 11.2 C 4.46 g/m*3 11.2 C 0 km/h
913 09-04-2004 14:40:01 10 C 4.32 g/m*3 10 C 0 km/h
914 09-04-2004 14:52:00 10 C 4.51 g/m*3 10 C 0 km/h
915 09-04-2004 15:04:00 10.8 C 4.55 g/m*3 10.8 C 0 km/h
916 09-04-2004 15:16:59 10.3 C 4.41 g/m*3 10.3 C 0 km/h
917 09-04-2004 15:28:59 9.5 C 4.28 g/m*3 9.5 C 0 km/h
918 09-04-2004 15:40:57 9.2 C 4.29 g/m*3 9.2 C 0 km/h
919 09-04-2004 15:52:01 9 C 4.58 g/m*3 9 C 0 km/h
920 09-04-2004 16:04:02 9.2 C 4.82 g/m*3 9.2 C 0 km/h
921 09-04-2004 16:16:01 9.7 C 5.07 g/m*3 9.7 C 0 km/h
922 09-04-2004 16:28:01 11.7 C 4.92 g/m*3 11.7 C 0 km/h
923 09-04-2004 16:40:01 12 C 4.8 g/m*3 12 C 0 km/h
924 09-04-2004 16:52:00 10.8 C 4.84 g/m*3 10.8 C 0 km/h
925 09-04-2004 17:04:00 9.3 C 4.76 g/m*3 9.3 C 0 km/h
Sensor: Nr:Datum:Temp:Abs-Feuchte:Windchill:Wind:
Aussen-T/F 926 09-04-2004 17:16:59 9.6 C 4.76 g/m*3 9.6 C 0 km/h
927 09-04-2004 17:28:59 9.3 C 4.85 g/m*3 9.3 C 0 km/h
928 09-04-2004 17:40:58 9.5 C 4.82 g/m*3 9.5 C 0 km/h
929 09-04-2004 17:52:01 9.5 C 4.92 g/m*3 9.5 C 0 km/h
930 09-04-2004 18:04:03 9.7 C 4.79 g/m*3 9.7 C 0 km/h
931 09-04-2004 18:16:02 10.1 C 4.82 g/m*3 10.1 C 0 km/h
932 09-04-2004 18:28:02 10.3 C 4.79 g/m*3 10.3 C 0 km/h
933 09-04-2004 18:40:02 9.9 C 4.95 g/m*3 9.9 C 0 km/h
934 09-04-2004 18:52:01 9.6 C 4.86 g/m*3 9.6 C 0 km/h
935 09-04-2004 19:04:00 9.1 C 4.88 g/m*3 9.1 C 0 km/h
936 09-04-2004 19:16:59 8.9 C 5.08 g/m*3 8.9 C 0 km/h
937 09-04-2004 19:28:59 8.6 C 4.98 g/m*3 8.6 C 0 km/h
938 09-04-2004 19:40:59 8.4 C 5.09 g/m*3 8.4 C 0 km/h
939 09-04-2004 19:52:01 8.3 C 5.14 g/m*3 8.3 C 0 km/h
940 09-04-2004 20:04:01 8.2 C 5.19 g/m*3 8.2 C 0 km/h
941 09-04-2004 20:16:01 8.1 C 5.24 g/m*3 8.1 C 0 km/h
942 09-04-2004 20:28:01 8 C 5.21 g/m*3 8 C 0 km/h
943 09-04-2004 20:40:00 8 C 5.21 g/m*3 8 C 0 km/h
944 09-04-2004 20:52:01 8.1 C 5.33 g/m*3 8.1 C 0 km/h
945 09-04-2004 21:04:01 7.9 C 5.34 g/m*3 7.9 C 0 km/h
946 09-04-2004 21:16:01 7.8 C 5.39 g/m*3 7.8 C 0 km/h
947 09-04-2004 21:28:01 7.8 C 5.39 g/m*3 7.8 C 0 km/h
948 09-04-2004 21:40:01 7.9 C 5.5 g/m*3 7.9 C 0 km/h
949 09-04-2004 21:52:00 7.8 C 5.47 g/m*3 7.8 C 0 km/h
950 09-04-2004 22:03:59 7.8 C 5.55 g/m*3 7.8 C 0 km/h
Sensor: Nr:Datum:Temp:Abs-Feuchte:Windchill:Wind:
Aussen-T/F 951 09-04-2004 22:16:58 7.8 C 5.55 g/m*3 7.8 C 0 km/h
952 09-04-2004 22:28:58 7.7 C 5.43 g/m*3 7.7 C 0 km/h
953 09-04-2004 22:40:57 7.7 C 5.51 g/m*3 7.7 C 0 km/h
954 09-04-2004 22:52:01 7.5 C 5.44 g/m*3 7.5 C 0 km/h
955 09-04-2004 23:04:01 7.5 C 5.52 g/m*3 7.5 C 0 km/h
956 09-04-2004 23:16:01 7.5 C 5.52 g/m*3 7.5 C 0 km/h
957 09-04-2004 23:28:01 7.4 C 5.49 g/m*3 7.4 C 0 km/h
958 09-04-2004 23:40:01 7.1 C 5.46 g/m*3 7.1 C 0 km/h
959 09-04-2004 23:52:01 6.7 C 5.47 g/m*3 6.7 C 0 km/h
960 10-04-2004 00:04:00 6.8 C 5.58 g/m*3 6.8 C 0 km/h
961 10-04-2004 00:16:59 6.8 C 5.58 g/m*3 6.8 C 0 km/h
962 10-04-2004 00:28:59 6.8 C 5.58 g/m*3 6.8 C 0 km/h
963 10-04-2004 00:40:57 6.8 C 5.58 g/m*3 6.8 C 0 km/h
964 10-04-2004 00:52:01 6.8 C 5.58 g/m*3 6.8 C 0 km/h
965 10-04-2004 01:04:01 6.8 C 5.58 g/m*3 6.8 C 0 km/h
966 10-04-2004 01:16:01 6.8 C 5.66 g/m*3 6.8 C 0 km/h
967 10-04-2004 01:28:01 6.5 C 5.55 g/m*3 6.5 C 0 km/h
968 10-04-2004 01:40:01 6.4 C 5.59 g/m*3 6.4 C 0 km/h
969 10-04-2004 01:52:00 6.5 C 5.62 g/m*3 6.5 C 0 km/h
970 10-04-2004 02:04:00 6.5 C 5.62 g/m*3 6.5 C 0 km/h
971 10-04-2004 02:16:58 6.4 C 5.59 g/m*3 6.4 C 0 km/h
972 10-04-2004 02:28:58 6.4 C 5.59 g/m*3 6.4 C 0 km/h
973 10-04-2004 02:40:57 6.5 C 5.62 g/m*3 6.5 C 0 km/h
974 10-04-2004 02:53:02 6.6 C 5.66 g/m*3 6.6 C 0 km/h
975 10-04-2004 03:05:02 6.6 C 5.66 g/m*3 6.6 C 0 km/h
Sensor: Nr:Datum:Temp:Abs-Feuchte:Windchill:Wind:
Aussen-T/F 976 10-04-2004 03:17:02 6.7 C 5.77 g/m*3 6.7 C 0 km/h
977 10-04-2004 03:29:02 6.7 C 5.77 g/m*3 6.7 C 0 km/h
978 10-04-2004 03:41:00 6.7 C 5.77 g/m*3 6.7 C 0 km/h
979 10-04-2004 03:53:00 6.6 C 5.74 g/m*3 6.6 C 0 km/h
980 10-04-2004 04:05:00 6.6 C 5.81 g/m*3 6.6 C 0 km/h
981 10-04-2004 04:17:59 6.5 C 5.77 g/m*3 6.5 C 0 km/h
982 10-04-2004 04:29:59 6.4 C 5.81 g/m*3 6.4 C 0 km/h
983 10-04-2004 04:41:57 6.3 C 5.77 g/m*3 6.3 C 0 km/h
984 10-04-2004 04:53:01 6.2 C 5.81 g/m*3 6.2 C 0 km/h
985 10-04-2004 05:05:01 6 C 5.73 g/m*3 6 C 0 km/h
986 10-04-2004 05:17:01 5.9 C 5.84 g/m*3 5.9 C 0 km/h
987 10-04-2004 05:29:01 5.8 C 5.87 g/m*3 5.8 C 0 km/h
988 10-04-2004 05:41:01 5.6 C 5.8 g/m*3 5.6 C 0 km/h
989 10-04-2004 05:53:00 5.3 C 5.75 g/m*3 5.3 C 0 km/h
990 10-04-2004 06:05:00 5.3 C 5.82 g/m*3 5.3 C 0 km/h
991 10-04-2004 06:17:58 5.4 C 5.86 g/m*3 5.4 C 0 km/h
992 10-04-2004 06:29:58 5.4 C 5.86 g/m*3 5.4 C 0 km/h
993 10-04-2004 06:41:57 5.4 C 5.86 g/m*3 5.4 C 0 km/h
994 10-04-2004 06:53:01 5.3 C 5.82 g/m*3 5.3 C 0 km/h
995 10-04-2004 07:05:01 5.1 C 5.75 g/m*3 5.1 C 0 km/h
996 10-04-2004 07:17:01 4.8 C 5.63 g/m*3 4.8 C 0 km/h
997 10-04-2004 07:29:01 4.9 C 5.74 g/m*3 4.9 C 0 km/h
998 10-04-2004 07:41:01 4.9 C 5.74 g/m*3 4.9 C 0 km/h
999 10-04-2004 07:53:00 4.9 C 5.74 g/m*3 4.9 C 0 km/h
1000 10-04-2004 08:05:59 5.2 C 5.71 g/m*3 5.2 C 0 km/h
Sensor: Nr:Datum:Temp:Abs-Feuchte:Windchill:Wind:
Aussen-T/F 1001 10-04-2004 08:17:58 5.3 C 5.68 g/m*3 5.3 C 0 km/h
1002 10-04-2004 08:29:58 5.6 C 5.73 g/m*3 5.6 C 0 km/h
1003 10-04-2004 08:41:57 5.8 C 5.73 g/m*3 5.8 C 0 km/h
1004 10-04-2004 08:53:01 6.1 C 5.63 g/m*3 6.1 C 0 km/h
1005 10-04-2004 09:05:01 6.5 C 5.62 g/m*3 6.5 C 0 km/h
1006 10-04-2004 09:17:01 7.2 C 5.73 g/m*3 7.2 C 0 km/h
1007 10-04-2004 09:29:01 7.3 C 5.37 g/m*3 7.3 C 0 km/h
1008 10-04-2004 09:41:01 7.6 C 5.56 g/m*3 7.6 C 0 km/h
1009 10-04-2004 09:53:00 8.1 C 5.49 g/m*3 8.1 C 0 km/h
1010 10-04-2004 10:05:59 8.3 C 5.48 g/m*3 8.3 C 0 km/h
1011 10-04-2004 10:17:58 8.9 C 5.52 g/m*3 8.9 C 0 km/h
1012 10-04-2004 10:29:58 9 C 5.47 g/m*3 9 C 0 km/h
1013 10-04-2004 10:41:57 8.1 C 5.24 g/m*3 8.1 C 0 km/h
1014 10-04-2004 10:53:01 7.9 C 5.26 g/m*3 7.9 C 0 km/h
1015 10-04-2004 11:05:01 8.5 C 5.21 g/m*3 8.5 C 0 km/h
1016 10-04-2004 11:17:01 9.1 C 5.23 g/m*3 9.1 C 0 km/h
1017 10-04-2004 11:29:01 10 C 5.26 g/m*3 10 C 0 km/h
1018 10-04-2004 11:41:01 9.5 C 5.28 g/m*3 9.5 C 0 km/h
1019 10-04-2004 11:53:01 9.7 C 5.35 g/m*3 9.7 C 0 km/h
1020 10-04-2004 12:05:01 10.7 C 5.3 g/m*3 10.7 C 0 km/h
1021 10-04-2004 12:17:01 11 C 5.1 g/m*3 11 C 0 km/h
1022 10-04-2004 12:29:01 10.4 C 5.01 g/m*3 10.4 C 0 km/h
1023 10-04-2004 12:41:01 11.2 C 5.17 g/m*3 11.2 C 0 km/h
1024 10-04-2004 12:53:00 11.9 C 5.08 g/m*3 11.9 C 0 km/h
1025 10-04-2004 13:05:00 10.7 C 4.81 g/m*3 10.7 C 0 km/h
Sensor: Nr:Datum:Temp:Abs-Feuchte:Windchill:Wind:
Aussen-T/F 1026 10-04-2004 13:17:59 10.9 C 4.97 g/m*3 10.9 C 0 km/h
1027 10-04-2004 13:29:59 10.5 C 4.85 g/m*3 10.5 C 0 km/h
1028 10-04-2004 13:41:58 10.7 C 5.01 g/m*3 10.7 C 0 km/h
1029 10-04-2004 13:53:01 12.1 C 4.72 g/m*3 12.1 C 0 km/h
1030 10-04-2004 14:05:00 12.4 C 4.26 g/m*3 12.4 C 0 km/h
1031 10-04-2004 14:17:00 12.5 C 4.29 g/m*3 12.5 C 0 km/h
1032 10-04-2004 14:29:00 12.5 C 4.29 g/m*3 12.5 C 0 km/h
1033 10-04-2004 14:41:00 12.6 C 4.09 g/m*3 12.6 C 0 km/h
1034 10-04-2004 14:53:01 12.5 C 3.85 g/m*3 12.5 C 0 km/h
1035 10-04-2004 15:05:01 13.2 C 4.02 g/m*3 13.2 C 0 km/h
1036 10-04-2004 15:17:01 12.4 C 4.04 g/m*3 12.4 C 0 km/h
1037 10-04-2004 15:29:01 11.8 C 4.21 g/m*3 11.8 C 0 km/h
1038 10-04-2004 15:41:01 11.5 C 4.13 g/m*3 11.5 C 0 km/h
1039 10-04-2004 15:53:01 10.9 C 3.98 g/m*3 10.9 C 0 km/h
1040 10-04-2004 16:05:59 10.6 C 4.59 g/m*3 10.6 C 0 km/h
1041 10-04-2004 16:17:58 10 C 5.17 g/m*3 10 C 0 km/h
1042 10-04-2004 16:29:58 9.6 C 5.04 g/m*3 9.6 C 0 km/h
1043 10-04-2004 16:41:57 9.5 C 5.1 g/m*3 9.5 C 0 km/h
1044 10-04-2004 16:53:01 9.1 C 5.32 g/m*3 9.1 C 0 km/h
1045 10-04-2004 17:05:01 8.8 C 5.31 g/m*3 8.8 C 0 km/h
1046 10-04-2004 17:17:01 8.6 C 5.76 g/m*3 8.6 C 0 km/h
1047 10-04-2004 17:29:01 8.5 C 5.46 g/m*3 8.5 C 0 km/h
1048 10-04-2004 17:41:01 8.8 C 5.57 g/m*3 8.8 C 0 km/h
1049 10-04-2004 17:53:01 8.7 C 5.36 g/m*3 8.7 C 0 km/h
1050 10-04-2004 18:05:01 8.3 C 5.39 g/m*3 8.3 C 0 km/h
Sensor: Nr:Datum:Temp:Abs-Feuchte:Windchill:Wind:
Aussen-T/F 1051 10-04-2004 18:17:01 8.1 C 5.57 g/m*3 8.1 C 0 km/h
1052 10-04-2004 18:29:01 8 C 5.37 g/m*3 8 C 0 km/h
1053 10-04-2004 18:41:01 7.9 C 5.59 g/m*3 7.9 C 0 km/h
1054 10-04-2004 18:53:00 7.9 C 5.83 g/m*3 7.9 C 0 km/h
1055 10-04-2004 19:05:00 7.8 C 5.88 g/m*3 7.8 C 0 km/h
1056 10-04-2004 19:17:58 7.6 C 6.04 g/m*3 7.6 C 0 km/h
1057 10-04-2004 19:29:58 7.5 C 6.08 g/m*3 7.5 C 0 km/h
1058 10-04-2004 19:41:57 7.5 C 6.24 g/m*3 7.5 C 0 km/h
1059 10-04-2004 19:53:01 7.4 C 6.28 g/m*3 7.4 C 0 km/h
1060 10-04-2004 20:05:02 7.5 C 6.4 g/m*3 7.5 C 0 km/h
1061 10-04-2004 20:17:01 7.5 C 6.48 g/m*3 7.5 C 0 km/h
1062 10-04-2004 20:29:01 7.5 C 6.4 g/m*3 7.5 C 0 km/h
1063 10-04-2004 20:41:02 7.6 C 6.44 g/m*3 7.6 C 0 km/h
1064 10-04-2004 20:53:01 7.7 C 6.49 g/m*3 7.7 C 0 km/h
1065 10-04-2004 21:05:01 7.8 C 6.53 g/m*3 7.8 C 0 km/h
1066 10-04-2004 21:17:01 7.8 C 6.53 g/m*3 7.8 C 0 km/h
1067 10-04-2004 21:29:01 7.8 C 6.45 g/m*3 7.8 C 0 km/h
1068 10-04-2004 21:41:01 7.9 C 6.57 g/m*3 7.9 C 0 km/h
1069 10-04-2004 21:53:00 7.7 C 6.57 g/m*3 7.7 C 0 km/h
1070 10-04-2004 22:04:59 7.6 C 6.69 g/m*3 7.6 C 0 km/h
1071 10-04-2004 22:17:58 7.3 C 6.79 g/m*3 7.3 C 0 km/h
1072 10-04-2004 22:29:58 6.9 C 6.77 g/m*3 6.9 C 0 km/h
1073 10-04-2004 22:41:57 6.8 C 6.81 g/m*3 6.8 C 0 km/h
1074 10-04-2004 22:53:01 6.6 C 6.64 g/m*3 6.6 C 0 km/h
1075 10-04-2004 23:05:01 6.5 C 6.6 g/m*3 6.5 C 0 km/h
Sensor: Nr:Datum:Temp:Abs-Feuchte:Windchill:Wind:
Aussen-T/F 1076 10-04-2004 23:17:01 6.5 C 6.6 g/m*3 6.5 C 0 km/h
1077 10-04-2004 23:29:01 6.5 C 6.67 g/m*3 6.5 C 0 km/h
1078 10-04-2004 23:41:01 6.2 C 6.55 g/m*3 6.2 C 0 km/h
1079 10-04-2004 23:53:01 6.3 C 6.59 g/m*3 6.3 C 0 km/h
1080 11-04-2004 00:05:01 6.2 C 6.47 g/m*3 6.2 C 0 km/h
1081 11-04-2004 00:17:01 6.2 C 6.25 g/m*3 6.2 C 0 km/h
1082 11-04-2004 00:29:01 6.3 C 6.14 g/m*3 6.3 C 0 km/h
1083 11-04-2004 00:41:01 6.2 C 6.1 g/m*3 6.2 C 0 km/h
1084 11-04-2004 00:53:00 6.1 C 5.99 g/m*3 6.1 C 0 km/h
1085 11-04-2004 01:05:00 5.9 C 5.91 g/m*3 5.9 C 0 km/h
1086 11-04-2004 01:17:58 5.9 C 5.91 g/m*3 5.9 C 0 km/h
1087 11-04-2004 01:29:58 5.8 C 5.87 g/m*3 5.8 C 0 km/h
1088 11-04-2004 01:41:57 5.8 C 5.95 g/m*3 5.8 C 0 km/h
1089 11-04-2004 01:53:01 5.7 C 5.84 g/m*3 5.7 C 0 km/h
1090 11-04-2004 02:05:01 5.6 C 5.8 g/m*3 5.6 C 0 km/h
1091 11-04-2004 02:17:01 5.4 C 5.79 g/m*3 5.4 C 0 km/h
1092 11-04-2004 02:29:01 5.3 C 5.82 g/m*3 5.3 C 0 km/h
1093 11-04-2004 02:41:01 5.2 C 5.71 g/m*3 5.2 C 0 km/h
1094 11-04-2004 02:54:01 5 C 5.71 g/m*3 5 C 0 km/h
1095 11-04-2004 03:06:01 4.8 C 5.63 g/m*3 4.8 C 0 km/h
1096 11-04-2004 03:18:00 4.6 C 5.62 g/m*3 4.6 C 0 km/h
1097 11-04-2004 03:30:00 4.1 C 5.5 g/m*3 4.1 C 0 km/h
1098 11-04-2004 03:42:01 3.8 C 5.46 g/m*3 3.8 C 0 km/h
1099 11-04-2004 03:54:01 3.6 C 5.39 g/m*3 3.6 C 0 km/h
1100 11-04-2004 04:06:01 3.4 C 5.31 g/m*3 3.4 C 0 km/h
Sensor: Nr:Datum:Temp:Abs-Feuchte:Windchill:Wind:
Aussen-T/F 1101 11-04-2004 04:18:01 3.1 C 5.15 g/m*3 3.1 C 0 km/h
1102 11-04-2004 04:30:01 2.8 C 5.1 g/m*3 2.8 C 0 km/h
1103 11-04-2004 04:42:01 2.6 C 5.03 g/m*3 2.6 C 0 km/h
1104 11-04-2004 04:54:00 2.7 C 5.07 g/m*3 2.7 C 0 km/h
1105 11-04-2004 05:06:00 2.9 C 5.08 g/m*3 2.9 C 0 km/h
1106 11-04-2004 05:18:59 2.9 C 5.02 g/m*3 2.9 C 0 km/h
1107 11-04-2004 05:30:57 2.7 C 4.95 g/m*3 2.7 C 0 km/h
1108 11-04-2004 05:42:57 2.8 C 5.04 g/m*3 2.8 C 0 km/h
1109 11-04-2004 05:54:01 2.9 C 5.08 g/m*3 2.9 C 0 km/h
1110 11-04-2004 06:06:01 2.8 C 4.99 g/m*3 2.8 C 0 km/h
1111 11-04-2004 06:18:01 2.7 C 5.01 g/m*3 2.7 C 0 km/h
1112 11-04-2004 06:30:01 3.1 C 5.03 g/m*3 3.1 C 0 km/h
1113 11-04-2004 06:42:01 3.2 C 5 g/m*3 3.2 C 0 km/h
1114 11-04-2004 06:54:00 3.1 C 4.91 g/m*3 3.1 C 0 km/h
1115 11-04-2004 07:05:59 3.1 C 4.97 g/m*3 3.1 C 0 km/h
1116 11-04-2004 07:18:58 3.1 C 4.97 g/m*3 3.1 C 0 km/h
1117 11-04-2004 07:30:57 3.2 C 5 g/m*3 3.2 C 0 km/h
1118 11-04-2004 07:42:57 3.3 C 4.97 g/m*3 3.3 C 0 km/h
1119 11-04-2004 07:54:01 3.5 C 4.98 g/m*3 3.5 C 0 km/h
1120 11-04-2004 08:06:01 3.6 C 5.01 g/m*3 3.6 C 0 km/h
1121 11-04-2004 08:18:01 3.5 C 4.92 g/m*3 3.5 C 0 km/h
1122 11-04-2004 08:30:01 3.6 C 5.01 g/m*3 3.6 C 0 km/h
1123 11-04-2004 08:42:01 3.8 C 4.96 g/m*3 3.8 C 0 km/h
1124 11-04-2004 08:54:01 4.1 C 4.99 g/m*3 4.1 C 0 km/h
1125 11-04-2004 09:06:01 4.4 C 5.03 g/m*3 4.4 C 0 km/h
Sensor: Nr:Datum:Temp:Abs-Feuchte:Windchill:Wind:
Aussen-T/F 1126 11-04-2004 09:18:01 4.7 C 5 g/m*3 4.7 C 0 km/h
1127 11-04-2004 09:30:01 4.7 C 4.93 g/m*3 4.7 C 0 km/h
1128 11-04-2004 09:42:01 4.6 C 4.9 g/m*3 4.6 C 0 km/h
1129 11-04-2004 09:54:00 4.6 C 4.9 g/m*3 4.6 C 0 km/h
1130 11-04-2004 10:06:00 5 C 4.89 g/m*3 5 C 0 km/h
1131 11-04-2004 10:18:59 5 C 4.76 g/m*3 5 C 0 km/h
1132 11-04-2004 10:30:58 5.6 C 4.74 g/m*3 5.6 C 0 km/h
1133 11-04-2004 10:42:58 6.1 C 4.82 g/m*3 6.1 C 0 km/h
1134 11-04-2004 10:54:01 5.9 C 4.69 g/m*3 5.9 C 0 km/h
1135 11-04-2004 11:06:01 6 C 4.65 g/m*3 6 C 0 km/h
1136 11-04-2004 11:18:01 6.6 C 4.76 g/m*3 6.6 C 0 km/h
1137 11-04-2004 11:30:01 6.6 C 4.53 g/m*3 6.6 C 0 km/h
1138 11-04-2004 11:42:01 6.7 C 4.71 g/m*3 6.7 C 0 km/h
1139 11-04-2004 11:54:00 7.6 C 4.75 g/m*3 7.6 C 0 km/h
1140 11-04-2004 12:06:00 8.1 C 4.74 g/m*3 8.1 C 0 km/h
1141 11-04-2004 12:18:58 7.5 C 4.56 g/m*3 7.5 C 0 km/h
1142 11-04-2004 12:30:57 8.8 C 4.79 g/m*3 8.8 C 0 km/h
1143 11-04-2004 12:42:57 9.2 C 4.91 g/m*3 9.2 C 0 km/h
1144 11-04-2004 12:54:01 8.8 C 4.61 g/m*3 8.8 C 0 km/h
1145 11-04-2004 13:06:01 9.7 C 4.98 g/m*3 9.7 C 0 km/h
1146 11-04-2004 13:18:01 9.4 C 4.79 g/m*3 9.4 C 0 km/h
1147 11-04-2004 13:30:01 9.7 C 4.7 g/m*3 9.7 C 0 km/h
1148 11-04-2004 13:42:01 10.3 C 4.6 g/m*3 10.3 C 0 km/h
1149 11-04-2004 13:54:01 10.9 C 4.67 g/m*3 10.9 C 0 km/h
1150 11-04-2004 14:06:02 11.5 C 4.44 g/m*3 11.5 C 0 km/h
Sensor: Nr:Datum:Temp:Abs-Feuchte:Windchill:Wind:
Aussen-T/F 1151 11-04-2004 14:18:01 12 C 4.69 g/m*3 12 C 0 km/h
1152 11-04-2004 14:30:01 12.6 C 4.76 g/m*3 12.6 C 0 km/h
1153 11-04-2004 14:42:01 12.5 C 4.4 g/m*3 12.5 C 0 km/h
1154 11-04-2004 14:54:00 13.3 C 4.27 g/m*3 13.3 C 0 km/h
1155 11-04-2004 15:06:00 13.4 C 4.3 g/m*3 13.4 C 0 km/h
1156 11-04-2004 15:18:59 12.8 C 4.37 g/m*3 12.8 C 0 km/h
1157 11-04-2004 15:30:57 12.7 C 4.45 g/m*3 12.7 C 0 km/h
1158 11-04-2004 15:42:57 13.9 C 4.44 g/m*3 13.9 C 0 km/h
1159 11-04-2004 15:54:01 12.8 C 4.14 g/m*3 12.8 C 0 km/h
1160 11-04-2004 16:06:01 12.9 C 4.28 g/m*3 12.9 C 0 km/h
1161 11-04-2004 16:18:01 11.9 C 4.34 g/m*3 11.9 C 0 km/h
1162 11-04-2004 16:30:01 12.5 C 4.4 g/m*3 12.5 C 0 km/h
1163 11-04-2004 16:42:01 12.9 C 4.28 g/m*3 12.9 C 0 km/h
1164 11-04-2004 16:54:00 13.8 C 4.29 g/m*3 13.8 C 0 km/h
1165 11-04-2004 17:05:59 13 C 4.08 g/m*3 13 C 0 km/h
1166 11-04-2004 17:18:59 12.4 C 4.26 g/m*3 12.4 C 0 km/h
1167 11-04-2004 17:30:58 13 C 4.31 g/m*3 13 C 0 km/h
1168 11-04-2004 17:42:58 13.9 C 4.32 g/m*3 13.9 C 0 km/h
1169 11-04-2004 17:54:01 13.1 C 4.11 g/m*3 13.1 C 0 km/h
1170 11-04-2004 18:06:01 13.1 C 4.11 g/m*3 13.1 C 0 km/h
1171 11-04-2004 18:18:01 12.5 C 4.29 g/m*3 12.5 C 0 km/h
1172 11-04-2004 18:30:01 12.4 C 4.26 g/m*3 12.4 C 0 km/h
1173 11-04-2004 18:42:01 12.3 C 4.23 g/m*3 12.3 C 0 km/h
1174 11-04-2004 18:54:00 12.1 C 4.29 g/m*3 12.1 C 0 km/h
1175 11-04-2004 19:06:00 11.5 C 4.23 g/m*3 11.5 C 0 km/h
Sensor: Nr:Datum:Temp:Abs-Feuchte:Windchill:Wind:
Aussen-T/F 1176 11-04-2004 19:18:59 10.9 C 4.38 g/m*3 10.9 C 0 km/h
1177 11-04-2004 19:30:58 10.5 C 4.27 g/m*3 10.5 C 0 km/h
1178 11-04-2004 19:42:58 10.2 C 4.38 g/m*3 10.2 C 0 km/h
1179 11-04-2004 19:54:01 9.6 C 4.31 g/m*3 9.6 C 0 km/h
1180 11-04-2004 20:06:01 9.2 C 4.38 g/m*3 9.2 C 0 km/h
1181 11-04-2004 20:18:01 8.7 C 4.32 g/m*3 8.7 C 0 km/h
1182 11-04-2004 20:30:01 8.5 C 4.35 g/m*3 8.5 C 0 km/h
1183 11-04-2004 20:42:01 8.2 C 4.35 g/m*3 8.2 C 0 km/h
1184 11-04-2004 20:54:01 8 C 4.3 g/m*3 8 C 0 km/h
1185 11-04-2004 21:06:00 7.9 C 4.35 g/m*3 7.9 C 0 km/h
1186 11-04-2004 21:18:59 7.6 C 4.43 g/m*3 7.6 C 0 km/h
1187 11-04-2004 21:30:58 7.6 C 4.43 g/m*3 7.6 C 0 km/h
1188 11-04-2004 21:42:58 7.6 C 4.43 g/m*3 7.6 C 0 km/h
1189 11-04-2004 21:54:01 7.6 C 4.51 g/m*3 7.6 C 0 km/h
1190 11-04-2004 22:06:01 7.4 C 4.45 g/m*3 7.4 C 0 km/h
1191 11-04-2004 22:18:00 7.4 C 4.53 g/m*3 7.4 C 0 km/h
1192 11-04-2004 22:30:00 7.5 C 4.64 g/m*3 7.5 C 0 km/h
1193 11-04-2004 22:42:00 7.6 C 4.67 g/m*3 7.6 C 0 km/h
1194 11-04-2004 22:54:01 7.7 C 4.7 g/m*3 7.7 C 0 km/h
1195 11-04-2004 23:06:02 7.8 C 4.82 g/m*3 7.8 C 0 km/h
1196 11-04-2004 23:18:01 7.5 C 4.72 g/m*3 7.5 C 0 km/h
1197 11-04-2004 23:30:01 7.3 C 4.82 g/m*3 7.3 C 0 km/h
1198 11-04-2004 23:42:01 6.9 C 4.7 g/m*3 6.9 C 0 km/h
1199 11-04-2004 23:54:00 6.3 C 4.66 g/m*3 6.3 C 0 km/h
1200 12-04-2004 00:06:00 5.8 C 4.66 g/m*3 5.8 C 0 km/h
Sensor: Nr:Datum:Temp:Abs-Feuchte:Windchill:Wind:
Aussen-T/F 1201 12-04-2004 00:18:59 5.4 C 4.67 g/m*3 5.4 C 0 km/h
1202 12-04-2004 00:30:57 5.1 C 4.65 g/m*3 5.1 C 0 km/h
1203 12-04-2004 00:42:57 4.9 C 4.73 g/m*3 4.9 C 0 km/h
1204 12-04-2004 00:54:01 4.6 C 4.7 g/m*3 4.6 C 0 km/h
1205 12-04-2004 01:06:01 4.4 C 4.7 g/m*3 4.4 C 0 km/h
1206 12-04-2004 01:18:01 4.2 C 4.7 g/m*3 4.2 C 0 km/h
1207 12-04-2004 01:30:01 4.2 C 4.83 g/m*3 4.2 C 0 km/h
1208 12-04-2004 01:42:01 4 C 4.77 g/m*3 4 C 0 km/h
1209 12-04-2004 01:54:00 3.8 C 4.77 g/m*3 3.8 C 0 km/h
1210 12-04-2004 02:06:59 3.6 C 4.7 g/m*3 3.6 C 0 km/h
1211 12-04-2004 02:18:58 3.4 C 4.7 g/m*3 3.4 C 0 km/h
1212 12-04-2004 02:30:57 3.2 C 4.64 g/m*3 3.2 C 0 km/h
1213 12-04-2004 02:42:57 2.9 C 4.67 g/m*3 2.9 C 0 km/h
1214 12-04-2004 02:55:02 2.7 C 4.66 g/m*3 2.7 C 0 km/h
1215 12-04-2004 03:07:02 2.4 C 4.57 g/m*3 2.4 C 0 km/h
1216 12-04-2004 03:19:02 2.4 C 4.62 g/m*3 2.4 C 0 km/h
1217 12-04-2004 03:31:00 2.3 C 4.59 g/m*3 2.3 C 0 km/h
1218 12-04-2004 03:43:00 2.1 C 4.59 g/m*3 2.1 C 0 km/h
1219 12-04-2004 03:55:00 1.9 C 4.58 g/m*3 1.9 C 0 km/h
1220 12-04-2004 04:07:00 1.8 C 4.55 g/m*3 1.8 C 0 km/h
1221 12-04-2004 04:19:58 1.6 C 4.49 g/m*3 1.6 C 0 km/h
1222 12-04-2004 04:31:57 1.5 C 4.51 g/m*3 1.5 C 0 km/h
1223 12-04-2004 04:43:57 1.4 C 4.48 g/m*3 1.4 C 0 km/h
1224 12-04-2004 04:55:01 1.3 C 4.5 g/m*3 1.3 C 0 km/h
1225 12-04-2004 05:07:01 1.2 C 4.53 g/m*3 1.2 C 0 km/h
Sensor: Nr:Datum:Temp:Abs-Feuchte:Windchill:Wind:
Aussen-T/F 1226 12-04-2004 05:19:01 1.1 C 4.49 g/m*3 1.1 C 0 km/h
1227 12-04-2004 05:31:01 0.9 C 4.43 g/m*3 0.9 C 0 km/h
1228 12-04-2004 05:43:01 0.8 C 4.4 g/m*3 0.8 C 0 km/h
1229 12-04-2004 05:55:00 0.8 C 4.45 g/m*3 0.8 C 0 km/h
1230 12-04-2004 06:07:00 0.7 C 4.42 g/m*3 0.7 C 0 km/h
1231 12-04-2004 06:19:58 0.5 C 4.36 g/m*3 0.5 C 0 km/h
1232 12-04-2004 06:31:57 0.4 C 4.33 g/m*3 0.4 C 0 km/h
1233 12-04-2004 06:43:57 0.4 C 4.33 g/m*3 0.4 C 0 km/h
1234 12-04-2004 06:55:01 0.3 C 4.3 g/m*3 0.3 C 0 km/h
1235 12-04-2004 07:07:01 0.2 C 4.27 g/m*3 0.2 C 0 km/h
1236 12-04-2004 07:19:01 0.2 C 4.27 g/m*3 0.2 C 0 km/h
1237 12-04-2004 07:31:00 0.3 C 4.35 g/m*3 0.3 C 0 km/h
1238 12-04-2004 07:43:00 0.3 C 4.35 g/m*3 0.3 C 0 km/h
1239 12-04-2004 07:55:01 0.5 C 4.41 g/m*3 0.5 C 0 km/h
1240 12-04-2004 08:07:01 0.6 C 4.44 g/m*3 0.6 C 0 km/h
1241 12-04-2004 08:19:01 0.7 C 4.47 g/m*3 0.7 C 0 km/h
1242 12-04-2004 08:31:01 1 C 4.57 g/m*3 1 C 0 km/h
1243 12-04-2004 08:43:01 1.3 C 4.66 g/m*3 1.3 C 0 km/h
1244 12-04-2004 08:55:00 1.7 C 4.74 g/m*3 1.7 C 0 km/h
1245 12-04-2004 09:07:00 2 C 4.78 g/m*3 2 C 0 km/h
1246 12-04-2004 09:19:59 2.5 C 4.77 g/m*3 2.5 C 0 km/h
1247 12-04-2004 09:31:57 3 C 4.7 g/m*3 3 C 0 km/h
1248 12-04-2004 09:43:57 3.7 C 4.74 g/m*3 3.7 C 0 km/h
1249 12-04-2004 09:55:01 4.3 C 4.67 g/m*3 4.3 C 0 km/h
1250 12-04-2004 10:07:01 4.9 C 4.73 g/m*3 4.9 C 0 km/h
Sensor: Nr:Datum:Temp:Abs-Feuchte:Windchill:Wind:
Aussen-T/F 1251 12-04-2004 10:19:01 5.5 C 4.71 g/m*3 5.5 C 0 km/h
1252 12-04-2004 10:31:01 6.2 C 4.63 g/m*3 6.2 C 0 km/h
1253 12-04-2004 10:43:01 6.6 C 4.6 g/m*3 6.6 C 0 km/h
1254 12-04-2004 10:55:01 7 C 4.57 g/m*3 7 C 0 km/h
1255 12-04-2004 11:07:00 7.7 C 4.62 g/m*3 7.7 C 0 km/h
1256 12-04-2004 11:19:59 8.3 C 4.47 g/m*3 8.3 C 0 km/h
1257 12-04-2004 11:31:57 9 C 4.5 g/m*3 9 C 0 km/h
1258 12-04-2004 11:43:57 9.7 C 4.33 g/m*3 9.7 C 0 km/h
1259 12-04-2004 11:55:00 10 C 4.32 g/m*3 10 C 0 km/h
1260 12-04-2004 12:07:00 10.4 C 4.05 g/m*3 10.4 C 0 km/h
1261 12-04-2004 12:19:01 11 C 4 g/m*3 11 C 0 km/h
1262 12-04-2004 12:31:01 11.2 C 4.05 g/m*3 11.2 C 0 km/h
1263 12-04-2004 12:43:01 11.5 C 4.13 g/m*3 11.5 C 0 km/h
1264 12-04-2004 12:55:00 11.8 C 4.21 g/m*3 11.8 C 0 km/h
1265 12-04-2004 13:07:59 12.4 C 4.15 g/m*3 12.4 C 0 km/h
1266 12-04-2004 13:19:58 12.7 C 4.12 g/m*3 12.7 C 0 km/h
1267 12-04-2004 13:31:57 13.4 C 4.18 g/m*3 13.4 C 0 km/h
1268 12-04-2004 13:43:57 14 C 4.58 g/m*3 14 C 0 km/h
1269 12-04-2004 13:55:01 14.2 C 4.4 g/m*3 14.2 C 0 km/h
1270 12-04-2004 14:07:01 14.7 C 4.66 g/m*3 14.7 C 0 km/h
1271 12-04-2004 14:19:01 15.5 C 4.49 g/m*3 15.5 C 0 km/h
1272 12-04-2004 14:31:00 15.6 C 4.12 g/m*3 15.6 C 0 km/h
1273 12-04-2004 14:43:00 16.1 C 4.39 g/m*3 16.1 C 0 km/h
1274 12-04-2004 14:55:01 16.8 C 4.58 g/m*3 16.8 C 0 km/h
1275 12-04-2004 15:07:01 16.7 C 4.83 g/m*3 16.7 C 0 km/h
Sensor: Nr:Datum:Temp:Abs-Feuchte:Windchill:Wind:
Aussen-T/F 1276 12-04-2004 15:19:01 17.1 C 4.51 g/m*3 17.1 C 0 km/h
1277 12-04-2004 15:31:01 17.4 C 4.3 g/m*3 17.4 C 0 km/h
1278 12-04-2004 15:43:01 18.4 C 4.25 g/m*3 18.4 C 0 km/h
1279 12-04-2004 15:55:00 17.7 C 3.92 g/m*3 17.7 C 0 km/h
1280 12-04-2004 16:07:59 18.1 C 4.02 g/m*3 18.1 C 0 km/h
1281 12-04-2004 16:19:58 17.1 C 3.78 g/m*3 17.1 C 0 km/h
1282 12-04-2004 16:31:57 17.4 C 3.85 g/m*3 17.4 C 0 km/h
1283 12-04-2004 16:43:57 17.8 C 3.79 g/m*3 17.8 C 0 km/h
1284 12-04-2004 16:55:01 17.4 C 3.85 g/m*3 17.4 C 0 km/h
1285 12-04-2004 17:07:01 17.7 C 3.77 g/m*3 17.7 C 0 km/h
1286 12-04-2004 17:19:01 18.1 C 3.86 g/m*3 18.1 C 0 km/h
1287 12-04-2004 17:31:01 17.6 C 3.9 g/m*3 17.6 C 0 km/h
1288 12-04-2004 17:43:01 16.4 C 3.77 g/m*3 16.4 C 0 km/h
1289 12-04-2004 17:55:02 16.7 C 4.12 g/m*3 16.7 C 0 km/h
1290 12-04-2004 18:07:01 16.6 C 3.96 g/m*3 16.6 C 0 km/h
1291 12-04-2004 18:19:01 16.2 C 4.14 g/m*3 16.2 C 0 km/h
1292 12-04-2004 18:31:01 15.8 C 4.04 g/m*3 15.8 C 0 km/h
1293 12-04-2004 18:43:01 15.4 C 3.94 g/m*3 15.4 C 0 km/h
1294 12-04-2004 18:55:00 15.1 C 4 g/m*3 15.1 C 0 km/h
1295 12-04-2004 19:07:00 15.3 C 4.18 g/m*3 15.3 C 0 km/h
1296 12-04-2004 19:19:59 14.8 C 4.43 g/m*3 14.8 C 0 km/h
1297 12-04-2004 19:31:57 14.4 C 4.45 g/m*3 14.4 C 0 km/h
1298 12-04-2004 19:43:57 14 C 4.58 g/m*3 14 C 0 km/h
1299 12-04-2004 19:55:01 13.8 C 4.89 g/m*3 13.8 C 0 km/h
1300 12-04-2004 20:07:01 13.7 C 4.97 g/m*3 13.7 C 0 km/h
Sensor: Nr:Datum:Temp:Abs-Feuchte:Windchill:Wind:
Aussen-T/F 1301 12-04-2004 20:19:01 13.4 C 5 g/m*3 13.4 C 0 km/h
1302 12-04-2004 20:31:01 13.1 C 5.02 g/m*3 13.1 C 0 km/h
1303 12-04-2004 20:43:01 13 C 5.1 g/m*3 13 C 0 km/h
1304 12-04-2004 20:55:01 12.9 C 5.18 g/m*3 12.9 C 0 km/h
1305 12-04-2004 21:07:00 12.8 C 5.15 g/m*3 12.8 C 0 km/h
1306 12-04-2004 21:19:58 12.9 C 5.18 g/m*3 12.9 C 0 km/h
1307 12-04-2004 21:31:57 12.4 C 5.03 g/m*3 12.4 C 0 km/h
1308 12-04-2004 21:43:57 12.2 C 5.07 g/m*3 12.2 C 0 km/h
1309 12-04-2004 21:55:01 12.1 C 5.04 g/m*3 12.1 C 0 km/h
1310 12-04-2004 22:07:01 11.7 C 5.12 g/m*3 11.7 C 0 km/h
1311 12-04-2004 22:19:01 11.2 C 5.07 g/m*3 11.2 C 0 km/h
1312 12-04-2004 22:31:01 10.8 C 5.14 g/m*3 10.8 C 0 km/h
1313 12-04-2004 22:43:01 10.6 C 5.17 g/m*3 10.6 C 0 km/h
1314 12-04-2004 22:55:00 10.2 C 5.33 g/m*3 10.2 C 0 km/h
1315 12-04-2004 23:07:00 9.8 C 5.38 g/m*3 9.8 C 0 km/h
1316 12-04-2004 23:19:58 9.5 C 5.46 g/m*3 9.5 C 0 km/h
1317 12-04-2004 23:31:57 9.5 C 5.46 g/m*3 9.5 C 0 km/h
1318 12-04-2004 23:43:57 9.6 C 5.5 g/m*3 9.6 C 0 km/h
1319 12-04-2004 23:55:01 9.6 C 5.59 g/m*3 9.6 C 0 km/h
1320 13-04-2004 00:07:01 9.6 C 5.68 g/m*3 9.6 C 0 km/h
1321 13-04-2004 00:19:01 9.4 C 5.61 g/m*3 9.4 C 0 km/h
1322 13-04-2004 00:31:01 9 C 5.55 g/m*3 9 C 0 km/h
1323 13-04-2004 00:43:01 8.5 C 5.55 g/m*3 8.5 C 0 km/h
1324 13-04-2004 00:55:00 8.2 C 5.53 g/m*3 8.2 C 0 km/h
1325 13-04-2004 01:07:59 8 C 5.54 g/m*3 8 C 0 km/h
Sensor: Nr:Datum:Temp:Abs-Feuchte:Windchill:Wind:
Aussen-T/F 1326 13-04-2004 01:19:58 7.9 C 5.67 g/m*3 7.9 C 0 km/h
1327 13-04-2004 01:31:57 8.1 C 5.57 g/m*3 8.1 C 0 km/h
1328 13-04-2004 01:43:57 8.3 C 5.65 g/m*3 8.3 C 0 km/h
1329 13-04-2004 01:55:01 8.3 C 5.65 g/m*3 8.3 C 0 km/h
1330 13-04-2004 02:07:01 8.3 C 5.65 g/m*3 8.3 C 0 km/h
1331 13-04-2004 02:19:01 8.1 C 5.66 g/m*3 8.1 C 0 km/h
1332 13-04-2004 02:31:00 8 C 5.7 g/m*3 8 C 0 km/h
1333 13-04-2004 02:43:00 8 C 5.79 g/m*3 8 C 0 km/h
1334 13-04-2004 02:56:03 7.7 C 5.84 g/m*3 7.7 C 0 km/h
1335 13-04-2004 03:08:03 7.6 C 5.8 g/m*3 7.6 C 0 km/h
1336 13-04-2004 03:20:02 7.5 C 5.76 g/m*3 7.5 C 0 km/h
1337 13-04-2004 03:32:00 7.4 C 5.73 g/m*3 7.4 C 0 km/h
1338 13-04-2004 03:44:00 7.6 C 5.8 g/m*3 7.6 C 0 km/h
1339 13-04-2004 03:56:00 7.7 C 5.92 g/m*3 7.7 C 0 km/h
1340 13-04-2004 04:08:00 7.7 C 5.92 g/m*3 7.7 C 0 km/h
1341 13-04-2004 04:20:59 7.7 C 5.92 g/m*3 7.7 C 0 km/h
1342 13-04-2004 04:32:58 7.7 C 5.92 g/m*3 7.7 C 0 km/h
1343 13-04-2004 04:44:01 7.7 C 5.92 g/m*3 7.7 C 0 km/h
1344 13-04-2004 04:56:01 7.6 C 5.88 g/m*3 7.6 C 0 km/h
1345 13-04-2004 05:08:00 7.6 C 5.88 g/m*3 7.6 C 0 km/h
1346 13-04-2004 05:20:00 7.5 C 5.84 g/m*3 7.5 C 0 km/h
1347 13-04-2004 05:32:00 7.5 C 5.92 g/m*3 7.5 C 0 km/h
1348 13-04-2004 05:44:00 7.5 C 6 g/m*3 7.5 C 0 km/h
1349 13-04-2004 05:56:01 7.3 C 5.93 g/m*3 7.3 C 0 km/h
1350 13-04-2004 06:08:01 7.3 C 5.93 g/m*3 7.3 C 0 km/h
Sensor: Nr:Datum:Temp:Abs-Feuchte:Windchill:Wind:
Aussen-T/F 1351 13-04-2004 06:20:01 7.3 C 5.93 g/m*3 7.3 C 0 km/h
1352 13-04-2004 06:32:01 7.4 C 6.04 g/m*3 7.4 C 0 km/h
1353 13-04-2004 06:44:01 7.3 C 5.93 g/m*3 7.3 C 0 km/h
1354 13-04-2004 06:56:01 7.4 C 6.04 g/m*3 7.4 C 0 km/h
1355 13-04-2004 07:08:01 7.4 C 5.96 g/m*3 7.4 C 0 km/h
1356 13-04-2004 07:20:01 7.5 C 6 g/m*3 7.5 C 0 km/h
1357 13-04-2004 07:32:01 7.5 C 5.92 g/m*3 7.5 C 0 km/h
1358 13-04-2004 07:44:01 7.7 C 5.92 g/m*3 7.7 C 0 km/h
1359 13-04-2004 07:56:00 7.9 C 6 g/m*3 7.9 C 0 km/h
1360 13-04-2004 08:08:00 8.2 C 5.95 g/m*3 8.2 C 0 km/h
1361 13-04-2004 08:20:58 8.5 C 5.98 g/m*3 8.5 C 0 km/h
1362 13-04-2004 08:32:57 8.7 C 5.97 g/m*3 8.7 C 0 km/h
1363 13-04-2004 08:44:01 8.9 C 6.04 g/m*3 8.9 C 0 km/h
1364 13-04-2004 08:56:01 9.2 C 5.98 g/m*3 9.2 C 0 km/h
1365 13-04-2004 09:08:01 9.3 C 5.93 g/m*3 9.3 C 0 km/h
1366 13-04-2004 09:20:01 9.4 C 6.15 g/m*3 9.4 C 0 km/h
1367 13-04-2004 09:32:01 9.3 C 6.56 g/m*3 9.3 C 0 km/h
1368 13-04-2004 09:44:01 9.2 C 6.52 g/m*3 9.2 C 0 km/h
1369 13-04-2004 09:56:00 9.6 C 6.78 g/m*3 9.6 C 0 km/h
1370 13-04-2004 10:08:00 10.2 C 6.76 g/m*3 10.2 C 0 km/h
1371 13-04-2004 10:20:58 10.8 C 6.52 g/m*3 10.8 C 0 km/h
1372 13-04-2004 10:32:57 10.7 C 6.09 g/m*3 10.7 C 0 km/h
1373 13-04-2004 10:44:01 10.8 C 6.23 g/m*3 10.8 C 0 km/h
1374 13-04-2004 10:56:01 11.3 C 6.12 g/m*3 11.3 C 0 km/h
1375 13-04-2004 11:08:01 11.5 C 5.99 g/m*3 11.5 C 0 km/h
Sensor: Nr:Datum:Temp:Abs-Feuchte:Windchill:Wind:
Aussen-T/F 1376 13-04-2004 11:20:01 11.2 C 5.98 g/m*3 11.2 C 0 km/h
1377 13-04-2004 11:32:01 10 C 6.58 g/m*3 10 C 0 km/h
1378 13-04-2004 11:44:01 9.9 C 7.19 g/m*3 9.9 C 0 km/h
1379 13-04-2004 11:56:01 9.9 C 7 g/m*3 9.9 C 0 km/h
1380 13-04-2004 12:08:01 10.1 C 6.81 g/m*3 10.1 C 0 km/h
1381 13-04-2004 12:20:01 10.4 C 6.84 g/m*3 10.4 C 0 km/h
1382 13-04-2004 12:32:01 10.2 C 6.38 g/m*3 10.2 C 0 km/h
1383 13-04-2004 12:44:01 10.1 C 6.52 g/m*3 10.1 C 0 km/h
1384 13-04-2004 12:56:00 10.6 C 6.64 g/m*3 10.6 C 0 km/h
1385 13-04-2004 13:08:00 10.7 C 6.38 g/m*3 10.7 C 0 km/h
1386 13-04-2004 13:20:59 11.1 C 6.45 g/m*3 11.1 C 0 km/h
1387 13-04-2004 13:32:57 12.2 C 5.94 g/m*3 12.2 C 0 km/h
1388 13-04-2004 13:44:01 12.7 C 6.01 g/m*3 12.7 C 0 km/h
1389 13-04-2004 13:56:01 13.5 C 5.73 g/m*3 13.5 C 0 km/h
1390 13-04-2004 14:08:01 13.5 C 5.61 g/m*3 13.5 C 0 km/h
1391 13-04-2004 14:20:01 13 C 5.78 g/m*3 13 C 0 km/h
1392 13-04-2004 14:32:01 12.2 C 5.83 g/m*3 12.2 C 0 km/h
1393 13-04-2004 14:44:01 11 C 6.21 g/m*3 11 C 0 km/h
1394 13-04-2004 14:56:00 11.9 C 6.78 g/m*3 11.9 C 0 km/h
1395 13-04-2004 15:08:00 12.2 C 6.04 g/m*3 12.2 C 0 km/h
1396 13-04-2004 15:20:58 12.5 C 6.16 g/m*3 12.5 C 0 km/h
1397 13-04-2004 15:32:58 12.5 C 6.05 g/m*3 12.5 C 0 km/h
1398 13-04-2004 15:44:01 13.3 C 5.89 g/m*3 13.3 C 0 km/h
1399 13-04-2004 15:56:01 13.5 C 5.61 g/m*3 13.5 C 0 km/h
1400 13-04-2004 16:08:01 13.7 C 5.45 g/m*3 13.7 C 0 km/h
Sensor: Nr:Datum:Temp:Abs-Feuchte:Windchill:Wind:
Aussen-T/F 1401 13-04-2004 16:20:01 14.2 C 5.49 g/m*3 14.2 C 0 km/h
1402 13-04-2004 16:32:01 14.1 C 5.46 g/m*3 14.1 C 0 km/h
1403 13-04-2004 16:44:01 13.4 C 5.58 g/m*3 13.4 C 0 km/h
1404 13-04-2004 16:56:01 13.3 C 5.55 g/m*3 13.3 C 0 km/h
1405 13-04-2004 17:08:02 13.1 C 5.48 g/m*3 13.1 C 0 km/h
1406 13-04-2004 17:20:01 13 C 5.67 g/m*3 13 C 0 km/h
1407 13-04-2004 17:32:02 13.1 C 5.48 g/m*3 13.1 C 0 km/h
1408 13-04-2004 17:44:02 13.4 C 5.58 g/m*3 13.4 C 0 km/h
1409 13-04-2004 17:56:01 13.4 C 5.35 g/m*3 13.4 C 0 km/h
1410 13-04-2004 18:08:00 13.4 C 5.23 g/m*3 13.4 C 0 km/h
1411 13-04-2004 18:20:58 13.3 C 4.85 g/m*3 13.3 C 0 km/h
1412 13-04-2004 18:32:57 13.2 C 4.94 g/m*3 13.2 C 0 km/h
1413 13-04-2004 18:44:01 13.1 C 5.25 g/m*3 13.1 C 0 km/h
1414 13-04-2004 18:56:02 13.1 C 5.14 g/m*3 13.1 C 0 km/h
1415 13-04-2004 19:08:01 13 C 5.1 g/m*3 13 C 0 km/h
1416 13-04-2004 19:20:01 12.7 C 5.12 g/m*3 12.7 C 0 km/h
1417 13-04-2004 19:32:01 12.5 C 5.06 g/m*3 12.5 C 0 km/h
1418 13-04-2004 19:44:01 12.4 C 5.24 g/m*3 12.4 C 0 km/h
1419 13-04-2004 19:56:02 12 C 5.01 g/m*3 12 C 0 km/h
1420 13-04-2004 20:08:01 11.8 C 5.47 g/m*3 11.8 C 0 km/h
1421 13-04-2004 20:20:01 11.5 C 5.68 g/m*3 11.5 C 0 km/h
1422 13-04-2004 20:32:01 11.2 C 5.47 g/m*3 11.2 C 0 km/h
1423 13-04-2004 20:44:01 10.9 C 5.67 g/m*3 10.9 C 0 km/h
1424 13-04-2004 20:56:00 10.7 C 5.6 g/m*3 10.7 C 0 km/h
1425 13-04-2004 21:08:00 10.5 C 5.63 g/m*3 10.5 C 0 km/h
Sensor: Nr:Datum:Temp:Abs-Feuchte:Windchill:Wind:
Aussen-T/F 1426 13-04-2004 21:20:59 10.4 C 5.78 g/m*3 10.4 C 0 km/h
1427 13-04-2004 21:32:00 10.4 C 5.78 g/m*3 10.4 C 0 km/h
1428 13-04-2004 21:44:00 10.2 C 5.61 g/m*3 10.2 C 0 km/h
1429 13-04-2004 21:56:01 10.1 C 5.77 g/m*3 10.1 C 0 km/h
1430 13-04-2004 22:08:02 10 C 5.45 g/m*3 10 C 0 km/h
1431 13-04-2004 22:20:02 10 C 5.64 g/m*3 10 C 0 km/h
1432 13-04-2004 22:32:01 10 C 5.64 g/m*3 10 C 0 km/h
1433 13-04-2004 22:44:01 9.9 C 5.7 g/m*3 9.9 C 0 km/h
1434 13-04-2004 22:56:01 9.7 C 5.62 g/m*3 9.7 C 0 km/h
1435 13-04-2004 23:08:01 9.7 C 5.62 g/m*3 9.7 C 0 km/h
1436 13-04-2004 23:20:01 9.7 C 5.62 g/m*3 9.7 C 0 km/h
1437 13-04-2004 23:32:00 9.8 C 5.75 g/m*3 9.8 C 0 km/h
1438 13-04-2004 23:44:00 9.7 C 5.81 g/m*3 9.7 C 0 km/h
1439 13-04-2004 23:56:01 9.6 C 5.68 g/m*3 9.6 C 0 km/h
1440 14-04-2004 00:08:01 9.6 C 5.77 g/m*3 9.6 C 0 km/h
1441 14-04-2004 00:20:01 9.6 C 5.86 g/m*3 9.6 C 0 km/h
1442 14-04-2004 00:32:01 9.6 C 5.95 g/m*3 9.6 C 0 km/h
1443 14-04-2004 00:44:01 9.5 C 5.92 g/m*3 9.5 C 0 km/h
1444 14-04-2004 00:56:00 9.4 C 5.88 g/m*3 9.4 C 0 km/h
1445 14-04-2004 01:08:00 9.3 C 5.93 g/m*3 9.3 C 0 km/h
1446 14-04-2004 01:20:58 9.3 C 5.93 g/m*3 9.3 C 0 km/h
1447 14-04-2004 01:32:57 9.2 C 5.89 g/m*3 9.2 C 0 km/h
1448 14-04-2004 01:44:01 9.2 C 5.89 g/m*3 9.2 C 0 km/h
1449 14-04-2004 01:56:01 9.1 C 5.86 g/m*3 9.1 C 0 km/h
1450 14-04-2004 02:08:01 9 C 5.82 g/m*3 9 C 0 km/h
Sensor: Nr:Datum:Temp:Abs-Feuchte:Windchill:Wind:
Aussen-T/F 1451 14-04-2004 02:20:01 9 C 5.82 g/m*3 9 C 0 km/h
1452 14-04-2004 02:32:01 8.9 C 5.96 g/m*3 8.9 C 0 km/h
1453 14-04-2004 02:44:01 8.8 C 6.01 g/m*3 8.8 C 0 km/h
1454 14-04-2004 02:57:00 8.7 C 5.97 g/m*3 8.7 C 0 km/h
1455 14-04-2004 03:09:00 8.7 C 5.97 g/m*3 8.7 C 0 km/h
1456 14-04-2004 03:21:59 8.6 C 6.02 g/m*3 8.6 C 0 km/h
1457 14-04-2004 03:33:01 8.5 C 5.89 g/m*3 8.5 C 0 km/h
1458 14-04-2004 03:45:01 8.5 C 5.98 g/m*3 8.5 C 0 km/h
1459 14-04-2004 03:57:01 8.3 C 5.9 g/m*3 8.3 C 0 km/h
1460 14-04-2004 04:09:01 8.3 C 5.9 g/m*3 8.3 C 0 km/h
1461 14-04-2004 04:21:01 8.2 C 5.95 g/m*3 8.2 C 0 km/h
1462 14-04-2004 04:33:01 8.1 C 5.91 g/m*3 8.1 C 0 km/h
1463 14-04-2004 04:45:01 7.9 C 5.83 g/m*3 7.9 C 0 km/h
1464 14-04-2004 04:57:01 7.9 C 5.91 g/m*3 7.9 C 0 km/h
1465 14-04-2004 05:09:01 7.3 C 5.77 g/m*3 7.3 C 0 km/h
1466 14-04-2004 05:21:01 7 C 5.66 g/m*3 7 C 0 km/h
1467 14-04-2004 05:33:01 6.6 C 5.59 g/m*3 6.6 C 0 km/h
1468 14-04-2004 05:45:00 6.3 C 5.48 g/m*3 6.3 C 0 km/h
1469 14-04-2004 05:57:00 6.1 C 5.48 g/m*3 6.1 C 0 km/h
1470 14-04-2004 06:09:00 5.9 C 5.55 g/m*3 5.9 C 0 km/h
1471 14-04-2004 06:21:58 5.6 C 5.44 g/m*3 5.6 C 0 km/h
1472 14-04-2004 06:33:57 5.6 C 5.44 g/m*3 5.6 C 0 km/h
1473 14-04-2004 06:45:01 5.3 C 5.41 g/m*3 5.3 C 0 km/h
1474 14-04-2004 06:57:01 5.2 C 5.44 g/m*3 5.2 C 0 km/h
1475 14-04-2004 07:09:01 5.2 C 5.44 g/m*3 5.2 C 0 km/h
Sensor: Nr:Datum:Temp:Abs-Feuchte:Windchill:Wind:
Aussen-T/F 1476 14-04-2004 07:21:01 5.2 C 5.51 g/m*3 5.2 C 0 km/h
1477 14-04-2004 07:33:01 5 C 5.37 g/m*3 5 C 0 km/h
1478 14-04-2004 07:45:00 5.1 C 5.47 g/m*3 5.1 C 0 km/h
1479 14-04-2004 07:57:00 5.3 C 5.61 g/m*3 5.3 C 0 km/h
1480 14-04-2004 08:09:00 5.5 C 5.69 g/m*3 5.5 C 0 km/h
1481 14-04-2004 08:21:58 5.9 C 5.77 g/m*3 5.9 C 0 km/h
1482 14-04-2004 08:33:58 6 C 5.73 g/m*3 6 C 0 km/h
1483 14-04-2004 08:45:01 6.5 C 5.85 g/m*3 6.5 C 0 km/h
1484 14-04-2004 08:57:01 7 C 5.81 g/m*3 7 C 0 km/h
1485 14-04-2004 09:09:01 7.4 C 5.73 g/m*3 7.4 C 0 km/h
1486 14-04-2004 09:21:01 7.9 C 5.83 g/m*3 7.9 C 0 km/h
1487 14-04-2004 09:33:01 8.4 C 5.77 g/m*3 8.4 C 0 km/h
1488 14-04-2004 09:45:00 8.8 C 5.83 g/m*3 8.8 C 0 km/h
1489 14-04-2004 09:57:00 9.3 C 5.93 g/m*3 9.3 C 0 km/h
1490 14-04-2004 10:09:59 9.8 C 6.03 g/m*3 9.8 C 0 km/h
1491 14-04-2004 10:21:58 10.6 C 5.95 g/m*3 10.6 C 0 km/h
1492 14-04-2004 10:33:57 11 C 5.81 g/m*3 11 C 0 km/h
1493 14-04-2004 10:45:01 11.7 C 5.75 g/m*3 11.7 C 0 km/h
1494 14-04-2004 10:57:01 12.6 C 5.31 g/m*3 12.6 C 0 km/h
1495 14-04-2004 11:09:01 13.5 C 5.26 g/m*3 13.5 C 0 km/h
1496 14-04-2004 11:21:01 13.4 C 5.11 g/m*3 13.4 C 0 km/h
1497 14-04-2004 11:33:01 13.3 C 4.85 g/m*3 13.3 C 0 km/h
1498 14-04-2004 11:45:01 13.4 C 4.88 g/m*3 13.4 C 0 km/h
1499 14-04-2004 11:57:01 13.4 C 4.77 g/m*3 13.4 C 0 km/h
1500 14-04-2004 12:09:01 13.8 C 4.77 g/m*3 13.8 C 0 km/h
Sensor: Nr:Datum:Temp:Abs-Feuchte:Windchill:Wind:
Aussen-T/F 1501 14-04-2004 12:21:01 14.2 C 5.01 g/m*3 14.2 C 0 km/h
1502 14-04-2004 12:33:01 14.5 C 4.35 g/m*3 14.5 C 0 km/h
1503 14-04-2004 12:45:00 14.4 C 4.45 g/m*3 14.4 C 0 km/h
1504 14-04-2004 12:57:00 14.6 C 4.5 g/m*3 14.6 C 0 km/h
1505 14-04-2004 13:09:00 15.3 C 4.7 g/m*3 15.3 C 0 km/h
1506 14-04-2004 13:21:58 15.6 C 4.52 g/m*3 15.6 C 0 km/h
1507 14-04-2004 13:33:57 15.4 C 4.6 g/m*3 15.4 C 0 km/h
1508 14-04-2004 13:45:01 15.7 C 4.55 g/m*3 15.7 C 0 km/h
1509 14-04-2004 13:57:01 15.5 C 4.1 g/m*3 15.5 C 0 km/h
1510 14-04-2004 14:09:01 16.1 C 4.39 g/m*3 16.1 C 0 km/h
1511 14-04-2004 14:21:01 16.2 C 4.27 g/m*3 16.2 C 0 km/h
1512 14-04-2004 14:33:01 16.5 C 4.63 g/m*3 16.5 C 0 km/h
1513 14-04-2004 14:45:01 17.4 C 4.45 g/m*3 17.4 C 0 km/h
1514 14-04-2004 14:57:01 18 C 3.99 g/m*3 18 C 0 km/h
1515 14-04-2004 15:09:59 17.9 C 4.12 g/m*3 17.9 C 0 km/h
1516 14-04-2004 15:21:58 19.1 C 4.26 g/m*3 19.1 C 0 km/h
1517 14-04-2004 15:33:57 19 C 3.91 g/m*3 19 C 0 km/h
1518 14-04-2004 15:45:01 19.5 C 3.86 g/m*3 19.5 C 0 km/h
1519 14-04-2004 15:57:02 19.7 C 3.74 g/m*3 19.7 C 0 km/h
1520 14-04-2004 16:09:01 19.2 C 3.96 g/m*3 19.2 C 0 km/h
1521 14-04-2004 16:21:01 18.8 C 4.03 g/m*3 18.8 C 0 km/h
1522 14-04-2004 16:33:00 19.4 C 3.67 g/m*3 19.4 C 0 km/h
1523 14-04-2004 16:45:01 19.1 C 3.28 g/m*3 19.1 C 0 km/h
1524 14-04-2004 16:57:01 19.5 C 4.03 g/m*3 19.5 C 0 km/h
1525 14-04-2004 17:09:01 19.5 C 3.69 g/m*3 19.5 C 0 km/h
Sensor: Nr:Datum:Temp:Abs-Feuchte:Windchill:Wind:
Aussen-T/F 1526 14-04-2004 17:21:01 20.5 C 3.91 g/m*3 20.5 C 0 km/h
1527 14-04-2004 17:33:01 21.1 C 3.87 g/m*3 21.1 C 0 km/h
1528 14-04-2004 17:45:00 20.5 C 3.56 g/m*3 20.5 C 0 km/h
1529 14-04-2004 17:57:00 20.1 C 3.65 g/m*3 20.1 C 0 km/h
1530 14-04-2004 18:09:00 20.3 C 3.69 g/m*3 20.3 C 0 km/h
1531 14-04-2004 18:21:58 20.1 C 3.82 g/m*3 20.1 C 0 km/h
1532 14-04-2004 18:33:57 20.2 C 4.02 g/m*3 20.2 C 0 km/h
1533 14-04-2004 18:45:01 19.9 C 4.12 g/m*3 19.9 C 0 km/h
1534 14-04-2004 18:57:01 19.3 C 3.81 g/m*3 19.3 C 0 km/h
1535 14-04-2004 19:09:01 18.8 C 4.03 g/m*3 18.8 C 0 km/h
1536 14-04-2004 19:21:01 18.4 C 3.93 g/m*3 18.4 C 0 km/h
1537 14-04-2004 19:33:01 17.8 C 4.1 g/m*3 17.8 C 0 km/h
1538 14-04-2004 19:45:01 17.3 C 4.12 g/m*3 17.3 C 0 km/h
1539 14-04-2004 19:57:01 16.5 C 4.35 g/m*3 16.5 C 0 km/h
1540 14-04-2004 20:09:02 15.6 C 4.39 g/m*3 15.6 C 0 km/h
1541 14-04-2004 20:21:01 14.5 C 4.48 g/m*3 14.5 C 0 km/h
1542 14-04-2004 20:33:01 13.6 C 4.59 g/m*3 13.6 C 0 km/h
1543 14-04-2004 20:45:00 13 C 4.65 g/m*3 13 C 0 km/h
1544 14-04-2004 20:57:00 12.6 C 4.65 g/m*3 12.6 C 0 km/h
1545 14-04-2004 21:09:00 12.2 C 4.64 g/m*3 12.2 C 0 km/h
1546 14-04-2004 21:21:59 11.8 C 4.84 g/m*3 11.8 C 0 km/h
1547 14-04-2004 21:33:58 11.6 C 4.78 g/m*3 11.6 C 0 km/h
1548 14-04-2004 21:45:01 11.3 C 4.79 g/m*3 11.3 C 0 km/h
1549 14-04-2004 21:57:01 11 C 4.9 g/m*3 11 C 0 km/h
1550 14-04-2004 22:09:01 10.7 C 4.81 g/m*3 10.7 C 0 km/h
Sensor: Nr:Datum:Temp:Abs-Feuchte:Windchill:Wind:
Aussen-T/F 1551 14-04-2004 22:21:01 10.5 C 4.85 g/m*3 10.5 C 0 km/h
1552 14-04-2004 22:33:01 10.2 C 4.95 g/m*3 10.2 C 0 km/h
1553 14-04-2004 22:45:00 9.8 C 4.92 g/m*3 9.8 C 0 km/h
1554 14-04-2004 22:57:00 9.5 C 4.82 g/m*3 9.5 C 0 km/h
1555 14-04-2004 23:09:00 8.9 C 4.91 g/m*3 8.9 C 0 km/h
1556 14-04-2004 23:21:58 8.5 C 4.87 g/m*3 8.5 C 0 km/h
1557 14-04-2004 23:33:57 8.4 C 4.92 g/m*3 8.4 C 0 km/h
1558 14-04-2004 23:45:01 8.4 C 4.92 g/m*3 8.4 C 0 km/h
1559 14-04-2004 23:57:02 8.3 C 4.89 g/m*3 8.3 C 0 km/h
1560 15-04-2004 00:09:01 8.1 C 4.91 g/m*3 8.1 C 0 km/h
1561 15-04-2004 00:21:01 7.8 C 4.9 g/m*3 7.8 C 0 km/h
1562 15-04-2004 00:33:01 7.6 C 4.91 g/m*3 7.6 C 0 km/h
1563 15-04-2004 00:45:00 7.3 C 4.82 g/m*3 7.3 C 0 km/h
1564 15-04-2004 00:57:00 7.1 C 4.84 g/m*3 7.1 C 0 km/h
1565 15-04-2004 01:09:59 6.8 C 4.89 g/m*3 6.8 C 0 km/h
1566 15-04-2004 01:21:58 6.5 C 4.87 g/m*3 6.5 C 0 km/h
1567 15-04-2004 01:33:57 6.3 C 4.81 g/m*3 6.3 C 0 km/h
1568 15-04-2004 01:45:01 6.1 C 4.82 g/m*3 6.1 C 0 km/h
1569 15-04-2004 01:57:01 6 C 4.86 g/m*3 6 C 0 km/h
1570 15-04-2004 02:09:01 5.8 C 4.8 g/m*3 5.8 C 0 km/h
1571 15-04-2004 02:21:01 5.7 C 4.84 g/m*3 5.7 C 0 km/h
1572 15-04-2004 02:33:01 5.4 C 4.81 g/m*3 5.4 C 0 km/h
1573 15-04-2004 02:46:03 5.2 C 4.82 g/m*3 5.2 C 0 km/h
1574 15-04-2004 02:58:04 5.1 C 4.79 g/m*3 5.1 C 0 km/h
1575 15-04-2004 03:10:03 4.9 C 4.79 g/m*3 4.9 C 0 km/h
Sensor: Nr:Datum:Temp:Abs-Feuchte:Windchill:Wind:
Aussen-T/F 1576 15-04-2004 03:22:03 4.7 C 4.8 g/m*3 4.7 C 0 km/h
1577 15-04-2004 03:34:00 4.4 C 4.9 g/m*3 4.4 C 0 km/h
1578 15-04-2004 03:46:00 4.2 C 4.83 g/m*3 4.2 C 0 km/h
1579 15-04-2004 03:58:00 4.1 C 4.8 g/m*3 4.1 C 0 km/h
1580 15-04-2004 04:10:00 4 C 4.83 g/m*3 4 C 0 km/h
1581 15-04-2004 04:22:59 3.8 C 4.83 g/m*3 3.8 C 0 km/h
1582 15-04-2004 04:34:58 3.7 C 4.8 g/m*3 3.7 C 0 km/h
1583 15-04-2004 04:46:01 3.6 C 4.77 g/m*3 3.6 C 0 km/h
1584 15-04-2004 04:58:01 3.5 C 4.8 g/m*3 3.5 C 0 km/h
1585 15-04-2004 05:10:01 3.3 C 4.73 g/m*3 3.3 C 0 km/h
1586 15-04-2004 05:22:00 3.2 C 4.7 g/m*3 3.2 C 0 km/h
1587 15-04-2004 05:34:00 3.1 C 4.67 g/m*3 3.1 C 0 km/h
1588 15-04-2004 05:46:01 3 C 4.7 g/m*3 3 C 0 km/h
1589 15-04-2004 05:58:01 2.7 C 4.72 g/m*3 2.7 C 0 km/h
1590 15-04-2004 06:10:01 2.6 C 4.69 g/m*3 2.6 C 0 km/h
1591 15-04-2004 06:22:01 2.6 C 4.69 g/m*3 2.6 C 0 km/h
1592 15-04-2004 06:34:01 2.5 C 4.66 g/m*3 2.5 C 0 km/h
1593 15-04-2004 06:46:01 2.4 C 4.62 g/m*3 2.4 C 0 km/h
1594 15-04-2004 06:58:01 2.3 C 4.65 g/m*3 2.3 C 0 km/h
1595 15-04-2004 07:10:02 2.3 C 4.65 g/m*3 2.3 C 0 km/h
1596 15-04-2004 07:22:02 2.4 C 4.68 g/m*3 2.4 C 0 km/h
1597 15-04-2004 07:34:01 2.5 C 4.77 g/m*3 2.5 C 0 km/h
1598 15-04-2004 07:46:00 2.6 C 4.75 g/m*3 2.6 C 0 km/h
1599 15-04-2004 07:58:00 2.7 C 4.78 g/m*3 2.7 C 0 km/h
1600 15-04-2004 08:10:00 2.8 C 4.87 g/m*3 2.8 C 0 km/h
Sensor: Nr:Datum:Temp:Abs-Feuchte:Windchill:Wind:
Aussen-T/F 1601 15-04-2004 08:22:59 3 C 4.88 g/m*3 3 C 0 km/h
1602 15-04-2004 08:34:58 3.2 C 4.94 g/m*3 3.2 C 0 km/h
1603 15-04-2004 08:46:01 3.6 C 5.01 g/m*3 3.6 C 0 km/h
1604 15-04-2004 08:58:01 3.8 C 5.02 g/m*3 3.8 C 0 km/h
1605 15-04-2004 09:10:01 4.3 C 5.12 g/m*3 4.3 C 0 km/h
1606 15-04-2004 09:22:01 4.8 C 5.1 g/m*3 4.8 C 0 km/h
1607 15-04-2004 09:34:00 5.4 C 5.02 g/m*3 5.4 C 0 km/h
1608 15-04-2004 09:46:01 5.6 C 5.02 g/m*3 5.6 C 0 km/h
1609 15-04-2004 09:58:01 6.6 C 5.06 g/m*3 6.6 C 0 km/h
1610 15-04-2004 10:10:01 7.4 C 5.25 g/m*3 7.4 C 0 km/h
1611 15-04-2004 10:22:01 8.4 C 5.26 g/m*3 8.4 C 0 km/h
1612 15-04-2004 10:34:01 9.4 C 5.34 g/m*3 9.4 C 0 km/h
1613 15-04-2004 10:46:01 10.4 C 5.4 g/m*3 10.4 C 0 km/h
1614 15-04-2004 10:58:01 10.8 C 5.14 g/m*3 10.8 C 0 km/h
1615 15-04-2004 11:10:02 11.6 C 5.4 g/m*3 11.6 C 0 km/h
1616 15-04-2004 11:22:02 12.1 C 5.36 g/m*3 12.1 C 0 km/h
1617 15-04-2004 11:34:02 12.9 C 5.64 g/m*3 12.9 C 0 km/h
1618 15-04-2004 11:46:01 13.2 C 5.4 g/m*3 13.2 C 0 km/h
1619 15-04-2004 11:58:01 13.9 C 5.51 g/m*3 13.9 C 0 km/h
1620 15-04-2004 12:10:01 14.5 C 4.85 g/m*3 14.5 C 0 km/h
1621 15-04-2004 12:22:01 15 C 4.62 g/m*3 15 C 0 km/h
1622 15-04-2004 12:34:01 15.6 C 4.79 g/m*3 15.6 C 0 km/h
1623 15-04-2004 12:46:01 15.8 C 4.31 g/m*3 15.8 C 0 km/h
1624 15-04-2004 12:58:02 16.2 C 4.27 g/m*3 16.2 C 0 km/h
1625 15-04-2004 13:10:01 16.3 C 3.88 g/m*3 16.3 C 0 km/h
Sensor: Nr:Datum:Temp:Abs-Feuchte:Windchill:Wind:
Aussen-T/F 1626 15-04-2004 13:22:01 16.9 C 4.6 g/m*3 16.9 C 0 km/h
1627 15-04-2004 13:34:01 18.2 C 4.51 g/m*3 18.2 C 0 km/h
1628 15-04-2004 13:46:00 18.8 C 4.35 g/m*3 18.8 C 0 km/h
1629 15-04-2004 13:58:00 19.3 C 4.15 g/m*3 19.3 C 0 km/h
1630 15-04-2004 14:10:00 18.2 C 3.89 g/m*3 18.2 C 0 km/h
1631 15-04-2004 14:22:59 18.3 C 4.07 g/m*3 18.3 C 0 km/h
1632 15-04-2004 14:34:57 18.7 C 4.16 g/m*3 18.7 C 0 km/h
1633 15-04-2004 14:46:01 19 C 4.07 g/m*3 19 C 0 km/h
1634 15-04-2004 14:58:01 19.6 C 4.05 g/m*3 19.6 C 0 km/h
1635 15-04-2004 15:10:01 20.8 C 3.98 g/m*3 20.8 C 0 km/h
1636 15-04-2004 15:22:01 20.4 C 3.71 g/m*3 20.4 C 0 km/h
1637 15-04-2004 15:34:01 20.5 C 3.74 g/m*3 20.5 C 0 km/h
1638 15-04-2004 15:46:00 22 C 4.08 g/m*3 22 C 0 km/h
1639 15-04-2004 15:58:00 22.2 C 3.93 g/m*3 22.2 C 0 km/h
1640 15-04-2004 16:10:00 22.3 C 3.95 g/m*3 22.3 C 0 km/h
1641 15-04-2004 16:22:58 23 C 4.11 g/m*3 23 C 0 km/h
1642 15-04-2004 16:34:57 23.2 C 4.16 g/m*3 23.2 C 0 km/h
1643 15-04-2004 16:46:01 22.9 C 4.09 g/m*3 22.9 C 0 km/h
1644 15-04-2004 16:58:01 22.6 C 4.02 g/m*3 22.6 C 0 km/h
1645 15-04-2004 17:10:01 22.8 C 4.06 g/m*3 22.8 C 0 km/h
1646 15-04-2004 17:22:01 22.5 C 3.99 g/m*3 22.5 C 0 km/h
1647 15-04-2004 17:34:01 22 C 3.88 g/m*3 22 C 0 km/h
1648 15-04-2004 17:46:01 21.5 C 3.77 g/m*3 21.5 C 0 km/h
1649 15-04-2004 17:58:01 22 C 3.88 g/m*3 22 C 0 km/h
1650 15-04-2004 18:10:59 21 C 3.66 g/m*3 21 C 0 km/h
Sensor: Nr:Datum:Temp:Abs-Feuchte:Windchill:Wind:
Aussen-T/F 1651 15-04-2004 18:22:58 21 C 3.66 g/m*3 21 C 0 km/h
1652 15-04-2004 18:34:58 20.9 C 3.82 g/m*3 20.9 C 0 km/h
1653 15-04-2004 18:46:02 20.8 C 3.8 g/m*3 20.8 C 0 km/h
1654 15-04-2004 18:58:02 20.1 C 3.82 g/m*3 20.1 C 0 km/h
1655 15-04-2004 19:10:01 19.5 C 4.2 g/m*3 19.5 C 0 km/h
1656 15-04-2004 19:22:01 19.4 C 4.5 g/m*3 19.4 C 0 km/h
1657 15-04-2004 19:34:01 18.9 C 4.54 g/m*3 18.9 C 0 km/h
1658 15-04-2004 19:46:01 18.6 C 4.93 g/m*3 18.6 C 0 km/h
1659 15-04-2004 19:58:01 18.2 C 4.97 g/m*3 18.2 C 0 km/h
1660 15-04-2004 20:09:59 17.3 C 5.01 g/m*3 17.3 C 0 km/h
1661 15-04-2004 20:22:58 16.7 C 4.97 g/m*3 16.7 C 0 km/h
1662 15-04-2004 20:34:57 15.9 C 4.88 g/m*3 15.9 C 0 km/h
1663 15-04-2004 20:46:01 15.2 C 4.67 g/m*3 15.2 C 0 km/h
1664 15-04-2004 20:58:01 14.8 C 4.81 g/m*3 14.8 C 0 km/h
1665 15-04-2004 21:10:01 14.3 C 5.04 g/m*3 14.3 C 0 km/h
1666 15-04-2004 21:22:01 14.1 C 4.98 g/m*3 14.1 C 0 km/h
1667 15-04-2004 21:34:01 13.9 C 5.27 g/m*3 13.9 C 0 km/h
1668 15-04-2004 21:46:00 13.7 C 5.21 g/m*3 13.7 C 0 km/h
1669 15-04-2004 21:58:00 13.4 C 5.11 g/m*3 13.4 C 0 km/h
1670 15-04-2004 22:10:00 13 C 4.99 g/m*3 13 C 0 km/h
1671 15-04-2004 22:22:58 12.7 C 5.12 g/m*3 12.7 C 0 km/h
1672 15-04-2004 22:34:57 12.5 C 5.17 g/m*3 12.5 C 0 km/h
1673 15-04-2004 22:46:01 12.3 C 5.32 g/m*3 12.3 C 0 km/h
1674 15-04-2004 22:58:01 11.8 C 5.58 g/m*3 11.8 C 0 km/h
1675 15-04-2004 23:10:01 11.5 C 5.58 g/m*3 11.5 C 0 km/h
Sensor: Nr:Datum:Temp:Abs-Feuchte:Windchill:Wind:
Aussen-T/F 1676 15-04-2004 23:22:01 11.2 C 5.57 g/m*3 11.2 C 0 km/h
1677 15-04-2004 23:34:01 11.1 C 5.54 g/m*3 11.1 C 0 km/h
1678 15-04-2004 23:46:01 10.5 C 5.63 g/m*3 10.5 C 0 km/h
1679 15-04-2004 23:58:01 10.5 C 5.43 g/m*3 10.5 C 0 km/h
1680 16-04-2004 00:10:01 10.4 C 5.49 g/m*3 10.4 C 0 km/h
1681 16-04-2004 00:22:02 10.3 C 5.36 g/m*3 10.3 C 0 km/h
1682 16-04-2004 00:34:01 9.7 C 5.44 g/m*3 9.7 C 0 km/h
1683 16-04-2004 00:46:01 9.5 C 5.55 g/m*3 9.5 C 0 km/h
1684 16-04-2004 00:58:01 9.3 C 5.48 g/m*3 9.3 C 0 km/h
1685 16-04-2004 01:10:00 9.1 C 5.41 g/m*3 9.1 C 0 km/h
1686 16-04-2004 01:22:59 9 C 5.47 g/m*3 9 C 0 km/h
1687 16-04-2004 01:34:57 8.9 C 5.43 g/m*3 8.9 C 0 km/h
1688 16-04-2004 01:46:01 8.7 C 5.45 g/m*3 8.7 C 0 km/h
1689 16-04-2004 01:58:01 8.6 C 5.41 g/m*3 8.6 C 0 km/h
1690 16-04-2004 02:10:01 8.4 C 5.43 g/m*3 8.4 C 0 km/h
1691 16-04-2004 02:22:01 8 C 5.37 g/m*3 8 C 0 km/h
1692 16-04-2004 02:34:01 7.8 C 5.55 g/m*3 7.8 C 0 km/h
1693 16-04-2004 02:47:01 7.8 C 5.55 g/m*3 7.8 C 0 km/h
1694 16-04-2004 02:59:01 7.5 C 5.52 g/m*3 7.5 C 0 km/h
1695 16-04-2004 03:11:00 7.3 C 5.61 g/m*3 7.3 C 0 km/h
1696 16-04-2004 03:23:01 7.1 C 5.46 g/m*3 7.1 C 0 km/h
1697 16-04-2004 03:35:01 7 C 5.42 g/m*3 7 C 0 km/h
1698 16-04-2004 03:47:01 6.9 C 5.54 g/m*3 6.9 C 0 km/h
1699 16-04-2004 03:59:01 6.8 C 5.51 g/m*3 6.8 C 0 km/h
1700 16-04-2004 04:11:01 6.6 C 5.51 g/m*3 6.6 C 0 km/h
Sensor: Nr:Datum:Temp:Abs-Feuchte:Windchill:Wind:
Aussen-T/F 1701 16-04-2004 04:23:01 6.4 C 5.44 g/m*3 6.4 C 0 km/h
1702 16-04-2004 04:35:01 6.2 C 5.52 g/m*3 6.2 C 0 km/h
1703 16-04-2004 04:47:00 5.9 C 5.62 g/m*3 5.9 C 0 km/h
1704 16-04-2004 04:59:00 5.8 C 5.52 g/m*3 5.8 C 0 km/h
1705 16-04-2004 05:11:00 5.8 C 5.52 g/m*3 5.8 C 0 km/h
1706 16-04-2004 05:23:59 5.7 C 5.48 g/m*3 5.7 C 0 km/h
1707 16-04-2004 05:35:57 5.5 C 5.41 g/m*3 5.5 C 0 km/h
1708 16-04-2004 05:47:01 5.4 C 5.37 g/m*3 5.4 C 0 km/h
1709 16-04-2004 05:59:02 5.1 C 5.4 g/m*3 5.1 C 0 km/h
1710 16-04-2004 06:11:01 5 C 5.37 g/m*3 5 C 0 km/h
1711 16-04-2004 06:23:01 4.9 C 5.47 g/m*3 4.9 C 0 km/h
1712 16-04-2004 06:35:01 4.8 C 5.36 g/m*3 4.8 C 0 km/h
1713 16-04-2004 06:47:00 4.8 C 5.43 g/m*3 4.8 C 0 km/h
1714 16-04-2004 06:59:00 4.8 C 5.43 g/m*3 4.8 C 0 km/h
1715 16-04-2004 07:11:00 4.8 C 5.43 g/m*3 4.8 C 0 km/h
1716 16-04-2004 07:23:58 4.8 C 5.43 g/m*3 4.8 C 0 km/h
1717 16-04-2004 07:35:57 4.9 C 5.54 g/m*3 4.9 C 0 km/h
1718 16-04-2004 07:47:01 5 C 5.44 g/m*3 5 C 0 km/h
1719 16-04-2004 07:59:01 5.1 C 5.47 g/m*3 5.1 C 0 km/h
1720 16-04-2004 08:11:01 5.3 C 5.54 g/m*3 5.3 C 0 km/h
1721 16-04-2004 08:23:01 5.6 C 5.66 g/m*3 5.6 C 0 km/h
1722 16-04-2004 08:35:01 5.8 C 5.66 g/m*3 5.8 C 0 km/h
1723 16-04-2004 08:47:00 6.1 C 5.55 g/m*3 6.1 C 0 km/h
1724 16-04-2004 08:59:00 6.5 C 5.7 g/m*3 6.5 C 0 km/h
1725 16-04-2004 09:11:00 6.7 C 5.62 g/m*3 6.7 C 0 km/h
Sensor: Nr:Datum:Temp:Abs-Feuchte:Windchill:Wind:
Aussen-T/F 1726 16-04-2004 09:23:59 7.2 C 5.65 g/m*3 7.2 C 0 km/h
1727 16-04-2004 09:35:57 7.7 C 5.76 g/m*3 7.7 C 0 km/h
1728 16-04-2004 09:47:01 8.4 C 5.85 g/m*3 8.4 C 0 km/h
1729 16-04-2004 09:59:01 9.1 C 5.94 g/m*3 9.1 C 0 km/h
1730 16-04-2004 10:11:01 9.6 C 5.95 g/m*3 9.6 C 0 km/h
1731 16-04-2004 10:23:01 10.2 C 6 g/m*3 10.2 C 0 km/h
1732 16-04-2004 10:35:01 10.8 C 6.23 g/m*3 10.8 C 0 km/h
1733 16-04-2004 10:47:02 11.9 C 6.46 g/m*3 11.9 C 0 km/h
1734 16-04-2004 10:59:02 12.5 C 6.27 g/m*3 12.5 C 0 km/h
1735 16-04-2004 11:11:01 13.2 C 6.2 g/m*3 13.2 C 0 km/h
1736 16-04-2004 11:23:01 14.2 C 6.47 g/m*3 14.2 C 0 km/h
1737 16-04-2004 11:35:01 15.2 C 6.62 g/m*3 15.2 C 0 km/h
1738 16-04-2004 11:47:00 16.1 C 6.58 g/m*3 16.1 C 0 km/h
1739 16-04-2004 11:59:00 17 C 5.79 g/m*3 17 C 0 km/h
1740 16-04-2004 12:11:00 17.7 C 6.04 g/m*3 17.7 C 0 km/h
1741 16-04-2004 12:23:59 18.1 C 5.41 g/m*3 18.1 C 0 km/h
1742 16-04-2004 12:35:57 18.7 C 5.28 g/m*3 18.7 C 0 km/h
1743 16-04-2004 12:47:01 19.1 C 5.57 g/m*3 19.1 C 0 km/h
1744 16-04-2004 12:59:01 19.4 C 5.34 g/m*3 19.4 C 0 km/h
1745 16-04-2004 13:11:01 19.5 C 5.87 g/m*3 19.5 C 0 km/h
1746 16-04-2004 13:23:01 20 C 5.36 g/m*3 20 C 0 km/h
1747 16-04-2004 13:35:01 20.3 C 5.45 g/m*3 20.3 C 0 km/h
1748 16-04-2004 13:47:00 21 C 4.95 g/m*3 21 C 0 km/h
1749 16-04-2004 13:59:00 22.1 C 5.08 g/m*3 22.1 C 0 km/h
1750 16-04-2004 14:11:00 22.8 C 5.08 g/m*3 22.8 C 0 km/h
Sensor: Nr:Datum:Temp:Abs-Feuchte:Windchill:Wind:
Aussen-T/F 1751 16-04-2004 14:23:58 23.3 C 5.23 g/m*3 23.3 C 0 km/h
1752 16-04-2004 14:35:57 23.8 C 4.73 g/m*3 23.8 C 0 km/h
1753 16-04-2004 14:47:01 24.4 C 4.45 g/m*3 24.4 C 0 km/h
1754 16-04-2004 14:59:01 24.5 C 4.48 g/m*3 24.5 C 0 km/h
1755 16-04-2004 15:11:01 24.4 C 4.45 g/m*3 24.4 C 0 km/h
1756 16-04-2004 15:23:01 23.2 C 4.16 g/m*3 23.2 C 0 km/h
1757 16-04-2004 15:35:01 23.4 C 4.21 g/m*3 23.4 C 0 km/h
1758 16-04-2004 15:47:00 23.9 C 4.33 g/m*3 23.9 C 0 km/h
1759 16-04-2004 15:59:00 24.7 C 4.53 g/m*3 24.7 C 0 km/h
1760 16-04-2004 16:11:59 24.3 C 4.43 g/m*3 24.3 C 0 km/h
1761 16-04-2004 16:23:59 25.1 C 4.63 g/m*3 25.1 C 0 km/h
1762 16-04-2004 16:35:58 24.6 C 4.5 g/m*3 24.6 C 0 km/h
1763 16-04-2004 16:47:01 24.5 C 4.48 g/m*3 24.5 C 0 km/h
1764 16-04-2004 16:59:01 24.9 C 4.58 g/m*3 24.9 C 0 km/h
1765 16-04-2004 17:11:01 24.9 C 4.58 g/m*3 24.9 C 0 km/h
1766 16-04-2004 17:23:01 25.8 C 4.82 g/m*3 25.8 C 0 km/h
1767 16-04-2004 17:35:01 25.7 C 4.79 g/m*3 25.7 C 0 km/h
1768 16-04-2004 17:47:00 25.9 C 4.84 g/m*3 25.9 C 0 km/h
1769 16-04-2004 17:59:00 25.7 C 4.79 g/m*3 25.7 C 0 km/h
1770 16-04-2004 18:11:00 25.2 C 4.66 g/m*3 25.2 C 0 km/h
1771 16-04-2004 18:23:59 25.1 C 4.63 g/m*3 25.1 C 0 km/h
1772 16-04-2004 18:35:58 24.9 C 4.58 g/m*3 24.9 C 0 km/h
1773 16-04-2004 18:47:01 24.6 C 4.5 g/m*3 24.6 C 0 km/h
1774 16-04-2004 18:59:01 24.7 C 4.53 g/m*3 24.7 C 0 km/h
1775 16-04-2004 19:11:01 24.2 C 4.4 g/m*3 24.2 C 0 km/h
Sensor: Nr:Datum:Temp:Abs-Feuchte:Windchill:Wind:
Aussen-T/F 1776 16-04-2004 19:23:01 23.6 C 4.25 g/m*3 23.6 C 0 km/h
1777 16-04-2004 19:35:01 22.6 C 4.02 g/m*3 22.6 C 0 km/h
1778 16-04-2004 19:47:00 21.7 C 4.77 g/m*3 21.7 C 0 km/h
1779 16-04-2004 19:59:00 20.8 C 5.07 g/m*3 20.8 C 0 km/h
1780 16-04-2004 20:11:00 19.8 C 5.12 g/m*3 19.8 C 0 km/h
1781 16-04-2004 20:23:58 19.1 C 5.08 g/m*3 19.1 C 0 km/h
1782 16-04-2004 20:35:57 18.2 C 5.13 g/m*3 18.2 C 0 km/h
1783 16-04-2004 20:47:01 17.7 C 5.13 g/m*3 17.7 C 0 km/h
1784 16-04-2004 20:59:01 17.2 C 5.13 g/m*3 17.2 C 0 km/h
1785 16-04-2004 21:11:01 16.7 C 5.26 g/m*3 16.7 C 0 km/h
1786 16-04-2004 21:23:01 16.4 C 5.16 g/m*3 16.4 C 0 km/h
1787 16-04-2004 21:35:01 15.9 C 5.42 g/m*3 15.9 C 0 km/h
1788 16-04-2004 21:47:00 15.5 C 5.42 g/m*3 15.5 C 0 km/h
1789 16-04-2004 21:59:00 15.2 C 5.32 g/m*3 15.2 C 0 km/h
1790 16-04-2004 22:11:59 15 C 5.26 g/m*3 15 C 0 km/h
1791 16-04-2004 22:23:58 14.6 C 5.38 g/m*3 14.6 C 0 km/h
1792 16-04-2004 22:35:57 14.2 C 5.49 g/m*3 14.2 C 0 km/h
1793 16-04-2004 22:47:01 13.8 C 5.48 g/m*3 13.8 C 0 km/h
1794 16-04-2004 22:59:01 13.3 C 5.31 g/m*3 13.3 C 0 km/h
1795 16-04-2004 23:11:01 13.1 C 5.36 g/m*3 13.1 C 0 km/h
1796 16-04-2004 23:23:01 13.1 C 5.48 g/m*3 13.1 C 0 km/h
1797 16-04-2004 23:35:01 12.8 C 5.71 g/m*3 12.8 C 0 km/h
1798 16-04-2004 23:47:01 12.6 C 5.53 g/m*3 12.6 C 0 km/h
1799 16-04-2004 23:59:01 12.3 C 5.54 g/m*3 12.3 C 0 km/h
1800 17-04-2004 00:11:01 12 C 5.54 g/m*3 12 C 0 km/h
Sensor: Nr:Datum:Temp:Abs-Feuchte:Windchill:Wind:
Aussen-T/F 1801 17-04-2004 00:23:02 11.8 C 5.47 g/m*3 11.8 C 0 km/h
1802 17-04-2004 00:35:01 11.4 C 5.54 g/m*3 11.4 C 0 km/h
1803 17-04-2004 00:47:00 11.1 C 5.54 g/m*3 11.1 C 0 km/h
1804 17-04-2004 00:59:00 11 C 5.41 g/m*3 11 C 0 km/h
1805 17-04-2004 01:11:00 10.7 C 5.5 g/m*3 10.7 C 0 km/h
1806 17-04-2004 01:23:59 10.5 C 5.53 g/m*3 10.5 C 0 km/h
1807 17-04-2004 01:35:57 10.1 C 5.39 g/m*3 10.1 C 0 km/h
1808 17-04-2004 01:47:01 9.9 C 5.6 g/m*3 9.9 C 0 km/h
1809 17-04-2004 01:59:01 9.7 C 5.53 g/m*3 9.7 C 0 km/h
1810 17-04-2004 02:11:01 9.5 C 5.55 g/m*3 9.5 C 0 km/h
1811 17-04-2004 02:23:01 9.1 C 5.5 g/m*3 9.1 C 0 km/h
1812 17-04-2004 02:35:01 8.8 C 5.57 g/m*3 8.8 C 0 km/h
1813 17-04-2004 02:48:01 8.8 C 5.57 g/m*3 8.8 C 0 km/h
1814 17-04-2004 03:00:01 8.7 C 5.62 g/m*3 8.7 C 0 km/h
1815 17-04-2004 03:12:00 8.5 C 5.55 g/m*3 8.5 C 0 km/h
1816 17-04-2004 03:24:00 8.4 C 5.51 g/m*3 8.4 C 0 km/h
1817 17-04-2004 03:36:01 8.2 C 5.53 g/m*3 8.2 C 0 km/h
1818 17-04-2004 03:48:01 8 C 5.54 g/m*3 8 C 0 km/h
1819 17-04-2004 04:00:01 7.8 C 5.63 g/m*3 7.8 C 0 km/h
1820 17-04-2004 04:12:00 7.5 C 5.6 g/m*3 7.5 C 0 km/h
1821 17-04-2004 04:24:00 7.3 C 5.53 g/m*3 7.3 C 0 km/h
1822 17-04-2004 04:36:00 7.3 C 5.61 g/m*3 7.3 C 0 km/h
1823 17-04-2004 04:48:01 7.1 C 5.46 g/m*3 7.1 C 0 km/h
1824 17-04-2004 05:00:01 7.1 C 5.54 g/m*3 7.1 C 0 km/h
1825 17-04-2004 05:12:01 7 C 5.58 g/m*3 7 C 0 km/h
Sensor: Nr:Datum:Temp:Abs-Feuchte:Windchill:Wind:
Aussen-T/F 1826 17-04-2004 05:24:01 6.8 C 5.58 g/m*3 6.8 C 0 km/h
1827 17-04-2004 05:36:00 6.7 C 5.47 g/m*3 6.7 C 0 km/h
1828 17-04-2004 05:48:01 6.6 C 5.51 g/m*3 6.6 C 0 km/h
1829 17-04-2004 06:00:01 6.4 C 5.51 g/m*3 6.4 C 0 km/h
1830 17-04-2004 06:12:01 6.3 C 5.48 g/m*3 6.3 C 0 km/h
1831 17-04-2004 06:24:01 6.1 C 5.48 g/m*3 6.1 C 0 km/h
1832 17-04-2004 06:36:01 5.9 C 5.55 g/m*3 5.9 C 0 km/h
1833 17-04-2004 06:48:00 5.8 C 5.52 g/m*3 5.8 C 0 km/h
1834 17-04-2004 07:00:00 5.9 C 5.55 g/m*3 5.9 C 0 km/h
1835 17-04-2004 07:12:00 5.8 C 5.52 g/m*3 5.8 C 0 km/h
1836 17-04-2004 07:24:58 5.9 C 5.55 g/m*3 5.9 C 0 km/h
1837 17-04-2004 07:36:57 6.2 C 5.59 g/m*3 6.2 C 0 km/h
1838 17-04-2004 07:48:01 6.4 C 5.66 g/m*3 6.4 C 0 km/h
1839 17-04-2004 08:00:01 6.5 C 5.62 g/m*3 6.5 C 0 km/h
1840 17-04-2004 08:12:01 6.7 C 5.62 g/m*3 6.7 C 0 km/h
1841 17-04-2004 08:24:01 6.9 C 5.7 g/m*3 6.9 C 0 km/h
1842 17-04-2004 08:36:02 7.1 C 5.69 g/m*3 7.1 C 0 km/h
1843 17-04-2004 08:48:01 7.6 C 5.8 g/m*3 7.6 C 0 km/h
1844 17-04-2004 09:00:01 8.2 C 5.78 g/m*3 8.2 C 0 km/h
1845 17-04-2004 09:12:02 8.4 C 5.77 g/m*3 8.4 C 0 km/h
1846 17-04-2004 09:24:01 8.9 C 5.96 g/m*3 8.9 C 0 km/h
1847 17-04-2004 09:36:02 9.6 C 6.05 g/m*3 9.6 C 0 km/h
1848 17-04-2004 09:48:01 9.9 C 5.98 g/m*3 9.9 C 0 km/h
1849 17-04-2004 10:00:01 10.7 C 5.99 g/m*3 10.7 C 0 km/h
1850 17-04-2004 10:12:00 11.3 C 6.12 g/m*3 11.3 C 0 km/h
Sensor: Nr:Datum:Temp:Abs-Feuchte:Windchill:Wind:
Aussen-T/F 1851 17-04-2004 10:24:59 12.2 C 6.26 g/m*3 12.2 C 0 km/h
1852 17-04-2004 10:36:58 13.2 C 6.54 g/m*3 13.2 C 0 km/h
1853 17-04-2004 10:48:01 14.2 C 6.11 g/m*3 14.2 C 0 km/h
1854 17-04-2004 11:00:01 14.8 C 6.08 g/m*3 14.8 C 0 km/h
1855 17-04-2004 11:12:01 15.1 C 5.93 g/m*3 15.1 C 0 km/h
1856 17-04-2004 11:24:00 15.7 C 6.02 g/m*3 15.7 C 0 km/h
1857 17-04-2004 11:36:01 16.6 C 6.22 g/m*3 16.6 C 0 km/h
1858 17-04-2004 11:48:01 17.4 C 5.78 g/m*3 17.4 C 0 km/h
1859 17-04-2004 12:00:01 18.4 C 5.35 g/m*3 18.4 C 0 km/h
1860 17-04-2004 12:12:01 19 C 5.05 g/m*3 19 C 0 km/h
1861 17-04-2004 12:24:01 19.3 C 5.14 g/m*3 19.3 C 0 km/h
1862 17-04-2004 12:36:01 19.3 C 4.81 g/m*3 19.3 C 0 km/h
1863 17-04-2004 12:48:00 19.6 C 5.06 g/m*3 19.6 C 0 km/h
1864 17-04-2004 13:00:00 20 C 5.36 g/m*3 20 C 0 km/h
1865 17-04-2004 13:12:00 20.2 C 5.07 g/m*3 20.2 C 0 km/h
1866 17-04-2004 13:24:59 20.6 C 5.37 g/m*3 20.6 C 0 km/h
1867 17-04-2004 13:36:57 20.4 C 4.95 g/m*3 20.4 C 0 km/h
1868 17-04-2004 13:48:01 20.4 C 4.95 g/m*3 20.4 C 0 km/h
1869 17-04-2004 14:00:01 21.2 C 4.82 g/m*3 21.2 C 0 km/h
1870 17-04-2004 14:12:01 21.9 C 4.44 g/m*3 21.9 C 0 km/h
1871 17-04-2004 14:24:01 22.1 C 4.1 g/m*3 22.1 C 0 km/h
1872 17-04-2004 14:36:01 21.3 C 4.1 g/m*3 21.3 C 0 km/h
1873 17-04-2004 14:48:00 21.3 C 4.29 g/m*3 21.3 C 0 km/h
1874 17-04-2004 15:00:00 22.8 C 4.06 g/m*3 22.8 C 0 km/h
1875 17-04-2004 15:11:59 24.3 C 4.43 g/m*3 24.3 C 0 km/h
Sensor: Nr:Datum:Temp:Abs-Feuchte:Windchill:Wind:
Aussen-T/F 1876 17-04-2004 15:24:58 25.3 C 4.68 g/m*3 25.3 C 0 km/h
1877 17-04-2004 15:36:57 25.1 C 4.63 g/m*3 25.1 C 0 km/h
1878 17-04-2004 15:48:01 22.8 C 4.06 g/m*3 22.8 C 0 km/h
1879 17-04-2004 16:00:01 23.8 C 4.3 g/m*3 23.8 C 0 km/h
1880 17-04-2004 16:12:01 23.3 C 4.18 g/m*3 23.3 C 0 km/h
1881 17-04-2004 16:24:01 24.7 C 4.53 g/m*3 24.7 C 0 km/h
1882 17-04-2004 16:36:01 25.5 C 4.73 g/m*3 25.5 C 0 km/h
1883 17-04-2004 16:48:01 24.4 C 4.45 g/m*3 24.4 C 0 km/h
1884 17-04-2004 17:00:02 25.1 C 4.63 g/m*3 25.1 C 0 km/h
1885 17-04-2004 17:12:01 24.3 C 4.43 g/m*3 24.3 C 0 km/h
1886 17-04-2004 17:24:01 24.6 C 4.5 g/m*3 24.6 C 0 km/h
1887 17-04-2004 17:36:01 24.5 C 4.48 g/m*3 24.5 C 0 km/h
1888 17-04-2004 17:48:00 23.3 C 4.18 g/m*3 23.3 C 0 km/h
1889 17-04-2004 18:00:00 23.3 C 4.18 g/m*3 23.3 C 0 km/h
1890 17-04-2004 18:12:00 22.9 C 4.29 g/m*3 22.9 C 0 km/h
1891 17-04-2004 18:24:58 22.7 C 4.44 g/m*3 22.7 C 0 km/h
1892 17-04-2004 18:36:57 22.1 C 4.49 g/m*3 22.1 C 0 km/h
1893 17-04-2004 18:48:01 21.7 C 4.77 g/m*3 21.7 C 0 km/h
1894 17-04-2004 19:00:01 21.4 C 4.87 g/m*3 21.4 C 0 km/h
1895 17-04-2004 19:12:01 20.7 C 4.86 g/m*3 20.7 C 0 km/h
1896 17-04-2004 19:24:01 19.7 C 6.62 g/m*3 19.7 C 0 km/h
1897 17-04-2004 19:36:01 19.1 C 6.07 g/m*3 19.1 C 0 km/h
1898 17-04-2004 19:48:00 19.4 C 6.01 g/m*3 19.4 C 0 km/h
1899 17-04-2004 20:00:00 19.4 C 6.17 g/m*3 19.4 C 0 km/h
1900 17-04-2004 20:12:00 18.9 C 5.99 g/m*3 18.9 C 0 km/h
Sensor: Nr:Datum:Temp:Abs-Feuchte:Windchill:Wind:
Aussen-T/F 1901 17-04-2004 20:24:58 18.6 C 6.05 g/m*3 18.6 C 0 km/h
1902 17-04-2004 20:36:57 18.1 C 6.03 g/m*3 18.1 C 0 km/h
1903 17-04-2004 20:48:01 17.6 C 6.15 g/m*3 17.6 C 0 km/h
1904 17-04-2004 21:00:01 17.5 C 6.26 g/m*3 17.5 C 0 km/h
1905 17-04-2004 21:12:01 17.3 C 6.48 g/m*3 17.3 C 0 km/h
1906 17-04-2004 21:24:01 17 C 6.51 g/m*3 17 C 0 km/h
1907 17-04-2004 21:36:01 16.8 C 6.72 g/m*3 16.8 C 0 km/h
1908 17-04-2004 21:48:00 16.6 C 6.78 g/m*3 16.6 C 0 km/h
1909 17-04-2004 22:00:00 16.3 C 6.66 g/m*3 16.3 C 0 km/h
1910 17-04-2004 22:12:00 15.8 C 6.87 g/m*3 15.8 C 0 km/h
1911 17-04-2004 22:24:58 15.8 C 6.87 g/m*3 15.8 C 0 km/h
1912 17-04-2004 22:36:57 15.6 C 6.92 g/m*3 15.6 C 0 km/h
1913 17-04-2004 22:48:01 15.4 C 6.96 g/m*3 15.4 C 0 km/h
1914 17-04-2004 23:00:01 15.2 C 7.01 g/m*3 15.2 C 0 km/h
1915 17-04-2004 23:12:01 15 C 6.92 g/m*3 15 C 0 km/h
1916 17-04-2004 23:24:01 15 C 7.05 g/m*3 15 C 0 km/h
1917 17-04-2004 23:36:01 14.8 C 7.09 g/m*3 14.8 C 0 km/h
1918 17-04-2004 23:48:01 14.7 C 7.18 g/m*3 14.7 C 0 km/h
1919 18-04-2004 00:00:01 14.5 C 7.09 g/m*3 14.5 C 0 km/h
1920 18-04-2004 00:12:01 14.4 C 7.17 g/m*3 14.4 C 0 km/h
1921 18-04-2004 00:24:01 14 C 7.12 g/m*3 14 C 0 km/h
1922 18-04-2004 00:36:01 13.9 C 7.19 g/m*3 13.9 C 0 km/h
1923 18-04-2004 00:48:01 13.5 C 7.13 g/m*3 13.5 C 0 km/h
1924 18-04-2004 01:00:01 13.4 C 7.21 g/m*3 13.4 C 0 km/h
1925 18-04-2004 01:12:00 13.7 C 7.34 g/m*3 13.7 C 0 km/h
Sensor: Nr:Datum:Temp:Abs-Feuchte:Windchill:Wind:
Aussen-T/F 1926 18-04-2004 01:24:59 13.7 C 7.22 g/m*3 13.7 C 0 km/h
1927 18-04-2004 01:36:57 13.7 C 7.46 g/m*3 13.7 C 0 km/h
1928 18-04-2004 01:48:01 13.4 C 7.79 g/m*3 13.4 C 0 km/h
1929 18-04-2004 02:00:01 13.3 C 7.28 g/m*3 13.3 C 0 km/h
1930 18-04-2004 02:12:01 13.3 C 7.16 g/m*3 13.3 C 0 km/h
1931 18-04-2004 02:24:01 13.1 C 7.3 g/m*3 13.1 C 0 km/h
1932 18-04-2004 02:36:01 12.2 C 7.55 g/m*3 12.2 C 0 km/h
1933 18-04-2004 02:49:01 11.8 C 7.68 g/m*3 11.8 C 0 km/h
1934 18-04-2004 03:01:01 11.7 C 7.64 g/m*3 11.7 C 0 km/h
1935 18-04-2004 03:13:00 11.6 C 7.9 g/m*3 11.6 C 0 km/h
1936 18-04-2004 03:25:01 11.2 C 7.8 g/m*3 11.2 C 0 km/h
1937 18-04-2004 03:37:01 11 C 7.71 g/m*3 11 C 0 km/h
1938 18-04-2004 03:49:01 10.8 C 7.71 g/m*3 10.8 C 0 km/h
1939 18-04-2004 04:01:01 10.6 C 7.52 g/m*3 10.6 C 0 km/h
1940 18-04-2004 04:13:01 10.4 C 7.52 g/m*3 10.4 C 0 km/h
1941 18-04-2004 04:25:01 10.6 C 7.42 g/m*3 10.6 C 0 km/h
1942 18-04-2004 04:37:01 10.9 C 7.26 g/m*3 10.9 C 0 km/h
1943 18-04-2004 04:49:00 11 C 6.71 g/m*3 11 C 0 km/h
1944 18-04-2004 05:01:00 11 C 6.51 g/m*3 11 C 0 km/h
1945 18-04-2004 05:13:00 10.9 C 6.56 g/m*3 10.9 C 0 km/h
1946 18-04-2004 05:25:59 10.9 C 6.66 g/m*3 10.9 C 0 km/h
1947 18-04-2004 05:37:57 10.8 C 6.52 g/m*3 10.8 C 0 km/h
1948 18-04-2004 05:49:01 10.9 C 6.47 g/m*3 10.9 C 0 km/h
1949 18-04-2004 06:01:01 10.7 C 6.48 g/m*3 10.7 C 0 km/h
1950 18-04-2004 06:13:01 10.6 C 6.44 g/m*3 10.6 C 0 km/h
Sensor: Nr:Datum:Temp:Abs-Feuchte:Windchill:Wind:
Aussen-T/F 1951 18-04-2004 06:25:01 10.5 C 6.21 g/m*3 10.5 C 0 km/h
1952 18-04-2004 06:37:01 10.5 C 6.3 g/m*3 10.5 C 0 km/h
1953 18-04-2004 06:49:00 10.5 C 6.5 g/m*3 10.5 C 0 km/h
1954 18-04-2004 07:00:59 10.4 C 6.36 g/m*3 10.4 C 0 km/h
1955 18-04-2004 07:12:59 10.5 C 6.21 g/m*3 10.5 C 0 km/h
1956 18-04-2004 07:25:58 10.5 C 6.01 g/m*3 10.5 C 0 km/h
1957 18-04-2004 07:37:57 10.8 C 5.93 g/m*3 10.8 C 0 km/h
1958 18-04-2004 07:49:01 11 C 5.91 g/m*3 11 C 0 km/h
1959 18-04-2004 08:01:01 11 C 6.01 g/m*3 11 C 0 km/h
1960 18-04-2004 08:13:02 11.1 C 6.04 g/m*3 11.1 C 0 km/h
1961 18-04-2004 08:25:01 11.2 C 6.18 g/m*3 11.2 C 0 km/h
1962 18-04-2004 08:37:01 11.5 C 6.3 g/m*3 11.5 C 0 km/h
1963 18-04-2004 08:49:01 11.7 C 6.38 g/m*3 11.7 C 0 km/h
1964 18-04-2004 09:01:01 11.9 C 6.25 g/m*3 11.9 C 0 km/h
1965 18-04-2004 09:13:02 12.2 C 6.15 g/m*3 12.2 C 0 km/h
1966 18-04-2004 09:25:01 12.6 C 5.97 g/m*3 12.6 C 0 km/h
1967 18-04-2004 09:37:01 13 C 5.67 g/m*3 13 C 0 km/h
1968 18-04-2004 09:49:00 13.2 C 5.4 g/m*3 13.2 C 0 km/h
1969 18-04-2004 10:01:00 13.2 C 5.28 g/m*3 13.2 C 0 km/h
1970 18-04-2004 10:13:00 13.4 C 5.23 g/m*3 13.4 C 0 km/h
1971 18-04-2004 10:25:59 13.4 C 4.88 g/m*3 13.4 C 0 km/h
1972 18-04-2004 10:37:59 13.1 C 4.91 g/m*3 13.1 C 0 km/h
1973 18-04-2004 10:49:01 13.8 C 5 g/m*3 13.8 C 0 km/h
1974 18-04-2004 11:01:01 15 C 5 g/m*3 15 C 0 km/h
1975 18-04-2004 11:13:01 14.9 C 5.1 g/m*3 14.9 C 0 km/h
Sensor: Nr:Datum:Temp:Abs-Feuchte:Windchill:Wind:
Aussen-T/F 1976 18-04-2004 11:25:00 14.8 C 5.07 g/m*3 14.8 C 0 km/h
1977 18-04-2004 11:37:00 14.6 C 4.88 g/m*3 14.6 C 0 km/h
1978 18-04-2004 11:49:01 15 C 4.62 g/m*3 15 C 0 km/h
1979 18-04-2004 12:01:01 15.1 C 4.64 g/m*3 15.1 C 0 km/h
1980 18-04-2004 12:13:02 15.5 C 4.63 g/m*3 15.5 C 0 km/h
1981 18-04-2004 12:25:01 14.9 C 4.46 g/m*3 14.9 C 0 km/h
1982 18-04-2004 12:37:01 16.3 C 4.44 g/m*3 16.3 C 0 km/h
1983 18-04-2004 12:49:02 16.3 C 4.58 g/m*3 16.3 C 0 km/h
1984 18-04-2004 13:01:01 16.2 C 4.55 g/m*3 16.2 C 0 km/h
1985 18-04-2004 13:13:01 16.3 C 4.72 g/m*3 16.3 C 0 km/h
1986 18-04-2004 13:25:02 16 C 4.63 g/m*3 16 C 0 km/h
1987 18-04-2004 13:37:01 16 C 4.77 g/m*3 16 C 0 km/h
1988 18-04-2004 13:49:00 15.6 C 4.65 g/m*3 15.6 C 0 km/h
1989 18-04-2004 14:01:01 15.3 C 4.57 g/m*3 15.3 C 0 km/h
1990 18-04-2004 14:13:01 16.5 C 4.77 g/m*3 16.5 C 0 km/h
1991 18-04-2004 14:25:59 16.1 C 4.39 g/m*3 16.1 C 0 km/h
1992 18-04-2004 14:37:58 15.8 C 4.58 g/m*3 15.8 C 0 km/h
1993 18-04-2004 14:49:01 15.5 C 4.76 g/m*3 15.5 C 0 km/h
1994 18-04-2004 15:01:00 15.7 C 4.68 g/m*3 15.7 C 0 km/h
1995 18-04-2004 15:13:00 15.9 C 4.74 g/m*3 15.9 C 0 km/h
1996 18-04-2004 15:25:00 16.4 C 4.89 g/m*3 16.4 C 0 km/h
1997 18-04-2004 15:37:00 16 C 4.9 g/m*3 16 C 0 km/h
1998 18-04-2004 15:49:01 16.2 C 4.96 g/m*3 16.2 C 0 km/h
1999 18-04-2004 16:01:01 16 C 4.9 g/m*3 16 C 0 km/h
2000 18-04-2004 16:13:01 16 C 4.9 g/m*3 16 C 0 km/h
Sensor: Nr:Datum:Temp:Abs-Feuchte:Windchill:Wind:
Aussen-T/F 2001 18-04-2004 16:25:01 16.1 C 5.07 g/m*3 16.1 C 0 km/h
2002 18-04-2004 16:37:01 15.9 C 5.01 g/m*3 15.9 C 0 km/h
2003 18-04-2004 16:49:00 15.7 C 5.08 g/m*3 15.7 C 0 km/h
2004 18-04-2004 17:01:00 15.9 C 5.15 g/m*3 15.9 C 0 km/h
2005 18-04-2004 17:13:00 15.5 C 5.02 g/m*3 15.5 C 0 km/h
2006 18-04-2004 17:25:58 15.6 C 4.92 g/m*3 15.6 C 0 km/h
2007 18-04-2004 17:37:57 15.5 C 4.76 g/m*3 15.5 C 0 km/h
2008 18-04-2004 17:49:01 15.3 C 4.7 g/m*3 15.3 C 0 km/h
2009 18-04-2004 18:01:01 14.8 C 5.19 g/m*3 14.8 C 0 km/h
2010 18-04-2004 18:13:01 13.7 C 5.8 g/m*3 13.7 C 0 km/h
2011 18-04-2004 18:25:01 13.2 C 6.2 g/m*3 13.2 C 0 km/h
2012 18-04-2004 18:37:01 13.4 C 6.28 g/m*3 13.4 C 0 km/h
2013 18-04-2004 18:49:00 13.1 C 6.28 g/m*3 13.1 C 0 km/h
2014 18-04-2004 19:01:00 12.3 C 6.84 g/m*3 12.3 C 0 km/h
2015 18-04-2004 19:13:00 12 C 6.39 g/m*3 12 C 0 km/h
2016 18-04-2004 19:25:58 12.1 C 6.54 g/m*3 12.1 C 0 km/h
2017 18-04-2004 19:37:57 11.4 C 6.98 g/m*3 11.4 C 0 km/h
2018 18-04-2004 19:49:01 11 C 7.11 g/m*3 11 C 0 km/h
2019 18-04-2004 20:01:01 10.9 C 7.26 g/m*3 10.9 C 0 km/h
2020 18-04-2004 20:13:01 11.1 C 7.05 g/m*3 11.1 C 0 km/h
2021 18-04-2004 20:25:01 11.3 C 7.14 g/m*3 11.3 C 0 km/h
2022 18-04-2004 20:37:01 11.4 C 6.98 g/m*3 11.4 C 0 km/h
2023 18-04-2004 20:49:02 11.4 C 7.08 g/m*3 11.4 C 0 km/h
2024 18-04-2004 21:01:01 11.2 C 6.99 g/m*3 11.2 C 0 km/h
2025 18-04-2004 21:13:01 11.2 C 6.99 g/m*3 11.2 C 0 km/h
Sensor: Nr:Datum:Temp:Abs-Feuchte:Windchill:Wind:
Aussen-T/F 2026 18-04-2004 21:25:01 11.1 C 6.95 g/m*3 11.1 C 0 km/h
2027 18-04-2004 21:37:01 11.1 C 6.95 g/m*3 11.1 C 0 km/h
2028 18-04-2004 21:49:00 11.2 C 6.99 g/m*3 11.2 C 0 km/h
2029 18-04-2004 22:01:00 11.2 C 6.99 g/m*3 11.2 C 0 km/h
2030 18-04-2004 22:13:00 11.2 C 6.89 g/m*3 11.2 C 0 km/h
2031 18-04-2004 22:25:58 11.2 C 6.99 g/m*3 11.2 C 0 km/h
2032 18-04-2004 22:37:57 11.2 C 6.89 g/m*3 11.2 C 0 km/h
2033 18-04-2004 22:49:01 11.1 C 6.95 g/m*3 11.1 C 0 km/h
2034 18-04-2004 23:01:01 11 C 6.81 g/m*3 11 C 0 km/h
2035 18-04-2004 23:13:01 11 C 6.71 g/m*3 11 C 0 km/h
2036 18-04-2004 23:25:01 11 C 6.61 g/m*3 11 C 0 km/h
2037 18-04-2004 23:37:01 10.7 C 6.38 g/m*3 10.7 C 0 km/h
2038 18-04-2004 23:49:00 10.7 C 5.89 g/m*3 10.7 C 0 km/h
2039 19-04-2004 00:01:59 10.5 C 5.53 g/m*3 10.5 C 0 km/h
2040 19-04-2004 00:12:59 10 C 5.26 g/m*3 10 C 0 km/h
2041 19-04-2004 00:25:59 9.7 C 5.35 g/m*3 9.7 C 0 km/h
2042 19-04-2004 00:37:57 9.4 C 5.43 g/m*3 9.4 C 0 km/h
2043 19-04-2004 00:49:01 9.1 C 5.32 g/m*3 9.1 C 0 km/h
2044 19-04-2004 01:01:01 9 C 5.38 g/m*3 9 C 0 km/h
2045 19-04-2004 01:13:01 8.9 C 5.43 g/m*3 8.9 C 0 km/h
2046 19-04-2004 01:25:01 8.9 C 5.34 g/m*3 8.9 C 0 km/h
2047 19-04-2004 01:37:00 8.8 C 5.22 g/m*3 8.8 C 0 km/h
2048 19-04-2004 01:49:01 8.4 C 5.26 g/m*3 8.4 C 0 km/h
2049 19-04-2004 02:01:01 8.1 C 5.33 g/m*3 8.1 C 0 km/h
2050 19-04-2004 02:13:01 7.9 C 5.34 g/m*3 7.9 C 0 km/h
Sensor: Nr:Datum:Temp:Abs-Feuchte:Windchill:Wind:
Aussen-T/F 2051 19-04-2004 02:25:01 7.8 C 5.39 g/m*3 7.8 C 0 km/h
2052 19-04-2004 02:37:01 7.6 C 5.32 g/m*3 7.6 C 0 km/h
2053 19-04-2004 02:50:01 7.4 C 5.33 g/m*3 7.4 C 0 km/h
2054 19-04-2004 03:02:01 7.3 C 5.37 g/m*3 7.3 C 0 km/h
2055 19-04-2004 03:14:59 7.2 C 5.42 g/m*3 7.2 C 0 km/h
2056 19-04-2004 03:25:59 7.1 C 5.38 g/m*3 7.1 C 0 km/h
2057 19-04-2004 03:38:01 7.2 C 5.49 g/m*3 7.2 C 0 km/h
2058 19-04-2004 03:50:01 7.1 C 5.46 g/m*3 7.1 C 0 km/h
2059 19-04-2004 04:02:01 7.1 C 5.38 g/m*3 7.1 C 0 km/h
2060 19-04-2004 04:14:01 7 C 5.42 g/m*3 7 C 0 km/h
2061 19-04-2004 04:26:01 7 C 5.35 g/m*3 7 C 0 km/h
2062 19-04-2004 04:38:01 7 C 5.42 g/m*3 7 C 0 km/h
2063 19-04-2004 04:50:00 7.2 C 5.34 g/m*3 7.2 C 0 km/h
2064 19-04-2004 05:02:59 7.5 C 5.2 g/m*3 7.5 C 0 km/h
2065 19-04-2004 05:14:58 7.6 C 5.08 g/m*3 7.6 C 0 km/h
2066 19-04-2004 05:26:58 7.5 C 5.12 g/m*3 7.5 C 0 km/h
2067 19-04-2004 05:38:57 7.4 C 5.01 g/m*3 7.4 C 0 km/h
2068 19-04-2004 05:50:01 7.2 C 4.95 g/m*3 7.2 C 0 km/h
2069 19-04-2004 06:02:01 7.1 C 4.99 g/m*3 7.1 C 0 km/h
2070 19-04-2004 06:14:01 6.9 C 5.08 g/m*3 6.9 C 0 km/h
2071 19-04-2004 06:26:01 7 C 4.96 g/m*3 7 C 0 km/h
2072 19-04-2004 06:38:00 7 C 4.88 g/m*3 7 C 0 km/h
2073 19-04-2004 06:50:01 7.1 C 4.84 g/m*3 7.1 C 0 km/h
2074 19-04-2004 07:02:02 7.2 C 4.79 g/m*3 7.2 C 0 km/h
2075 19-04-2004 07:14:02 7.4 C 4.77 g/m*3 7.4 C 0 km/h
Sensor: Nr:Datum:Temp:Abs-Feuchte:Windchill:Wind:
Aussen-T/F 2076 19-04-2004 07:26:01 7.5 C 4.8 g/m*3 7.5 C 0 km/h
2077 19-04-2004 07:38:01 7.7 C 4.78 g/m*3 7.7 C 0 km/h
2078 19-04-2004 07:50:00 7.8 C 4.82 g/m*3 7.8 C 0 km/h
2079 19-04-2004 08:02:00 8 C 4.8 g/m*3 8 C 0 km/h
2080 19-04-2004 08:14:00 8.1 C 4.58 g/m*3 8.1 C 0 km/h
2081 19-04-2004 08:26:59 8.4 C 4.67 g/m*3 8.4 C 0 km/h
2082 19-04-2004 08:38:58 8.4 C 4.5 g/m*3 8.4 C 0 km/h
2083 19-04-2004 08:50:01 8.4 C 4.5 g/m*3 8.4 C 0 km/h
2084 19-04-2004 09:02:00 8.5 C 4.53 g/m*3 8.5 C 0 km/h
2085 19-04-2004 09:14:00 8.7 C 4.41 g/m*3 8.7 C 0 km/h
2086 19-04-2004 09:26:01 8.9 C 4.38 g/m*3 8.9 C 0 km/h
2087 19-04-2004 09:38:00 9.1 C 4.17 g/m*3 9.1 C 0 km/h
2088 19-04-2004 09:50:01 9.2 C 4.2 g/m*3 9.2 C 0 km/h
2089 19-04-2004 10:02:01 9.6 C 4.21 g/m*3 9.6 C 0 km/h
2090 19-04-2004 10:14:01 9.8 C 4.27 g/m*3 9.8 C 0 km/h
2091 19-04-2004 10:26:01 9.5 C 4.01 g/m*3 9.5 C 0 km/h
2092 19-04-2004 10:38:01 10.3 C 4.21 g/m*3 10.3 C 0 km/h
2093 19-04-2004 10:50:01 10.5 C 4.17 g/m*3 10.5 C 0 km/h
2094 19-04-2004 11:02:01 10.8 C 4.05 g/m*3 10.8 C 0 km/h
2095 19-04-2004 11:14:01 10.8 C 4.15 g/m*3 10.8 C 0 km/h
2096 19-04-2004 11:26:01 10.2 C 4.09 g/m*3 10.2 C 0 km/h
2097 19-04-2004 11:38:01 10.2 C 4.28 g/m*3 10.2 C 0 km/h
2098 19-04-2004 11:50:00 10.3 C 4.12 g/m*3 10.3 C 0 km/h
2099 19-04-2004 12:02:00 10.4 C 4.05 g/m*3 10.4 C 0 km/h
2100 19-04-2004 12:14:00 10.3 C 4.02 g/m*3 10.3 C 0 km/h
Sensor: Nr:Datum:Temp:Abs-Feuchte:Windchill:Wind:
Aussen-T/F 2101 19-04-2004 12:26:59 10.8 C 4.35 g/m*3 10.8 C 0 km/h
2102 19-04-2004 12:38:58 11 C 4.2 g/m*3 11 C 0 km/h
2103 19-04-2004 12:50:01 10.7 C 4.13 g/m*3 10.7 C 0 km/h
2104 19-04-2004 13:02:01 11.1 C 4.03 g/m*3 11.1 C 0 km/h
2105 19-04-2004 13:14:02 11.5 C 4.03 g/m*3 11.5 C 0 km/h
2106 19-04-2004 13:26:01 11.6 C 3.85 g/m*3 11.6 C 0 km/h
2107 19-04-2004 13:38:00 11.6 C 3.95 g/m*3 11.6 C 0 km/h
2108 19-04-2004 13:50:01 12 C 3.73 g/m*3 12 C 0 km/h
2109 19-04-2004 14:02:01 12.5 C 3.85 g/m*3 12.5 C 0 km/h
2110 19-04-2004 14:14:01 13.1 C 3.77 g/m*3 13.1 C 0 km/h
2111 19-04-2004 14:26:01 12.8 C 3.58 g/m*3 12.8 C 0 km/h
2112 19-04-2004 14:38:01 13.6 C 3.53 g/m*3 13.6 C 0 km/h
2113 19-04-2004 14:50:00 13.4 C 3.49 g/m*3 13.4 C 0 km/h
2114 19-04-2004 15:02:59 12.8 C 3.58 g/m*3 12.8 C 0 km/h
2115 19-04-2004 15:14:58 12.8 C 3.7 g/m*3 12.8 C 0 km/h
2116 19-04-2004 15:26:58 13.8 C 3.57 g/m*3 13.8 C 0 km/h
2117 19-04-2004 15:38:57 14.3 C 3.56 g/m*3 14.3 C 0 km/h
2118 19-04-2004 15:50:01 14.6 C 3.63 g/m*3 14.6 C 0 km/h
2119 19-04-2004 16:02:01 13.7 C 3.55 g/m*3 13.7 C 0 km/h
2120 19-04-2004 16:14:01 14.5 C 3.61 g/m*3 14.5 C 0 km/h
2121 19-04-2004 16:26:01 15.3 C 3.4 g/m*3 15.3 C 0 km/h
2122 19-04-2004 16:38:01 14.3 C 3.19 g/m*3 14.3 C 0 km/h
2123 19-04-2004 16:50:01 14.2 C 3.3 g/m*3 14.2 C 0 km/h
2124 19-04-2004 17:02:01 14.2 C 3.3 g/m*3 14.2 C 0 km/h
2125 19-04-2004 17:14:01 14.5 C 3.23 g/m*3 14.5 C 0 km/h
Sensor: Nr:Datum:Temp:Abs-Feuchte:Windchill:Wind:
Aussen-T/F 2126 19-04-2004 17:26:01 15.5 C 3.3 g/m*3 15.5 C 0 km/h
2127 19-04-2004 17:38:01 15 C 3.21 g/m*3 15 C 0 km/h
2128 19-04-2004 17:50:00 14 C 3.38 g/m*3 14 C 0 km/h
2129 19-04-2004 18:02:00 13.8 C 3.34 g/m*3 13.8 C 0 km/h
2130 19-04-2004 18:14:00 14.1 C 3.16 g/m*3 14.1 C 0 km/h
2131 19-04-2004 18:26:59 14.8 C 3.17 g/m*3 14.8 C 0 km/h
2132 19-04-2004 18:38:57 14.2 C 3.17 g/m*3 14.2 C 0 km/h
2133 19-04-2004 18:50:01 14.1 C 3.28 g/m*3 14.1 C 0 km/h
2134 19-04-2004 19:02:01 14.2 C 3.42 g/m*3 14.2 C 0 km/h
2135 19-04-2004 19:14:02 14.5 C 3.36 g/m*3 14.5 C 0 km/h
2136 19-04-2004 19:26:01 13.1 C 3.42 g/m*3 13.1 C 0 km/h
2137 19-04-2004 19:38:01 12.8 C 3.47 g/m*3 12.8 C 0 km/h
2138 19-04-2004 19:50:00 12.4 C 3.82 g/m*3 12.4 C 0 km/h
2139 19-04-2004 20:13:59 12.3 C 4.13 g/m*3 12.3 C 0 km/h
2140 19-04-2004 20:14:58 11.4 C 4.31 g/m*3 11.4 C 0 km/h
2141 19-04-2004 20:26:59 10.5 C 4.85 g/m*3 10.5 C 0 km/h
2142 19-04-2004 20:38:57 10 C 4.89 g/m*3 10 C 0 km/h
2143 19-04-2004 20:50:01 9.6 C 4.95 g/m*3 9.6 C 0 km/h
2144 19-04-2004 21:02:01 9.5 C 5.01 g/m*3 9.5 C 0 km/h
2145 19-04-2004 21:14:01 9.3 C 5.03 g/m*3 9.3 C 0 km/h
2146 19-04-2004 21:26:01 8.9 C 4.99 g/m*3 8.9 C 0 km/h
2147 19-04-2004 21:38:01 8.9 C 5.17 g/m*3 8.9 C 0 km/h
2148 19-04-2004 21:50:00 9 C 5.11 g/m*3 9 C 0 km/h
2149 19-04-2004 22:02:59 9.3 C 5.12 g/m*3 9.3 C 0 km/h
2150 19-04-2004 22:14:58 9.3 C 5.12 g/m*3 9.3 C 0 km/h
Sensor: Nr:Datum:Temp:Abs-Feuchte:Windchill:Wind:
Aussen-T/F 2151 19-04-2004 22:26:59 9.4 C 5.16 g/m*3 9.4 C 0 km/h
2152 19-04-2004 22:38:57 9.4 C 5.34 g/m*3 9.4 C 0 km/h
2153 19-04-2004 22:50:01 9.4 C 5.34 g/m*3 9.4 C 0 km/h
2154 19-04-2004 23:02:01 9 C 5.38 g/m*3 9 C 0 km/h
2155 19-04-2004 23:14:02 9.1 C 5.32 g/m*3 9.1 C 0 km/h
2156 19-04-2004 23:26:01 9.2 C 5.45 g/m*3 9.2 C 0 km/h
2157 19-04-2004 23:38:01 8.2 C 5.86 g/m*3 8.2 C 0 km/h
2158 19-04-2004 23:50:01 8 C 6.7 g/m*3 8 C 0 km/h
2159 20-04-2004 00:02:01 7.8 C 6.86 g/m*3 7.8 C 0 km/h
2160 20-04-2004 00:14:01 8.2 C 6.95 g/m*3 8.2 C 0 km/h
2161 20-04-2004 00:26:01 8 C 6.78 g/m*3 8 C 0 km/h
2162 20-04-2004 00:38:01 7.5 C 6.56 g/m*3 7.5 C 0 km/h
2163 20-04-2004 00:50:00 7.1 C 6.32 g/m*3 7.1 C 0 km/h
2164 20-04-2004 01:02:00 6.8 C 6.35 g/m*3 6.8 C 0 km/h
2165 20-04-2004 01:14:00 6.7 C 6.23 g/m*3 6.7 C 0 km/h
2166 20-04-2004 01:26:58 6.6 C 6.19 g/m*3 6.6 C 0 km/h
2167 20-04-2004 01:38:57 6.7 C 6.23 g/m*3 6.7 C 0 km/h
2168 20-04-2004 01:50:01 6.9 C 6.24 g/m*3 6.9 C 0 km/h
2169 20-04-2004 02:02:01 7.1 C 6.24 g/m*3 7.1 C 0 km/h
2170 20-04-2004 02:14:01 7.1 C 6.16 g/m*3 7.1 C 0 km/h
2171 20-04-2004 02:26:01 7.4 C 6.12 g/m*3 7.4 C 0 km/h
2172 20-04-2004 02:38:01 7.5 C 6.16 g/m*3 7.5 C 0 km/h
2173 20-04-2004 02:51:03 7.5 C 6.24 g/m*3 7.5 C 0 km/h
2174 20-04-2004 03:03:03 7.5 C 6.16 g/m*3 7.5 C 0 km/h
2175 20-04-2004 03:15:03 7.6 C 6.12 g/m*3 7.6 C 0 km/h
Sensor: Nr:Datum:Temp:Abs-Feuchte:Windchill:Wind:
Aussen-T/F 2176 20-04-2004 03:27:03 7.4 C 5.96 g/m*3 7.4 C 0 km/h
2177 20-04-2004 03:39:00 7.6 C 5.88 g/m*3 7.6 C 0 km/h
2178 20-04-2004 03:51:00 7.8 C 5.88 g/m*3 7.8 C 0 km/h
2179 20-04-2004 04:03:00 7.9 C 5.91 g/m*3 7.9 C 0 km/h
2180 20-04-2004 04:15:59 7.4 C 5.88 g/m*3 7.4 C 0 km/h
2181 20-04-2004 04:27:59 6.9 C 5.85 g/m*3 6.9 C 0 km/h
2182 20-04-2004 04:39:58 6.3 C 5.77 g/m*3 6.3 C 0 km/h
2183 20-04-2004 04:51:01 5.8 C 5.73 g/m*3 5.8 C 0 km/h
2184 20-04-2004 05:03:01 5.5 C 5.69 g/m*3 5.5 C 0 km/h
2185 20-04-2004 05:15:00 5.3 C 5.68 g/m*3 5.3 C 0 km/h
2186 20-04-2004 05:27:01 5 C 5.57 g/m*3 5 C 0 km/h
2187 20-04-2004 05:39:00 5 C 5.64 g/m*3 5 C 0 km/h
2188 20-04-2004 05:51:01 4.9 C 5.74 g/m*3 4.9 C 0 km/h
2189 20-04-2004 06:03:01 5 C 5.71 g/m*3 5 C 0 km/h
2190 20-04-2004 06:15:01 5 C 5.71 g/m*3 5 C 0 km/h
2191 20-04-2004 06:27:01 5 C 5.71 g/m*3 5 C 0 km/h
2192 20-04-2004 06:39:01 5.2 C 5.85 g/m*3 5.2 C 0 km/h
2193 20-04-2004 06:51:00 5.2 C 5.78 g/m*3 5.2 C 0 km/h
2194 20-04-2004 07:03:00 5.3 C 5.89 g/m*3 5.3 C 0 km/h
2195 20-04-2004 07:15:59 5.8 C 6.02 g/m*3 5.8 C 0 km/h
2196 20-04-2004 07:27:59 6.1 C 5.99 g/m*3 6.1 C 0 km/h
2197 20-04-2004 07:39:57 6.3 C 6.07 g/m*3 6.3 C 0 km/h
2198 20-04-2004 07:51:01 6.5 C 6.07 g/m*3 6.5 C 0 km/h
2199 20-04-2004 08:03:01 6.9 C 6.24 g/m*3 6.9 C 0 km/h
2200 20-04-2004 08:15:01 7.2 C 6.12 g/m*3 7.2 C 0 km/h
Sensor: Nr:Datum:Temp:Abs-Feuchte:Windchill:Wind:
Aussen-T/F 2201 20-04-2004 08:27:01 7.7 C 6.16 g/m*3 7.7 C 0 km/h
2202 20-04-2004 08:39:01 8 C 6.12 g/m*3 8 C 0 km/h
2203 20-04-2004 08:51:00 8.5 C 6.23 g/m*3 8.5 C 0 km/h
2204 20-04-2004 09:03:59 9 C 6.17 g/m*3 9 C 0 km/h
2205 20-04-2004 09:15:58 9.2 C 6.16 g/m*3 9.2 C 0 km/h
2206 20-04-2004 09:27:58 9.3 C 6.2 g/m*3 9.3 C 0 km/h
2207 20-04-2004 09:39:57 9.6 C 6.32 g/m*3 9.6 C 0 km/h
2208 20-04-2004 09:51:01 10.7 C 6.38 g/m*3 10.7 C 0 km/h
2209 20-04-2004 10:03:01 10.8 C 6.23 g/m*3 10.8 C 0 km/h
2210 20-04-2004 10:15:01 10.7 C 6.09 g/m*3 10.7 C 0 km/h
2211 20-04-2004 10:27:01 10.8 C 6.03 g/m*3 10.8 C 0 km/h
2212 20-04-2004 10:39:01 11.6 C 6.34 g/m*3 11.6 C 0 km/h
2213 20-04-2004 10:51:01 11.9 C 6.35 g/m*3 11.9 C 0 km/h
2214 20-04-2004 11:03:01 11.5 C 6.09 g/m*3 11.5 C 0 km/h
2215 20-04-2004 11:15:01 11.1 C 6.04 g/m*3 11.1 C 0 km/h
2216 20-04-2004 11:27:01 11.7 C 6.28 g/m*3 11.7 C 0 km/h
2217 20-04-2004 11:39:01 12 C 5.97 g/m*3 12 C 0 km/h
2218 20-04-2004 11:51:00 12.1 C 5.9 g/m*3 12.1 C 0 km/h
2219 20-04-2004 12:03:00 12.2 C 5.94 g/m*3 12.2 C 0 km/h
2220 20-04-2004 12:15:59 12.5 C 5.94 g/m*3 12.5 C 0 km/h
2221 20-04-2004 12:27:59 12.8 C 6.16 g/m*3 12.8 C 0 km/h
2222 20-04-2004 12:39:58 13.1 C 5.71 g/m*3 13.1 C 0 km/h
2223 20-04-2004 12:51:01 13.7 C 5.92 g/m*3 13.7 C 0 km/h
2224 20-04-2004 13:03:01 14.1 C 5.34 g/m*3 14.1 C 0 km/h
2225 20-04-2004 13:15:01 12.6 C 6.53 g/m*3 12.6 C 0 km/h
Sensor: Nr:Datum:Temp:Abs-Feuchte:Windchill:Wind:
Aussen-T/F 2226 20-04-2004 13:27:01 11.8 C 6.84 g/m*3 11.8 C 0 km/h
2227 20-04-2004 13:39:01 11.9 C 6.67 g/m*3 11.9 C 0 km/h
2228 20-04-2004 13:51:00 12.2 C 6.58 g/m*3 12.2 C 0 km/h
2229 20-04-2004 14:03:00 12.3 C 6.84 g/m*3 12.3 C 0 km/h
2230 20-04-2004 14:15:58 13.7 C 7.22 g/m*3 13.7 C 0 km/h
2231 20-04-2004 14:27:59 13.3 C 6.7 g/m*3 13.3 C 0 km/h
2232 20-04-2004 14:39:57 12.9 C 6.31 g/m*3 12.9 C 0 km/h
2233 20-04-2004 14:51:01 13.2 C 6.32 g/m*3 13.2 C 0 km/h
2234 20-04-2004 15:03:01 13.2 C 5.86 g/m*3 13.2 C 0 km/h
2235 20-04-2004 15:15:01 13.5 C 5.85 g/m*3 13.5 C 0 km/h
2236 20-04-2004 15:27:01 13.4 C 5.7 g/m*3 13.4 C 0 km/h
2237 20-04-2004 15:39:01 12.9 C 6.09 g/m*3 12.9 C 0 km/h
2238 20-04-2004 15:51:00 12.4 C 6.66 g/m*3 12.4 C 0 km/h
2239 20-04-2004 16:03:59 12.6 C 6.42 g/m*3 12.6 C 0 km/h
2240 20-04-2004 16:15:58 12.4 C 6.23 g/m*3 12.4 C 0 km/h
2241 20-04-2004 16:27:59 12.5 C 6.38 g/m*3 12.5 C 0 km/h
2242 20-04-2004 16:39:57 12.8 C 6.38 g/m*3 12.8 C 0 km/h
2243 20-04-2004 16:51:01 13 C 6.24 g/m*3 13 C 0 km/h
2244 20-04-2004 17:03:01 13.2 C 6.32 g/m*3 13.2 C 0 km/h
2245 20-04-2004 17:15:01 13.4 C 6.28 g/m*3 13.4 C 0 km/h
2246 20-04-2004 17:27:01 13.6 C 6.12 g/m*3 13.6 C 0 km/h
2247 20-04-2004 17:39:00 13.5 C 6.2 g/m*3 13.5 C 0 km/h
2248 20-04-2004 17:51:02 13.2 C 6.2 g/m*3 13.2 C 0 km/h
2249 20-04-2004 18:03:01 13.1 C 6.28 g/m*3 13.1 C 0 km/h
2250 20-04-2004 18:15:01 13.2 C 6.32 g/m*3 13.2 C 0 km/h
Sensor: Nr:Datum:Temp:Abs-Feuchte:Windchill:Wind:
Aussen-T/F 2251 20-04-2004 18:27:01 13.1 C 6.16 g/m*3 13.1 C 0 km/h
2252 20-04-2004 18:39:01 13.1 C 6.16 g/m*3 13.1 C 0 km/h
2253 20-04-2004 18:51:00 13.2 C 6.32 g/m*3 13.2 C 0 km/h
2254 20-04-2004 19:03:00 13.2 C 6.43 g/m*3 13.2 C 0 km/h
2255 20-04-2004 19:15:59 13.2 C 6.43 g/m*3 13.2 C 0 km/h
2256 20-04-2004 19:27:59 13.1 C 6.39 g/m*3 13.1 C 0 km/h
2257 20-04-2004 19:39:58 13 C 6.46 g/m*3 13 C 0 km/h
2258 20-04-2004 19:51:01 12.8 C 6.72 g/m*3 12.8 C 0 km/h
2259 20-04-2004 20:03:01 12.7 C 6.79 g/m*3 12.7 C 0 km/h
2260 20-04-2004 20:15:01 12.4 C 6.66 g/m*3 12.4 C 0 km/h
2261 20-04-2004 20:27:01 12.2 C 6.58 g/m*3 12.2 C 0 km/h
2262 20-04-2004 20:39:02 12 C 6.61 g/m*3 12 C 0 km/h
2263 20-04-2004 20:51:00 11.6 C 6.86 g/m*3 11.6 C 0 km/h
2264 20-04-2004 21:03:12 11.4 C 6.77 g/m*3 11.4 C 0 km/h
2265 20-04-2004 21:15:18 11.4 C 6.67 g/m*3 11.4 C 0 km/h
2266 20-04-2004 21:27:18 11.3 C 6.63 g/m*3 11.3 C 0 km/h
2267 20-04-2004 21:39:18 10.5 C 7.08 g/m*3 10.5 C 0 km/h
2268 20-04-2004 21:51:59 10.4 C 7.23 g/m*3 10.4 C 0 km/h
2269 20-04-2004 22:03:55 10.5 C 7.47 g/m*3 10.5 C 0 km/h
2270 20-04-2004 22:15:50 10.4 C 7.42 g/m*3 10.4 C 0 km/h
2271 20-04-2004 22:27:50 10.3 C 7.47 g/m*3 10.3 C 0 km/h
2272 20-04-2004 22:39:45 10.3 C 7.47 g/m*3 10.3 C 0 km/h
2273 20-04-2004 22:51:00 10.5 C 7.57 g/m*3 10.5 C 0 km/h
2274 20-04-2004 23:03:57 10.5 C 7.47 g/m*3 10.5 C 0 km/h
2275 20-04-2004 23:15:54 10.5 C 7.47 g/m*3 10.5 C 0 km/h
Sensor: Nr:Datum:Temp:Abs-Feuchte:Windchill:Wind:
Aussen-T/F 2276 20-04-2004 23:27:54 10.4 C 7.42 g/m*3 10.4 C 0 km/h
2277 20-04-2004 23:39:51 10.3 C 7.37 g/m*3 10.3 C 0 km/h
2278 20-04-2004 23:51:01 10.3 C 7.37 g/m*3 10.3 C 0 km/h
2279 21-04-2004 00:03:01 10.3 C 7.28 g/m*3 10.3 C 0 km/h
2280 21-04-2004 00:15:56 10.2 C 7.23 g/m*3 10.2 C 0 km/h
2281 21-04-2004 00:27:56 10.2 C 7.33 g/m*3 10.2 C 0 km/h
2282 21-04-2004 00:39:55 10.2 C 7.33 g/m*3 10.2 C 0 km/h
2283 21-04-2004 00:51:35 10.2 C 7.33 g/m*3 10.2 C 0 km/h
2284 21-04-2004 01:03:56 10.2 C 7.42 g/m*3 10.2 C 0 km/h
2285 21-04-2004 01:15:52 10.2 C 7.33 g/m*3 10.2 C 0 km/h
2286 21-04-2004 01:27:52 10.3 C 7.37 g/m*3 10.3 C 0 km/h
2287 21-04-2004 01:39:48 10.2 C 7.33 g/m*3 10.2 C 0 km/h
2288 21-04-2004 01:51:59 10.2 C 7.33 g/m*3 10.2 C 0 km/h
2289 21-04-2004 02:03:56 10.1 C 7.28 g/m*3 10.1 C 0 km/h
2290 21-04-2004 02:15:52 9.8 C 7.42 g/m*3 9.8 C 0 km/h
2291 21-04-2004 02:27:52 9.4 C 7.24 g/m*3 9.4 C 0 km/h
2292 21-04-2004 02:39:49 9.2 C 7.23 g/m*3 9.2 C 0 km/h
2293 21-04-2004 02:52:58 9.1 C 7.28 g/m*3 9.1 C 0 km/h
2294 21-04-2004 03:04:58 9 C 7.32 g/m*3 9 C 0 km/h
2295 21-04-2004 03:16:53 8.6 C 7.3 g/m*3 8.6 C 0 km/h
2296 21-04-2004 03:28:54 8.4 C 7.21 g/m*3 8.4 C 0 km/h
2297 21-04-2004 03:40:00 8.4 C 7.3 g/m*3 8.4 C 0 km/h
2298 21-04-2004 03:52:00 8.2 C 7.29 g/m*3 8.2 C 0 km/h
2299 21-04-2004 04:04:57 8 C 7.19 g/m*3 8 C 0 km/h
2300 21-04-2004 04:16:53 8 C 7.28 g/m*3 8 C 0 km/h
Sensor: Nr:Datum:Temp:Abs-Feuchte:Windchill:Wind:
Aussen-T/F 2301 21-04-2004 04:28:53 7.7 C 7.22 g/m*3 7.7 C 0 km/h
2302 21-04-2004 04:40:50 7.6 C 7.25 g/m*3 7.6 C 0 km/h
2303 21-04-2004 04:52:00 7.5 C 7.2 g/m*3 7.5 C 0 km/h
2304 21-04-2004 05:04:57 7.4 C 7.16 g/m*3 7.4 C 0 km/h
2305 21-04-2004 05:16:54 7.4 C 7.16 g/m*3 7.4 C 0 km/h
2306 21-04-2004 05:28:54 7.4 C 7.16 g/m*3 7.4 C 0 km/h
2307 21-04-2004 05:40:51 7.3 C 7.11 g/m*3 7.3 C 0 km/h
2308 21-04-2004 05:52:00 7.3 C 7.11 g/m*3 7.3 C 0 km/h
2309 21-04-2004 06:04:57 7.1 C 7.1 g/m*3 7.1 C 0 km/h
2310 21-04-2004 06:16:54 7.1 C 7.02 g/m*3 7.1 C 0 km/h
2311 21-04-2004 06:28:55 6.9 C 7.01 g/m*3 6.9 C 0 km/h
2312 21-04-2004 06:40:52 6.9 C 7.01 g/m*3 6.9 C 0 km/h
2313 21-04-2004 06:52:01 6.9 C 7.08 g/m*3 6.9 C 0 km/h
2314 21-04-2004 07:04:01 6.9 C 7.08 g/m*3 6.9 C 0 km/h
2315 21-04-2004 07:16:03 7.1 C 7.18 g/m*3 7.1 C 0 km/h
2316 21-04-2004 07:28:03 7.3 C 7.27 g/m*3 7.3 C 0 km/h
2317 21-04-2004 07:40:04 7.6 C 7.41 g/m*3 7.6 C 0 km/h
2318 21-04-2004 07:52:01 8.1 C 7.66 g/m*3 8.1 C 0 km/h
2319 21-04-2004 08:04:00 8.5 C 7.85 g/m*3 8.5 C 0 km/h
2320 21-04-2004 08:16:00 9 C 7.93 g/m*3 9 C 0 km/h
2321 21-04-2004 08:28:00 9.2 C 7.77 g/m*3 9.2 C 0 km/h
2322 21-04-2004 08:40:00 9.5 C 7.65 g/m*3 9.5 C 0 km/h
2323 21-04-2004 08:52:01 9.7 C 7.65 g/m*3 9.7 C 0 km/h
2324 21-04-2004 09:04:00 10.2 C 7.71 g/m*3 10.2 C 0 km/h
2325 21-04-2004 09:16:00 10.8 C 7.61 g/m*3 10.8 C 0 km/h
Sensor: Nr:Datum:Temp:Abs-Feuchte:Windchill:Wind:
Aussen-T/F 2326 21-04-2004 09:28:00 11 C 7.61 g/m*3 11 C 0 km/h
2327 21-04-2004 09:40:00 12.2 C 7.88 g/m*3 12.2 C 0 km/h
2328 21-04-2004 09:52:01 13.2 C 8.04 g/m*3 13.2 C 0 km/h
2329 21-04-2004 10:04:01 13.6 C 8 g/m*3 13.6 C 0 km/h
2330 21-04-2004 10:16:01 14.3 C 7.99 g/m*3 14.3 C 0 km/h
2331 21-04-2004 10:28:01 14.8 C 7.85 g/m*3 14.8 C 0 km/h
2332 21-04-2004 10:40:00 15.2 C 7.79 g/m*3 15.2 C 0 km/h
2333 21-04-2004 10:52:01 15.9 C 7.72 g/m*3 15.9 C 0 km/h
2334 21-04-2004 11:04:01 16.4 C 7.82 g/m*3 16.4 C 0 km/h
2335 21-04-2004 11:16:00 16.6 C 7.77 g/m*3 16.6 C 0 km/h
2336 21-04-2004 11:28:00 17.3 C 7.51 g/m*3 17.3 C 0 km/h
2337 21-04-2004 11:40:00 17.3 C 7.37 g/m*3 17.3 C 0 km/h
2338 21-04-2004 11:52:01 18 C 7.53 g/m*3 18 C 0 km/h
2339 21-04-2004 12:04:00 18.3 C 7.35 g/m*3 18.3 C 0 km/h
2340 21-04-2004 12:16:00 18.4 C 7.24 g/m*3 18.4 C 0 km/h
2341 21-04-2004 12:28:00 17.9 C 7.18 g/m*3 17.9 C 0 km/h
2342 21-04-2004 12:40:00 18.4 C 7.39 g/m*3 18.4 C 0 km/h
2343 21-04-2004 12:52:01 18.2 C 7.31 g/m*3 18.2 C 0 km/h
2344 21-04-2004 13:04:00 18.7 C 7.36 g/m*3 18.7 C 0 km/h
2345 21-04-2004 13:16:00 18 C 7.53 g/m*3 18 C 0 km/h
2346 21-04-2004 13:28:00 18.4 C 7.55 g/m*3 18.4 C 0 km/h
2347 21-04-2004 13:40:00 18.8 C 7.57 g/m*3 18.8 C 0 km/h
2348 21-04-2004 13:52:01 18.6 C 7.48 g/m*3 18.6 C 0 km/h
2349 21-04-2004 14:04:01 18.4 C 7.55 g/m*3 18.4 C 0 km/h
2350 21-04-2004 14:16:00 18.9 C 7.45 g/m*3 18.9 C 0 km/h
Sensor: Nr:Datum:Temp:Abs-Feuchte:Windchill:Wind:
Aussen-T/F 2351 21-04-2004 14:28:00 19 C 7.33 g/m*3 19 C 0 km/h
2352 21-04-2004 14:40:00 20 C 7.43 g/m*3 20 C 0 km/h
2353 21-04-2004 14:52:02 20 C 7.09 g/m*3 20 C 0 km/h
2354 21-04-2004 15:04:01 19.7 C 6.96 g/m*3 19.7 C 0 km/h
2355 21-04-2004 15:16:01 19.3 C 6.97 g/m*3 19.3 C 0 km/h
2356 21-04-2004 15:28:01 19.8 C 6.83 g/m*3 19.8 C 0 km/h
2357 21-04-2004 15:40:01 19.6 C 6.92 g/m*3 19.6 C 0 km/h
2358 21-04-2004 15:52:00 19.9 C 6.87 g/m*3 19.9 C 0 km/h
2359 21-04-2004 16:04:59 20.8 C 7.06 g/m*3 20.8 C 0 km/h
2360 21-04-2004 16:16:58 20.7 C 7.02 g/m*3 20.7 C 0 km/h
2361 21-04-2004 16:28:58 21.2 C 6.67 g/m*3 21.2 C 0 km/h
2362 21-04-2004 16:40:57 20.8 C 6.88 g/m*3 20.8 C 0 km/h
2363 21-04-2004 16:52:01 20.6 C 6.98 g/m*3 20.6 C 0 km/h
2364 21-04-2004 17:04:00 20.4 C 6.9 g/m*3 20.4 C 0 km/h
2365 21-04-2004 17:16:00 21.5 C 7.17 g/m*3 21.5 C 0 km/h
2366 21-04-2004 17:28:00 22.1 C 7.22 g/m*3 22.1 C 0 km/h
2367 21-04-2004 17:40:59 21.4 C 7.5 g/m*3 21.4 C 0 km/h
2368 21-04-2004 17:52:01 20.5 C 7.47 g/m*3 20.5 C 0 km/h
2369 21-04-2004 18:04:01 20.4 C 7.43 g/m*3 20.4 C 0 km/h
2370 21-04-2004 18:16:01 20.5 C 7.65 g/m*3 20.5 C 0 km/h
2371 21-04-2004 18:28:01 20.2 C 7.34 g/m*3 20.2 C 0 km/h
2372 21-04-2004 18:40:01 20.4 C 7.61 g/m*3 20.4 C 0 km/h
2373 21-04-2004 18:52:00 21.1 C 7.55 g/m*3 21.1 C 0 km/h
2374 21-04-2004 19:04:59 20.9 C 7.65 g/m*3 20.9 C 0 km/h
2375 21-04-2004 19:16:58 20.7 C 7.74 g/m*3 20.7 C 0 km/h
Sensor: Nr:Datum:Temp:Abs-Feuchte:Windchill:Wind:
Aussen-T/F 2376 21-04-2004 19:28:58 20.3 C 7.91 g/m*3 20.3 C 0 km/h
2377 21-04-2004 19:40:57 20 C 8.12 g/m*3 20 C 0 km/h
2378 21-04-2004 19:52:02 20 C 8.64 g/m*3 20 C 0 km/h
2379 21-04-2004 20:04:01 19.6 C 8.95 g/m*3 19.6 C 0 km/h
2380 21-04-2004 20:16:01 18.7 C 8.81 g/m*3 18.7 C 0 km/h
2381 21-04-2004 20:28:01 17.7 C 8.45 g/m*3 17.7 C 0 km/h
2382 21-04-2004 20:40:02 17 C 8.68 g/m*3 17 C 0 km/h
2383 21-04-2004 20:52:00 16.6 C 8.9 g/m*3 16.6 C 0 km/h
2384 21-04-2004 21:04:59 16.1 C 8.36 g/m*3 16.1 C 0 km/h
2385 21-04-2004 21:16:58 15.6 C 8.25 g/m*3 15.6 C 0 km/h
2386 21-04-2004 21:28:58 15.1 C 8.26 g/m*3 15.1 C 0 km/h
2387 21-04-2004 21:40:57 15.2 C 8.44 g/m*3 15.2 C 0 km/h
2388 21-04-2004 21:53:01 14.8 C 8.36 g/m*3 14.8 C 0 km/h
2389 21-04-2004 22:05:01 14.7 C 8.44 g/m*3 14.7 C 0 km/h
2390 21-04-2004 22:17:01 14.6 C 8.38 g/m*3 14.6 C 0 km/h
2391 21-04-2004 22:29:01 14.4 C 8.41 g/m*3 14.4 C 0 km/h
2392 21-04-2004 22:41:01 14.1 C 8.25 g/m*3 14.1 C 0 km/h
2393 21-04-2004 22:53:01 13.9 C 8.27 g/m*3 13.9 C 0 km/h
2394 21-04-2004 23:05:01 13.5 C 8.19 g/m*3 13.5 C 0 km/h
2395 21-04-2004 23:17:01 13.3 C 8.2 g/m*3 13.3 C 0 km/h
2396 21-04-2004 23:29:01 13.1 C 8.1 g/m*3 13.1 C 0 km/h
2397 21-04-2004 23:41:01 12.9 C 8.23 g/m*3 12.9 C 0 km/h
2398 21-04-2004 23:53:01 12.5 C 8.03 g/m*3 12.5 C 0 km/h
2399 22-04-2004 00:05:01 12.3 C 8.04 g/m*3 12.3 C 0 km/h
2400 22-04-2004 00:17:02 12 C 8.1 g/m*3 12 C 0 km/h
Sensor: Nr:Datum:Temp:Abs-Feuchte:Windchill:Wind:
Aussen-T/F 2401 22-04-2004 00:29:02 11.9 C 8.15 g/m*3 11.9 C 0 km/h
2402 22-04-2004 00:41:02 11.7 C 8.16 g/m*3 11.7 C 0 km/h
2403 22-04-2004 00:53:02 11.6 C 8.11 g/m*3 11.6 C 0 km/h
2404 22-04-2004 01:05:02 11.5 C 8.06 g/m*3 11.5 C 0 km/h
2405 22-04-2004 01:17:02 11.3 C 7.96 g/m*3 11.3 C 0 km/h
2406 22-04-2004 01:29:02 11.1 C 7.96 g/m*3 11.1 C 0 km/h
2407 22-04-2004 01:41:02 10.9 C 7.96 g/m*3 10.9 C 0 km/h
2408 22-04-2004 01:53:02 10.7 C 7.86 g/m*3 10.7 C 0 km/h
2409 22-04-2004 02:05:02 10.6 C 7.91 g/m*3 10.6 C 0 km/h
2410 22-04-2004 02:17:02 10.4 C 7.9 g/m*3 10.4 C 0 km/h
2411 22-04-2004 02:29:02 10.4 C 7.81 g/m*3 10.4 C 0 km/h
2412 22-04-2004 02:41:02 10.2 C 7.8 g/m*3 10.2 C 0 km/h
2413 22-04-2004 02:53:02 10 C 7.71 g/m*3 10 C 0 km/h
2414 22-04-2004 03:05:02 9.7 C 7.74 g/m*3 9.7 C 0 km/h
2415 22-04-2004 03:17:02 9.6 C 7.69 g/m*3 9.6 C 0 km/h
2416 22-04-2004 03:29:02 9.5 C 7.65 g/m*3 9.5 C 0 km/h
2417 22-04-2004 03:41:02 9.2 C 7.59 g/m*3 9.2 C 0 km/h
2418 22-04-2004 03:53:02 9.1 C 7.54 g/m*3 9.1 C 0 km/h
2419 22-04-2004 04:05:02 9 C 7.58 g/m*3 9 C 0 km/h
2420 22-04-2004 04:17:02 9 C 7.49 g/m*3 9 C 0 km/h
2421 22-04-2004 04:29:02 8.9 C 7.53 g/m*3 8.9 C 0 km/h
2422 22-04-2004 04:41:02 8.8 C 7.49 g/m*3 8.8 C 0 km/h
2423 22-04-2004 04:53:03 8.6 C 7.48 g/m*3 8.6 C 0 km/h
2424 22-04-2004 05:05:03 8.5 C 7.43 g/m*3 8.5 C 0 km/h
2425 22-04-2004 05:17:03 8.4 C 7.38 g/m*3 8.4 C 0 km/h
Sensor: Nr:Datum:Temp:Abs-Feuchte:Windchill:Wind:
Aussen-T/F 2426 22-04-2004 05:29:03 8.3 C 7.33 g/m*3 8.3 C 0 km/h
2427 22-04-2004 05:41:03 8.2 C 7.29 g/m*3 8.2 C 0 km/h
2428 22-04-2004 05:53:03 8.2 C 7.29 g/m*3 8.2 C 0 km/h
2429 22-04-2004 06:05:03 8.1 C 7.32 g/m*3 8.1 C 0 km/h
2430 22-04-2004 06:17:03 8.1 C 7.24 g/m*3 8.1 C 0 km/h
2431 22-04-2004 06:29:03 8 C 7.19 g/m*3 8 C 0 km/h
2432 22-04-2004 06:41:03 8.1 C 7.32 g/m*3 8.1 C 0 km/h
2433 22-04-2004 06:53:03 8.1 C 7.32 g/m*3 8.1 C 0 km/h
2434 22-04-2004 07:05:03 8 C 7.28 g/m*3 8 C 0 km/h
2435 22-04-2004 07:17:03 8.2 C 7.37 g/m*3 8.2 C 0 km/h
2436 22-04-2004 07:29:03 8.2 C 7.29 g/m*3 8.2 C 0 km/h
2437 22-04-2004 07:41:03 8.6 C 7.48 g/m*3 8.6 C 0 km/h
2438 22-04-2004 07:53:03 8.7 C 7.44 g/m*3 8.7 C 0 km/h
2439 22-04-2004 08:05:03 8.9 C 7.45 g/m*3 8.9 C 0 km/h
2440 22-04-2004 08:17:03 9.4 C 7.6 g/m*3 9.4 C 0 km/h
2441 22-04-2004 08:29:03 10.2 C 7.8 g/m*3 10.2 C 0 km/h
2442 22-04-2004 08:41:03 10.7 C 7.76 g/m*3 10.7 C 0 km/h
2443 22-04-2004 08:53:03 11.3 C 7.85 g/m*3 11.3 C 0 km/h
2444 22-04-2004 09:05:03 11.9 C 8.15 g/m*3 11.9 C 0 km/h
2445 22-04-2004 09:17:03 12.2 C 8.09 g/m*3 12.2 C 0 km/h
2446 22-04-2004 09:29:04 12.5 C 8.14 g/m*3 12.5 C 0 km/h
2447 22-04-2004 09:41:04 12.7 C 8.24 g/m*3 12.7 C 0 km/h
2448 22-04-2004 09:53:04 13 C 8.28 g/m*3 13 C 0 km/h
2449 22-04-2004 10:05:04 13.5 C 8.42 g/m*3 13.5 C 0 km/h
2450 22-04-2004 10:17:01 14.1 C 8.62 g/m*3 14.1 C 0 km/h
Sensor: Nr:Datum:Temp:Abs-Feuchte:Windchill:Wind:
Aussen-T/F 2451 22-04-2004 10:29:01 15 C 8.85 g/m*3 15 C 0 km/h
2452 22-04-2004 10:41:00 15.8 C 9.02 g/m*3 15.8 C 0 km/h
2453 22-04-2004 10:53:01 17.1 C 8.59 g/m*3 17.1 C 0 km/h
2454 22-04-2004 11:05:01 17.5 C 8.35 g/m*3 17.5 C 0 km/h
2455 22-04-2004 11:17:00 17.7 C 8.6 g/m*3 17.7 C 0 km/h
2456 22-04-2004 11:29:00 18.5 C 8.7 g/m*3 18.5 C 0 km/h
2457 22-04-2004 11:41:00 19.2 C 8.57 g/m*3 19.2 C 0 km/h
2458 22-04-2004 11:53:01 19.8 C 8.54 g/m*3 19.8 C 0 km/h
2459 22-04-2004 12:05:01 20.4 C 8.85 g/m*3 20.4 C 0 km/h
2460 22-04-2004 12:17:01 21.1 C 8.48 g/m*3 21.1 C 0 km/h
2461 22-04-2004 12:29:01 21.5 C 8.49 g/m*3 21.5 C 0 km/h
2462 22-04-2004 12:41:01 21.8 C 8.44 g/m*3 21.8 C 0 km/h
2463 22-04-2004 12:53:00 22.4 C 8.14 g/m*3 22.4 C 0 km/h
2464 22-04-2004 13:05:00 23.3 C 7.74 g/m*3 23.3 C 0 km/h
2465 22-04-2004 13:17:59 24.2 C 7.48 g/m*3 24.2 C 0 km/h
2466 22-04-2004 13:29:59 24.6 C 7.43 g/m*3 24.6 C 0 km/h
2467 22-04-2004 13:41:57 25 C 7.14 g/m*3 25 C 0 km/h
2468 22-04-2004 13:53:01 24.9 C 7.55 g/m*3 24.9 C 0 km/h
2469 22-04-2004 14:05:01 25.2 C 6.98 g/m*3 25.2 C 0 km/h
2470 22-04-2004 14:17:01 25.4 C 7.3 g/m*3 25.4 C 0 km/h
2471 22-04-2004 14:29:01 25 C 7.14 g/m*3 25 C 0 km/h
2472 22-04-2004 14:41:01 25.5 C 7.34 g/m*3 25.5 C 0 km/h
2473 22-04-2004 14:53:00 24.7 C 6.79 g/m*3 24.7 C 0 km/h
2474 22-04-2004 15:05:00 25.4 C 6.83 g/m*3 25.4 C 0 km/h
2475 22-04-2004 15:17:58 25.7 C 6.94 g/m*3 25.7 C 0 km/h
Sensor: Nr:Datum:Temp:Abs-Feuchte:Windchill:Wind:
Aussen-T/F 2476 22-04-2004 15:29:58 26.5 C 7.51 g/m*3 26.5 C 0 km/h
2477 22-04-2004 15:41:57 27 C 7.21 g/m*3 27 C 0 km/h
2478 22-04-2004 15:53:01 26.8 C 6.36 g/m*3 26.8 C 0 km/h
2479 22-04-2004 16:05:01 27.7 C 6.69 g/m*3 27.7 C 0 km/h
2480 22-04-2004 16:17:01 27.8 C 5.92 g/m*3 27.8 C 0 km/h
2481 22-04-2004 16:29:01 26.6 C 5.54 g/m*3 26.6 C 0 km/h
2482 22-04-2004 16:41:01 27 C 5.66 g/m*3 27 C 0 km/h
2483 22-04-2004 16:53:01 26.6 C 5.79 g/m*3 26.6 C 0 km/h
2484 22-04-2004 17:05:01 26.1 C 5.39 g/m*3 26.1 C 0 km/h
2485 22-04-2004 17:17:01 25 C 7.83 g/m*3 25 C 0 km/h
2486 22-04-2004 17:29:01 24.5 C 8.28 g/m*3 24.5 C 0 km/h
2487 22-04-2004 17:41:01 24.1 C 8.31 g/m*3 24.1 C 0 km/h
2488 22-04-2004 17:53:00 23.4 C 9.04 g/m*3 23.4 C 0 km/h
2489 22-04-2004 18:05:00 21.7 C 8.97 g/m*3 21.7 C 0 km/h
2490 22-04-2004 18:17:00 21.9 C 9.26 g/m*3 21.9 C 0 km/h
2491 22-04-2004 18:29:00 21.8 C 9.02 g/m*3 21.8 C 0 km/h
2492 22-04-2004 18:41:00 21.5 C 8.67 g/m*3 21.5 C 0 km/h
2493 22-04-2004 18:53:01 21.6 C 8.53 g/m*3 21.6 C 0 km/h
2494 22-04-2004 19:05:01 21.2 C 9.27 g/m*3 21.2 C 0 km/h
2495 22-04-2004 19:17:01 20.6 C 9.49 g/m*3 20.6 C 0 km/h
2496 22-04-2004 19:29:01 19.9 C 9.79 g/m*3 19.9 C 0 km/h
2497 22-04-2004 19:41:01 19 C 9.78 g/m*3 19 C 0 km/h
2498 22-04-2004 19:53:01 18.8 C 9.99 g/m*3 18.8 C 0 km/h
2499 22-04-2004 20:05:00 18.6 C 9.87 g/m*3 18.6 C 0 km/h
2500 22-04-2004 20:17:59 18.3 C 9.69 g/m*3 18.3 C 0 km/h
Sensor: Nr:Datum:Temp:Abs-Feuchte:Windchill:Wind:
Aussen-T/F 2501 22-04-2004 20:29:59 18.3 C 9.85 g/m*3 18.3 C 0 km/h
2502 22-04-2004 20:41:58 18 C 9.68 g/m*3 18 C 0 km/h
2503 22-04-2004 20:53:01 17.7 C 9.81 g/m*3 17.7 C 0 km/h
2504 22-04-2004 21:05:01 17.5 C 9.69 g/m*3 17.5 C 0 km/h
2505 22-04-2004 21:17:01 17.2 C 9.67 g/m*3 17.2 C 0 km/h
2506 22-04-2004 21:29:01 17.1 C 9.61 g/m*3 17.1 C 0 km/h
2507 22-04-2004 21:41:01 17 C 9.69 g/m*3 17 C 0 km/h
2508 22-04-2004 21:53:01 17 C 9.69 g/m*3 17 C 0 km/h
2509 22-04-2004 22:05:01 17 C 9.69 g/m*3 17 C 0 km/h
2510 22-04-2004 22:17:01 16.7 C 9.66 g/m*3 16.7 C 0 km/h
2511 22-04-2004 22:29:01 16.6 C 9.89 g/m*3 16.6 C 0 km/h
2512 22-04-2004 22:41:01 16.4 C 9.91 g/m*3 16.4 C 0 km/h
2513 22-04-2004 22:53:00 16.3 C 9.99 g/m*3 16.3 C 0 km/h
2514 22-04-2004 23:05:00 16.1 C 10.01 g/m*3 16.1 C 0 km/h
2515 22-04-2004 23:17:59 16.1 C 10.01 g/m*3 16.1 C 0 km/h
2516 22-04-2004 23:29:59 16 C 9.95 g/m*3 16 C 0 km/h
2517 22-04-2004 23:41:58 16.1 C 10.14 g/m*3 16.1 C 0 km/h
2518 22-04-2004 23:53:01 16 C 10.22 g/m*3 16 C 0 km/h

Legende:
   Min
   Max


Maximal/Minimal-Werte vom 02.04.2004 - 22.04.2004

Sensor Min Max Avg
Temp
(Aussen-T/F)
0.2 °C
12-04-2004  07:07:01
27.8 °C
22-04-2004  16:17:01
10.58 °C
Abs-Feuchte
(Aussen-T/F)
3.16 g/m*3
19-04-2004  18:14:00
10.22 g/m*3
22-04-2004  23:53:01
5.69 g/m*3
Windchill
(Aussen-T/F)
0.2 C
12-04-2004  07:07:01
27.8 C
22-04-2004  16:17:01
10.57 C

Die Daten stammen von einer Davis Vantage Pro 2 Wetter-Station und werden unter Linux mit der Software wview2wettercgi und aufbereitet. Alle Angaben erfolgen ohne Gewähr für ihre Vollständigkeit oder Richtigkeit.
Kontakt: Rainer Krienke krienke@uni-koblenz.de . Meine Webseiten an der Uni Koblenz oder privat.
Version: $Revision: 0.78 $